EI432 / EI-EDP 7700 Squawk Report (27th of June, 2022)

Aircraft A320 Reg No. EI-EDP Age 13 years old
Model A320 Jet engines 2 First flight 21-01-09
Registered 16-02-09 Rollout 01-09 Delivered 16-02-09
Construction No. 3781 Line No. N/A Series 214
ADSHEX 4CA76F Airline name Aer Lingus Owner RBS Aerospace Ltd
Airfield based Dublin~Co Dublin~EI First tracked N/A

Flight history for EI-EDP

Route Flight No Date Playback
Brussels Airport (BRU) - Dublin (DUB) EI639 2022-08-11 21:44:00
Dublin (DUB) - Brussels Airport (BRU) EI638 2022-08-11 19:36:00
Schiphol (AMS) - Dublin (DUB) EI609 2022-08-11 17:15:00
Dublin (DUB) - Schiphol (AMS) EI608 2022-08-11 14:38:00
Barajas (MAD) - Dublin (DUB) EI593 2022-08-11 13:05:00
Dublin (DUB) - Barajas (MAD) EI592 2022-08-11 09:44:00
Tenerife Sur (TFS) - Dublin (DUB) EI765 2022-08-11 05:20:00
Dublin (DUB) - Tenerife Sur (TFS) EI764 2022-08-10 18:27:00
Václav Havel Airport Prague (PRG) - Dublin (DUB) EI643 2022-08-10 13:59:00
Dublin (DUB) - Václav Havel Airport Prague (PRG) EI642 2022-08-10 09:08:00
Adnan Menderes (ADB) - Dublin (DUB) EI799 2022-08-10 00:12:00
Dublin (DUB) - Adnan Menderes (ADB) EI798 2022-08-09 20:11:00
Venezia Tessera (VCE) - Dublin (DUB) EI423 2022-08-09 12:52:00
Dublin (DUB) - Venezia Tessera (VCE) EI422 2022-08-09 09:25:00
Faro (FAO) - Dublin (DUB) EI495 2022-08-08 17:35:00
Dublin (DUB) - Faro (FAO) EI494 2022-08-08 14:05:00
Brussels Airport (BRU) - Dublin (DUB) EI631 2022-08-08 11:20:00
Dublin (DUB) - Brussels Airport (BRU) EI630 2022-08-08 07:37:00
Tenerife Sur (TFS) - Dublin (DUB) EI765 2022-08-07 23:24:00
Dublin (DUB) - Tenerife Sur (TFS) EI764 2022-08-07 18:31:00
Time Lat Lon Altitude Heading Speed Vertical Rate
2022-06-27 10:29:06 GMT 45.413864 9.280439 700 357 142 -640
2022-06-27 10:28:53 GMT 45.406261 9.281237 850 356 156 -448
2022-06-27 10:28:40 GMT 45.396439 9.282375 950 356 156 -448
2022-06-27 10:28:35 GMT 45.394089 9.282597 1,075 357 140 -512
2022-06-27 10:28:28 GMT 45.389374 9.283120 1,150 356 147 -768
2022-06-27 10:28:17 GMT 45.382690 9.283840 1,275 356 142 -640
2022-06-27 10:28:09 GMT 45.377213 9.284452 1,375 356 148 -960
2022-06-27 10:28:06 GMT 45.374588 9.284755 1,425 356 149 -768
2022-06-27 10:28:02 GMT 45.372513 9.284988 1,475 356 151 -704
2022-06-27 10:27:57 GMT 45.368229 9.285390 3,175 356 156 -448
2022-06-27 10:27:50 GMT 45.363144 9.285998 1,625 356 158 -576
2022-06-27 10:27:46 GMT 45.360313 9.286261 3,175 356 167 -704
2022-06-27 10:27:41 GMT 45.357147 9.286529 1,750 357 163 -768
2022-06-27 10:27:37 GMT 45.352818 9.286998 3,175 356 167 -704
2022-06-27 10:27:31 GMT 45.349594 9.287371 1,850 356 166 -704
2022-06-27 10:27:22 GMT 45.342205 9.288137 2,000 356 168 -1216
2022-06-27 10:27:12 GMT 45.334488 9.289006 2,175 356 166 -896
2022-06-27 10:27:05 GMT 45.329124 9.289610 2,275 356 165 -704
2022-06-27 10:26:55 GMT 45.321259 9.290445 2,375 356 171 -640
2022-06-27 10:26:44 GMT 45.312782 9.291419 2,525 356 176 -960
2022-06-27 10:26:34 GMT 45.304871 9.292276 2,700 356 176 -1280
2022-06-27 10:26:30 GMT 45.301613 9.292558 2,775 356 176 -1152
2022-06-27 10:26:25 GMT 45.296585 9.293126 2,900 357 175 -1088
2022-06-27 10:26:20 GMT 45.293556 9.293362 2,950 357 176 -960
2022-06-27 10:26:14 GMT 45.288345 9.293898 3,050 356 180 -832
2022-06-27 10:26:08 GMT 45.283173 9.294434 3,150 356 187 -768
2022-06-27 10:26:04 GMT 45.279465 9.294891 3,200 356 189 -832
2022-06-27 10:25:53 GMT 45.269531 9.295938 3,375 356 201 -1088
2022-06-27 10:25:50 GMT 45.267105 9.296199 3,375 356 201 -1088
2022-06-27 10:25:47 GMT 45.264450 9.296526 3,450 356 202 -960
2022-06-27 10:25:44 GMT 45.260559 9.296919 3,525 356 204 -960
2022-06-27 10:25:41 GMT 45.257339 9.297247 3,575 356 205 -1088
2022-06-27 10:25:37 GMT 45.254608 9.297573 3,650 356 205 -1088
2022-06-27 10:25:32 GMT 45.250443 9.298030 3,825 356 206 -1152
2022-06-27 10:25:28 GMT 45.246166 9.298453 3,825 356 206 -1152
2022-06-27 10:25:25 GMT 45.243469 9.298721 3,875 356 207 -1216
2022-06-27 10:25:20 GMT 45.238724 9.299273 3,975 356 207 -1280
2022-06-27 10:25:11 GMT 45.229980 9.300188 4,175 356 208 -1472
2022-06-27 10:25:00 GMT 45.219406 9.301365 4,475 356 207 -1664
2022-06-27 10:24:52 GMT 45.211395 9.302216 4,800 356 208 -1728
2022-06-27 10:24:42 GMT 45.201710 9.303276 5,000 356 210 -1856
2022-06-27 10:24:39 GMT 45.198944 9.303523 5,100 356 210 -1920
2022-06-27 10:24:32 GMT 45.191254 9.304374 5,375 356 211 -1984
2022-06-27 10:24:24 GMT 45.184628 9.305085 5,600 356 212 -2048
2022-06-27 10:24:20 GMT 45.180908 9.305485 5,725 356 212 -2112
2022-06-27 10:24:13 GMT 45.173641 9.306291 5,975 356 212 -2048
2022-06-27 10:24:09 GMT 45.169590 9.306693 6,125 356 212 -2048
2022-06-27 10:24:03 GMT 45.164234 9.307296 6,275 357 216 -896
2022-06-27 10:23:59 GMT 45.159760 9.307709 6,625 357 240 -704
2022-06-27 10:23:53 GMT 45.153625 9.308297 6,425 356 226 -1024
2022-06-27 10:23:49 GMT 45.149155 9.308769 6,500 357 229 -832
2022-06-27 10:23:42 GMT 45.142590 9.309372 6,575 357 238 -768
2022-06-27 10:23:38 GMT 45.137421 9.309801 6,625 357 240 -704
2022-06-27 10:23:32 GMT 45.130829 9.310325 6,700 358 245 -640
2022-06-27 10:23:27 GMT 45.125656 9.310652 6,750 358 249 -640
2022-06-27 10:23:20 GMT 45.115265 9.311315 6,825 358 260 -576
2022-06-27 10:23:17 GMT 45.113586 9.311449 6,850 358 262 -640
2022-06-27 10:23:10 GMT 45.104416 9.311650 6,925 0 269 -896
2022-06-27 10:23:07 GMT 45.100067 9.311305 7,000 4 271 -1088
2022-06-27 10:23:02 GMT 45.095341 9.310444 7,075 13 277 -1024
2022-06-27 10:22:57 GMT 45.088448 9.307832 7,175 20 278 -1344
2022-06-27 10:22:50 GMT 45.080338 9.302019 7,350 39 280 -1152
2022-06-27 10:22:47 GMT 45.077408 9.298946 7,375 43 281 -1088
2022-06-27 10:22:40 GMT 45.071457 9.289610 7,550 58 283 -960
2022-06-27 10:22:37 GMT 45.068573 9.282793 7,575 63 284 -896
2022-06-27 10:22:26 GMT 45.062893 9.265695 7,725 65 294 -832
2022-06-27 10:22:19 GMT 45.058422 9.251895 7,850 65 303 -1152
2022-06-27 10:22:16 GMT 45.057175 9.248134 7,875 65 304 -1344
2022-06-27 10:22:08 GMT 45.051998 9.232267 8,125 65 308 -1984
2022-06-27 10:22:05 GMT 45.051022 9.229253 8,200 65 309 -1984
2022-06-27 10:21:56 GMT 45.044739 9.210026 8,550 65 312 -2048
2022-06-27 10:21:48 GMT 45.040466 9.196930 8,800 65 315 -1728
2022-06-27 10:21:45 GMT 45.038544 9.191001 8,850 65 317 -1664
2022-06-27 10:21:38 GMT 45.034077 9.177402 9,050 65 324 -1024
2022-06-27 10:21:35 GMT 45.026627 9.154760 9,150 75 392 -1984
2022-06-27 10:21:26 GMT 45.026627 9.154760 9,250 64 340 -896
2022-06-27 10:21:23 GMT 45.024216 9.147426 9,250 64 340 -896
2022-06-27 10:21:16 GMT 45.020325 9.135720 9,350 64 350 -896
2022-06-27 10:21:13 GMT 45.018204 9.129304 9,375 64 353 -896
2022-06-27 10:21:06 GMT 45.012817 9.112963 9,525 64 364 -1280
2022-06-27 10:21:03 GMT 45.010521 9.106058 9,600 64 366 -1728
2022-06-27 10:20:57 GMT 45.006821 9.094979 9,975 64 375 -1536
2022-06-27 10:20:53 GMT 45.003021 9.083601 9,950 64 373 -1728
2022-06-27 10:20:45 GMT 44.997528 9.067121 10,125 64 378 -1472
2022-06-27 10:20:42 GMT 44.995468 9.060974 10,200 64 380 -1536
2022-06-27 10:20:37 GMT 44.991528 9.049251 10,350 64 383 -1600
2022-06-27 10:20:32 GMT 44.988037 9.038934 10,475 64 384 -1600
2022-06-27 10:20:25 GMT 44.981846 9.020713 10,675 64 389 -1536
2022-06-27 10:20:22 GMT 44.980408 9.016440 10,725 64 390 -1536
2022-06-27 10:20:17 GMT 44.975967 9.002838 10,875 66 392 -1856
2022-06-27 10:20:14 GMT 44.972347 8.990635 11,050 70 392 -2112
2022-06-27 10:20:11 GMT 44.972347 8.990635 11,050 70 392 -2112
2022-06-27 10:20:04 GMT 44.968597 8.971449 11,300 83 390 -1536
2022-06-27 10:20:01 GMT 44.967972 8.966184 11,350 81 391 -1664
2022-06-27 10:19:57 GMT 44.966949 8.953455 11,475 87 391 -1344
2022-06-27 10:19:54 GMT 44.966721 8.945356 11,550 90 392 -1216
2022-06-27 10:19:51 GMT 44.966717 8.940392 11,575 92 392 -1152
2022-06-27 10:19:46 GMT 44.967182 8.927195 11,675 93 394 -1344
2022-06-27 10:19:42 GMT 44.967682 8.914882 11,800 93 396 -1792
2022-06-27 10:19:35 GMT 44.968414 8.898337 12,000 93 397 -1792
2022-06-27 10:19:31 GMT 44.968857 8.887270 12,125 93 398 -1664
2022-06-27 10:19:25 GMT 44.969513 8.871198 12,300 93 398 -1472
2022-06-27 10:19:20 GMT 44.970016 8.859885 12,400 93 399 -1472
2022-06-27 10:19:15 GMT 44.970577 8.845937 12,550 93 399 -1472
2022-06-27 10:19:10 GMT 44.971046 8.834013 12,675 93 400 -1472
2022-06-27 10:19:05 GMT 44.971573 8.821760 12,775 93 401 -1536
2022-06-27 10:18:59 GMT 44.972260 8.805411 12,950 93 401 -1600
2022-06-27 10:18:56 GMT 44.972675 8.794690 13,075 93 402 -1792
2022-06-27 10:18:49 GMT 44.973373 8.778478 13,300 93 403 -2368
2022-06-27 10:18:45 GMT 44.973839 8.767760 13,525 93 403 -2496
2022-06-27 10:18:38 GMT 44.974628 8.749405 13,800 93 401 -3264
2022-06-27 10:18:34 GMT 44.975094 8.738619 14,050 93 398 -3776
2022-06-27 10:18:28 GMT 44.975700 8.723948 14,375 93 394 -4096
2022-06-27 10:18:24 GMT 44.976105 8.714185 14,875 93 389 -3712
2022-06-27 10:18:21 GMT 44.976444 8.705928 14,875 93 389 -3712
2022-06-27 10:18:18 GMT 44.976791 8.697968 15,025 93 387 -3008
2022-06-27 10:18:14 GMT 44.977158 8.688943 15,200 93 386 -2496
2022-06-27 10:18:07 GMT 44.977890 8.670436 15,425 93 387 -1472
2022-06-27 10:18:04 GMT 44.978165 8.663831 15,475 93 387 -1472
2022-06-27 10:18:00 GMT 44.978668 8.651341 15,600 93 388 -1472
2022-06-27 10:17:57 GMT 44.978912 8.645235 15,625 93 388 -1472
2022-06-27 10:17:54 GMT 44.979145 8.639072 15,700 93 388 -1408
2022-06-27 10:17:49 GMT 44.979721 8.625706 15,825 93 389 -1216
2022-06-27 10:17:45 GMT 44.980225 8.612823 15,900 93 389 -896
2022-06-27 10:17:38 GMT 44.981285 8.586686 15,975 93 389 -320
2022-06-27 10:17:34 GMT 44.981285 8.586686 16,000 93 388 -192
2022-06-27 10:17:27 GMT 44.982330 8.561489 16,000 93 388 64
2022-06-27 10:17:24 GMT 44.982330 8.561489 16,000 93 388 0
2022-06-27 10:17:17 GMT 44.983055 8.543478 16,000 93 388 0
2022-06-27 10:17:13 GMT 44.983429 8.534873 16,000 93 388 0
2022-06-27 10:17:07 GMT 44.984116 8.517936 16,000 93 388 0
2022-06-27 10:17:04 GMT 44.984390 8.510154 16,000 93 388 0
2022-06-27 10:16:59 GMT 44.984917 8.497523 16,000 93 388 0
2022-06-27 10:16:55 GMT 44.985336 8.487005 16,000 93 387 0
2022-06-27 10:16:46 GMT 44.986267 8.464573 16,000 93 387 0
2022-06-27 10:16:43 GMT 44.986542 8.456922 16,700 93 387 0
2022-06-27 10:16:34 GMT 44.987457 8.433576 16,050 93 388 -512
2022-06-27 10:16:23 GMT 44.988510 8.406895 16,200 93 390 -1024
2022-06-27 10:16:17 GMT 44.989105 8.391746 16,300 93 391 -1024
2022-06-27 10:16:12 GMT 44.989525 8.380559 16,375 93 392 -1088
2022-06-27 10:16:02 GMT 44.990524 8.354645 16,575 93 394 -1280
2022-06-27 10:15:55 GMT 44.991295 8.334202 16,750 93 395 -1344
2022-06-27 10:15:52 GMT 44.991528 8.327436 16,800 93 395 -1344
2022-06-27 10:15:41 GMT 44.992504 8.300774 17,025 92 397 -1408
2022-06-27 10:15:33 GMT 44.993343 8.278064 17,250 93 399 -1600
2022-06-27 10:15:30 GMT 44.993546 8.272705 17,300 92 400 -1600
2022-06-27 10:15:23 GMT 44.994324 8.250602 17,525 92 402 -1856
2022-06-27 10:15:20 GMT 44.994553 8.245440 17,600 92 402 -1792
2022-06-27 10:15:10 GMT 44.995529 8.218309 17,925 92 409 64
2022-06-27 10:15:02 GMT 44.996292 8.197501 17,950 92 407 -512
2022-06-27 10:14:59 GMT 44.996521 8.190700 17,975 92 407 -256
2022-06-27 10:14:52 GMT 44.997345 8.168400 17,975 92 409 64
2022-06-27 10:14:49 GMT 44.997528 8.163038 17,975 92 409 64
2022-06-27 10:14:38 GMT 44.998535 8.135049 18,000 92 408 0
2022-06-27 10:14:31 GMT 44.999222 8.115365 18,025 92 408 -256
2022-06-27 10:14:28 GMT 44.999489 8.108111 18,050 92 407 -576
2022-06-27 10:14:21 GMT 45.000183 8.089207 18,100 92 407 -896
2022-06-27 10:14:18 GMT 45.000511 8.080578 18,225 92 405 -1280
2022-06-27 10:14:10 GMT 45.001259 8.061017 18,400 92 403 -1856
2022-06-27 10:14:07 GMT 45.001537 8.053112 18,500 92 402 -1984
2022-06-27 10:13:59 GMT 45.002281 8.032078 18,775 92 401 -2176
2022-06-27 10:13:56 GMT 45.002560 8.024106 18,875 92 401 -2176
2022-06-27 10:13:52 GMT 45.003025 8.011445 19,200 92 401 -2560
2022-06-27 10:13:49 GMT 45.003342 8.002559 19,200 92 401 -2560
2022-06-27 10:13:46 GMT 45.003479 7.998570 19,275 92 400 -2752
2022-06-27 10:13:41 GMT 45.003937 7.984706 19,525 92 399 -2752
2022-06-27 10:13:36 GMT 45.004330 7.971720 19,725 92 398 -2240
2022-06-27 10:13:26 GMT 45.005127 7.944881 20,000 92 398 -1088
2022-06-27 10:13:22 GMT 45.005402 7.933895 20,075 92 398 -1088
2022-06-27 10:13:18 GMT 45.005676 7.922712 20,150 91 397 -1088
2022-06-27 10:13:15 GMT 45.005814 7.917284 20,200 91 397 -1152
2022-06-27 10:13:09 GMT 45.006134 7.901590 20,325 91 398 -1344
2022-06-27 10:13:05 GMT 45.006378 7.890595 20,425 91 398 -1344
2022-06-27 10:13:00 GMT 45.006592 7.878701 20,525 91 399 -1344
2022-06-27 10:12:54 GMT 45.006935 7.862192 20,650 92 399 -1408
2022-06-27 10:12:47 GMT 45.007599 7.844565 20,825 95 397 -1408
2022-06-27 10:12:44 GMT 45.008240 7.835865 20,900 97 396 -1472
2022-06-27 10:12:39 GMT 45.009449 7.822936 21,250 99 395 -1472
2022-06-27 10:12:34 GMT 45.011032 7.810140 21,150 101 394 -1472
2022-06-27 10:12:31 GMT 45.012337 7.801030 21,250 101 394 -1600
2022-06-27 10:12:27 GMT 45.013454 7.792991 21,325 101 394 -1536
2022-06-27 10:12:23 GMT 45.014805 7.783211 21,425 101 394 -1472
2022-06-27 10:12:20 GMT 45.015930 7.775247 21,500 101 393 -1344
2022-06-27 10:12:15 GMT 45.017643 7.762846 21,575 101 393 -1280
2022-06-27 10:12:10 GMT 45.019363 7.750658 21,825 101 391 -896
2022-06-27 10:12:01 GMT 45.022705 7.726789 22,000 101 391 -896
2022-06-27 10:11:56 GMT 45.024391 7.714613 21,950 101 391 -896
2022-06-27 10:11:49 GMT 45.026909 7.696660 22,075 101 390 -896
2022-06-27 10:11:46 GMT 45.028072 7.688420 22,125 101 390 -896
2022-06-27 10:11:41 GMT 45.030258 7.672773 22,200 101 389 -896
2022-06-27 10:11:33 GMT 45.032455 7.657078 22,300 101 389 -896
2022-06-27 10:11:29 GMT 45.034218 7.644542 22,375 101 387 -832
2022-06-27 10:11:26 GMT 45.034973 7.639356 22,400 101 387 -832
2022-06-27 10:11:20 GMT 45.036758 7.626670 22,550 101 387 -960
2022-06-27 10:11:16 GMT 45.038593 7.613257 22,575 101 387 -960
2022-06-27 10:11:09 GMT 45.041107 7.595346 22,675 101 387 -960
2022-06-27 10:11:03 GMT 45.042736 7.583782 22,800 101 388 -1024
2022-06-27 10:11:00 GMT 45.043945 7.575006 22,800 101 388 -1024
2022-06-27 10:10:57 GMT 45.044952 7.567814 22,850 101 389 -1024
2022-06-27 10:10:49 GMT 45.047562 7.549046 23,000 101 392 -320
2022-06-27 10:10:43 GMT 45.049763 7.532870 23,000 101 392 -320
2022-06-27 10:10:39 GMT 45.051132 7.523150 23,000 101 392 0
2022-06-27 10:10:33 GMT 45.053009 7.509613 23,000 100 393 0
2022-06-27 10:10:28 GMT 45.054886 7.496011 23,000 100 393 0
2022-06-27 10:10:18 GMT 45.058273 7.470899 23,000 100 394 0
2022-06-27 10:10:12 GMT 45.060238 7.456501 23,000 100 394 0
2022-06-27 10:10:09 GMT 45.061634 7.446453 23,000 100 394 0
2022-06-27 10:10:06 GMT 45.062473 7.440223 23,000 100 394 0
2022-06-27 10:10:03 GMT 45.063629 7.431401 23,000 100 394 0
2022-06-27 10:09:57 GMT 45.065552 7.417276 23,000 100 396 0
2022-06-27 10:09:52 GMT 45.067200 7.404524 23,000 100 397 -64
2022-06-27 10:09:46 GMT 45.068989 7.390985 23,000 100 398 -64
2022-06-27 10:09:40 GMT 45.071182 7.373919 23,000 100 399 0
2022-06-27 10:09:36 GMT 45.072296 7.364993 23,000 100 398 0
2022-06-27 10:09:32 GMT 45.073700 7.354170 23,000 100 398 0
2022-06-27 10:09:26 GMT 45.075714 7.338148 23,000 100 398 64
2022-06-27 10:09:18 GMT 45.078506 7.315979 23,000 100 397 0
2022-06-27 10:09:15 GMT 45.079147 7.310944 23,000 100 397 0
2022-06-27 10:09:12 GMT 45.080292 7.302115 23,000 100 397 0
2022-06-27 10:09:05 GMT 45.082764 7.284132 23,000 102 395 0
2022-06-27 10:09:01 GMT 45.084259 7.274825 23,000 104 394 0
2022-06-27 10:08:57 GMT 45.086121 7.264776 23,000 106 393 0
2022-06-27 10:08:54 GMT 45.087479 7.258301 23,000 108 391 0
2022-06-27 10:08:48 GMT 45.091846 7.240057 23,000 110 390 0
2022-06-27 10:08:44 GMT 45.093521 7.233626 23,000 110 389 0
2022-06-27 10:08:40 GMT 45.095764 7.225080 23,000 110 389 0
2022-06-27 10:08:37 GMT 45.098236 7.215663 23,000 110 388 64
2022-06-27 10:08:34 GMT 45.099884 7.209451 23,000 110 388 0
2022-06-27 10:08:31 GMT 45.101852 7.201800 23,000 110 387 0
2022-06-27 10:08:26 GMT 45.105652 7.187347 23,000 110 388 64
2022-06-27 10:08:21 GMT 45.107986 7.178454 23,000 110 388 0
2022-06-27 10:08:17 GMT 45.110916 7.167206 23,000 110 388 0
2022-06-27 10:08:13 GMT 45.113022 7.159358 23,000 110 387 0
2022-06-27 10:08:10 GMT 45.114716 7.152819 23,000 110 387 0
2022-06-27 10:08:05 GMT 45.118286 7.139151 23,000 110 386 0
2022-06-27 10:08:02 GMT 45.119476 7.134705 23,000 110 386 0
2022-06-27 10:07:57 GMT 45.124008 7.117310 23,000 110 386 0
2022-06-27 10:07:50 GMT 45.127602 7.103733 23,000 110 386 0
2022-06-27 10:07:42 GMT 45.132397 7.085244 23,000 110 386 0
2022-06-27 10:07:39 GMT 45.133652 7.080421 23,000 110 386 0
2022-06-27 10:07:35 GMT 45.137512 7.065778 23,000 110 387 0
2022-06-27 10:07:31 GMT 45.138680 7.061261 23,000 110 387 0
2022-06-27 10:07:24 GMT 45.143894 7.041298 23,000 110 387 0
2022-06-27 10:07:20 GMT 45.145981 7.033212 23,000 110 387 0
2022-06-27 10:07:15 GMT 45.150177 7.017182 23,000 110 386 0
2022-06-27 10:07:09 GMT 45.152802 7.006989 23,000 110 387 0
2022-06-27 10:07:05 GMT 45.155319 6.997310 23,000 109 387 0
2022-06-27 10:06:58 GMT 45.159069 6.982615 23,000 109 388 0
2022-06-27 10:06:53 GMT 45.162735 6.968275 23,000 109 389 0
2022-06-27 10:06:49 GMT 45.165028 6.959169 23,000 109 389 0
2022-06-27 10:06:39 GMT 45.170940 6.935723 34,000 109 390 0
2022-06-27 10:06:30 GMT 45.176147 6.914913 23,000 109 391 64
2022-06-27 10:06:27 GMT 45.178116 6.906934 23,000 109 391 0
2022-06-27 10:06:24 GMT 45.180542 6.897256 23,000 109 392 0
2022-06-27 10:06:20 GMT 45.182144 6.890847 23,000 109 392 0
2022-06-27 10:06:17 GMT 45.183788 6.884140 23,000 109 392 0
2022-06-27 10:06:08 GMT 45.189514 6.861364 23,000 109 391 0
2022-06-27 10:06:01 GMT 45.194633 6.841468 23,000 110 391 0
2022-06-27 10:05:57 GMT 45.196545 6.834099 23,000 110 391 0
2022-06-27 10:05:47 GMT 45.202560 6.811720 23,000 111 389 0
2022-06-27 10:05:44 GMT 45.205200 6.802145 23,000 111 389 0
2022-06-27 10:05:39 GMT 45.208740 6.789216 23,000 111 389 0
2022-06-27 10:05:36 GMT 45.209793 6.785431 23,000 111 389 0
2022-06-27 10:05:26 GMT 45.216431 6.761300 23,000 111 389 0
2022-06-27 10:05:15 GMT 45.223343 6.736058 23,000 111 390 0
2022-06-27 10:05:10 GMT 45.227688 6.720149 23,000 111 390 0
2022-06-27 10:05:05 GMT 45.230026 6.711535 23,000 111 390 0
2022-06-27 10:05:02 GMT 45.232727 6.701856 23,000 111 390 0
2022-06-27 10:04:57 GMT 45.235611 6.691262 23,000 111 390 0
2022-06-27 10:04:52 GMT 45.239090 6.678576 23,000 110 388 0
2022-06-27 10:04:46 GMT 45.242752 6.665170 23,000 111 389 64
2022-06-27 10:04:41 GMT 45.245682 6.654380 23,000 110 388 0
2022-06-27 10:04:36 GMT 45.249069 6.641955 23,000 110 388 0
2022-06-27 10:04:32 GMT 45.252220 6.630383 23,000 111 389 0
2022-06-27 10:04:28 GMT 45.254410 6.622411 23,000 111 389 0
2022-06-27 10:04:25 GMT 45.255943 6.616851 23,000 111 389 0
2022-06-27 10:04:21 GMT 45.258545 6.607295 23,000 111 389 0
2022-06-27 10:04:18 GMT 45.261112 6.597826 23,000 111 389 0
2022-06-27 10:04:15 GMT 45.262417 6.592936 23,000 111 389 0
2022-06-27 10:04:11 GMT 45.265411 6.581922 23,000 111 389 0
2022-06-27 10:04:07 GMT 45.268341 6.571263 23,000 111 389 0
2022-06-27 10:04:04 GMT 45.269676 6.566341 23,000 111 389 0
2022-06-27 10:04:01 GMT 45.271957 6.557857 23,000 110 388 0
2022-06-27 10:03:57 GMT 45.274330 6.549124 23,000 110 388 0
2022-06-27 10:03:54 GMT 45.276241 6.542224 23,000 111 389 0
2022-06-27 10:03:49 GMT 45.279453 6.530300 23,000 110 388 0
2022-06-27 10:03:45 GMT 45.282246 6.519917 23,000 110 388 0
2022-06-27 10:03:39 GMT 45.286057 6.505868 23,000 111 389 0
2022-06-27 10:03:35 GMT 45.288712 6.496190 23,000 111 389 0
2022-06-27 10:03:30 GMT 45.291916 6.484419 23,000 111 389 0
2022-06-27 10:03:27 GMT 45.293743 6.477646 23,000 111 389 0
2022-06-27 10:03:24 GMT 45.295349 6.471732 23,000 111 389 0
2022-06-27 10:03:17 GMT 45.300842 6.451394 23,000 111 389 -64
2022-06-27 10:03:14 GMT 45.302216 6.446359 23,000 111 389 -64
2022-06-27 10:03:09 GMT 45.307571 6.426667 23,000 110 388 -64
2022-06-27 10:03:06 GMT 45.307571 6.426667 23,000 110 388 -64
2022-06-27 10:03:03 GMT 45.308872 6.421844 23,000 110 388 0
2022-06-27 10:03:00 GMT 45.311737 6.411242 23,025 110 388 0
2022-06-27 10:02:56 GMT 45.313339 6.405160 23,025 110 388 0
2022-06-27 10:02:52 GMT 45.316223 6.394501 23,025 110 388 64
2022-06-27 10:02:49 GMT 45.318054 6.387634 23,000 110 388 64
2022-06-27 10:02:43 GMT 45.321911 6.373410 23,000 110 388 64
2022-06-27 10:02:37 GMT 45.326469 6.356395 23,000 110 389 0
2022-06-27 10:02:33 GMT 45.328537 6.348659 23,000 110 389 0
2022-06-27 10:02:29 GMT 45.330780 6.340288 23,000 110 390 0
2022-06-27 10:02:26 GMT 45.332932 6.332376 23,000 110 390 0
2022-06-27 10:02:23 GMT 45.334942 6.324842 23,000 110 390 0
2022-06-27 10:02:17 GMT 45.341087 6.301999 23,000 110 392 0
2022-06-27 10:02:13 GMT 45.341087 6.301999 23,000 110 392 0
2022-06-27 10:02:09 GMT 45.343872 6.291700 23,000 110 393 0
2022-06-27 10:02:04 GMT 45.347561 6.278084 23,000 110 393 0
2022-06-27 10:02:00 GMT 45.349468 6.270983 23,000 110 393 0
2022-06-27 10:01:58 GMT 45.350723 6.266159 23,000 110 393 0
2022-06-27 10:01:55 GMT 45.353146 6.257183 23,000 110 393 0
2022-06-27 10:01:51 GMT 45.355499 6.248409 23,000 110 393 0
2022-06-27 10:01:48 GMT 45.357330 6.241673 23,000 110 393 0
2022-06-27 10:01:42 GMT 45.361526 6.226033 23,000 110 392 0
2022-06-27 10:01:39 GMT 45.363808 6.217391 23,000 110 392 0
2022-06-27 10:01:35 GMT 45.365715 6.210357 23,000 110 392 0
2022-06-27 10:01:32 GMT 45.367668 6.203122 23,000 110 392 0
2022-06-27 10:01:29 GMT 45.369553 6.196093 23,000 110 392 0
2022-06-27 10:01:26 GMT 45.371979 6.186938 23,000 110 392 0
2022-06-27 10:01:23 GMT 45.373768 6.180278 23,000 110 391 0
2022-06-27 10:01:20 GMT 45.375824 6.172682 23,000 110 391 0
2022-06-27 10:01:18 GMT 45.376793 6.169091 23,000 110 391 0
2022-06-27 10:01:14 GMT 45.380051 6.156899 23,000 110 390 -64
2022-06-27 10:01:10 GMT 45.382240 6.148793 23,000 110 390 -64
2022-06-27 10:01:08 GMT 45.383217 6.145109 23,000 110 390 -64
2022-06-27 10:01:04 GMT 45.385757 6.135668 23,000 110 388 0
2022-06-27 10:01:01 GMT 45.387314 6.129783 23,000 110 390 0
2022-06-27 10:00:58 GMT 45.389874 6.120122 23,000 110 389 0
2022-06-27 10:00:53 GMT 45.395462 6.099178 23,000 110 388 0
2022-06-27 10:00:49 GMT 45.396393 6.095737 23,000 110 388 64
2022-06-27 10:00:44 GMT 45.398579 6.087364 23,000 110 390 0
2022-06-27 10:00:39 GMT 45.401840 6.075105 23,000 110 390 0
2022-06-27 10:00:37 GMT 45.402817 6.071420 23,000 110 391 0
2022-06-27 10:00:34 GMT 45.404892 6.063734 23,000 110 392 0
2022-06-27 10:00:29 GMT 45.408310 6.050720 23,000 110 392 0
2022-06-27 10:00:27 GMT 45.409149 6.047581 23,000 110 393 0
2022-06-27 10:00:24 GMT 45.411335 6.039265 23,000 110 393 0
2022-06-27 10:00:20 GMT 45.413757 6.030154 23,000 110 393 0
2022-06-27 10:00:17 GMT 45.415710 6.022718 23,000 110 393 0
2022-06-27 10:00:12 GMT 45.418968 6.010392 23,000 110 393 0
2022-06-27 10:00:07 GMT 45.422089 5.998602 23,000 110 394 0
2022-06-27 10:00:03 GMT 45.424324 5.990094 23,000 110 393 0
2022-06-27 10:00:00 GMT 45.427460 5.978263 23,000 110 394 64
2022-06-27 09:59:57 GMT 45.428741 5.973554 23,000 110 394 64
2022-06-27 09:59:54 GMT 45.430656 5.966179 23,000 110 394 64
2022-06-27 09:59:51 GMT 45.432175 5.960410 23,000 110 394 64
2022-06-27 09:59:48 GMT 45.434193 5.952915 23,000 110 394 64
2022-06-27 09:59:45 GMT 45.436474 5.944273 23,000 110 394 64
2022-06-27 09:59:42 GMT 45.438477 5.936704 23,000 110 395 0
2022-06-27 09:59:38 GMT 45.440872 5.927843 23,000 110 396 0
2022-06-27 09:59:34 GMT 45.443481 5.918100 23,000 110 397 0
2022-06-27 09:59:31 GMT 45.445133 5.911716 23,000 110 397 -64
2022-06-27 09:59:27 GMT 45.447784 5.901882 23,000 110 399 0
2022-06-27 09:59:24 GMT 45.450535 5.891686 23,000 110 399 0
2022-06-27 09:59:19 GMT 45.454926 5.875135 23,000 110 399 0
2022-06-27 09:59:16 GMT 45.454926 5.875135 23,000 110 399 -64
2022-06-27 09:59:13 GMT 45.457237 5.866565 23,000 110 399 -64
2022-06-27 09:59:08 GMT 45.460587 5.854038 23,025 110 399 -64
2022-06-27 09:59:05 GMT 45.462265 5.847674 23,025 110 399 -64
2022-06-27 09:59:01 GMT 45.464996 5.837533 23,025 110 399 0
2022-06-27 09:58:58 GMT 45.467377 5.828639 23,000 110 400 0
2022-06-27 09:58:56 GMT 45.468082 5.826103 23,000 110 400 0
2022-06-27 09:58:53 GMT 45.470306 5.817653 23,000 110 400 64
2022-06-27 09:58:48 GMT 45.473949 5.804064 23,000 110 401 128
2022-06-27 09:58:45 GMT 45.475300 5.798973 22,975 110 402 256
2022-06-27 09:58:41 GMT 45.478226 5.788095 22,950 110 402 320
2022-06-27 09:58:38 GMT 45.481705 5.775212 22,875 110 402 896
2022-06-27 09:58:33 GMT 45.483631 5.767956 22,875 110 402 896
2022-06-27 09:58:30 GMT 45.485867 5.759650 22,800 110 403 1280
2022-06-27 09:58:27 GMT 45.487263 5.754558 22,375 110 402 1536
2022-06-27 09:58:23 GMT 45.490860 5.741207 22,625 110 402 1536
2022-06-27 09:58:19 GMT 45.493057 5.733032 22,475 110 401 1536
2022-06-27 09:58:15 GMT 45.495667 5.723288 22,425 110 401 1536
2022-06-27 09:58:10 GMT 45.500950 5.703713 22,150 111 401 2176
2022-06-27 09:58:07 GMT 45.500950 5.703713 22,225 110 401 1792
2022-06-27 09:58:04 GMT 45.502720 5.697014 22,125 110 401 1920
2022-06-27 09:58:00 GMT 45.505371 5.687190 22,000 111 401 2048
2022-06-27 09:57:57 GMT 45.507477 5.679343 21,875 111 401 2112
2022-06-27 09:57:54 GMT 45.509514 5.671893 21,775 110 402 2240
2022-06-27 09:57:50 GMT 45.514618 5.652924 21,550 111 401 2368
2022-06-27 09:57:46 GMT 45.514618 5.652924 21,475 111 402 2688
2022-06-27 09:57:43 GMT 45.516678 5.645403 21,325 111 402 2816
2022-06-27 09:57:39 GMT 45.519150 5.636522 21,150 111 401 2816
2022-06-27 09:57:35 GMT 45.521664 5.627747 21,000 115 398 2752
2022-06-27 09:57:33 GMT 45.523621 5.621651 20,875 119 394 2752
2022-06-27 09:57:30 GMT 45.526180 5.614617 20,650 120 393 2752
2022-06-27 09:57:26 GMT 45.530273 5.604728 20,525 123 390 2624
2022-06-27 09:57:23 GMT 45.532650 5.599611 20,425 125 388 2496
2022-06-27 09:57:19 GMT 45.536957 5.591387 20,275 128 386 2176
2022-06-27 09:57:16 GMT 45.540985 5.584455 20,175 131 381 1856
2022-06-27 09:57:13 GMT 45.544281 5.579354 20,000 137 370 1088
2022-06-27 09:57:10 GMT 45.548813 5.572815 20,000 137 370 1152
2022-06-27 09:57:06 GMT 45.552887 5.567523 19,875 137 366 896
2022-06-27 09:57:02 GMT 45.558254 5.560593 19,725 137 363 896
2022-06-27 09:56:59 GMT 45.561218 5.556737 19,750 137 363 896
2022-06-27 09:56:56 GMT 45.565933 5.550708 19,800 137 361 896
2022-06-27 09:56:53 GMT 45.569778 5.545751 19,750 137 356 832
2022-06-27 09:56:49 GMT 45.573853 5.540526 19,700 137 355 832
2022-06-27 09:56:45 GMT 45.578411 5.534706 19,650 137 347 896
2022-06-27 09:56:42 GMT 45.582047 5.530008 19,600 138 349 896
2022-06-27 09:56:39 GMT 45.585846 5.525118 19,525 137 344 896
2022-06-27 09:56:35 GMT 45.590424 5.519223 19,500 137 343 896
2022-06-27 09:56:30 GMT 45.602783 5.503280 19,025 137 329 1088
2022-06-27 09:56:25 GMT 45.602783 5.503280 19,350 137 333 960
2022-06-27 09:56:19 GMT 45.609512 5.494571 19,225 137 327 1152
2022-06-27 09:56:14 GMT 45.617020 5.484857 19,100 137 322 1920
2022-06-27 09:56:12 GMT 45.617020 5.484857 19,050 137 322 1792
2022-06-27 09:56:08 GMT 45.621689 5.478828 18,900 137 320 2240
2022-06-27 09:56:04 GMT 45.626266 5.472908 18,725 137 320 2560
2022-06-27 09:55:59 GMT 45.632584 5.464626 18,475 137 309 2112
2022-06-27 09:55:56 GMT 45.635193 5.461277 18,375 137 319 2560
2022-06-27 09:55:53 GMT 45.637531 5.458214 18,300 137 318 2496
2022-06-27 09:55:48 GMT 45.643524 5.450492 18,075 137 317 2112
2022-06-27 09:55:45 GMT 45.647076 5.445923 17,950 137 317 2112
2022-06-27 09:55:41 GMT 45.651264 5.440498 17,825 137 314 1984
2022-06-27 09:55:37 GMT 45.655174 5.435417 17,750 137 312 1984
2022-06-27 09:55:34 GMT 45.658573 5.431023 17,600 137 310 2048
2022-06-27 09:55:28 GMT 45.664440 5.423470 17,400 137 307 2112
2022-06-27 09:55:25 GMT 45.667648 5.419274 17,225 137 306 2240
2022-06-27 09:55:21 GMT 45.671936 5.413788 17,150 137 305 2240
2022-06-27 09:55:18 GMT 45.675705 5.408913 17,025 137 303 2240
2022-06-27 09:55:13 GMT 45.680363 5.402802 16,850 137 302 2240
2022-06-27 09:55:06 GMT 45.689346 5.391072 16,500 137 301 2368
2022-06-27 09:55:02 GMT 45.691860 5.387764 16,425 137 300 2368
2022-06-27 09:54:58 GMT 45.696003 5.382271 16,250 137 299 2432
2022-06-27 09:54:53 GMT 45.701031 5.375610 16,050 137 298 2496
2022-06-27 09:54:50 GMT 45.703915 5.371765 15,925 137 297 2496
2022-06-27 09:54:46 GMT 45.709579 5.364276 15,650 137 297 2432
2022-06-27 09:54:42 GMT 45.711731 5.361395 15,625 137 296 2304
2022-06-27 09:54:38 GMT 45.717087 5.354294 15,400 136 292 2368
2022-06-27 09:54:30 GMT 45.724411 5.344514 15,125 136 292 2304
2022-06-27 09:54:25 GMT 45.729336 5.337914 14,925 136 291 2496
2022-06-27 09:54:20 GMT 45.734177 5.331322 14,725 136 290 2624
2022-06-27 09:54:15 GMT 45.738876 5.325005 14,475 136 289 2880
2022-06-27 09:54:10 GMT 45.743904 5.318207 14,225 136 289 3072
2022-06-27 09:54:05 GMT 45.748745 5.311615 13,950 136 290 3456
2022-06-27 09:54:01 GMT 45.752014 5.307200 13,750 136 290 3712
2022-06-27 09:53:57 GMT 45.757507 5.299698 13,450 136 292 3520
2022-06-27 09:53:54 GMT 45.759453 5.297058 13,300 136 292 3392
2022-06-27 09:53:49 GMT 45.764156 5.290672 13,050 136 292 3200
2022-06-27 09:53:45 GMT 45.768482 5.284698 12,800 136 292 3328
2022-06-27 09:53:39 GMT 45.774303 5.276802 12,450 136 292 3648
2022-06-27 09:53:34 GMT 45.779160 5.270088 12,150 136 294 3648
2022-06-27 09:53:30 GMT 45.783520 5.264168 11,900 136 295 3392
2022-06-27 09:53:25 GMT 45.788956 5.256690 11,600 136 294 3200
2022-06-27 09:53:19 GMT 45.793533 5.250393 11,100 136 280 1408
2022-06-27 09:53:14 GMT 45.803909 5.236221 10,925 136 292 2368
2022-06-27 09:53:08 GMT 45.803909 5.236221 10,925 136 280 1408
2022-06-27 09:53:05 GMT 45.807861 5.230832 10,700 136 280 1408
2022-06-27 09:52:59 GMT 45.813171 5.223530 10,675 136 277 1280
2022-06-27 09:52:54 GMT 45.818024 5.216965 10,575 136 268 1024
2022-06-27 09:52:49 GMT 45.822144 5.211271 10,500 135 263 1024
2022-06-27 09:52:45 GMT 45.825851 5.206113 10,400 135 255 1152
2022-06-27 09:52:41 GMT 45.828461 5.202495 10,350 135 253 1152
2022-06-27 09:52:38 GMT 45.831005 5.198936 10,275 135 246 1600
2022-06-27 09:52:35 GMT 45.834309 5.194336 10,150 135 243 2112
2022-06-27 09:52:29 GMT 45.838806 5.188025 9,900 135 239 3072
2022-06-27 09:52:23 GMT 45.843155 5.181908 9,625 135 238 3264
2022-06-27 09:52:19 GMT 45.846725 5.176972 9,375 136 237 3328
2022-06-27 09:52:12 GMT 45.851719 5.169891 9,000 123 242 3456
2022-06-27 09:52:08 GMT 45.854607 5.165154 8,800 126 242 3392
2022-06-27 09:52:04 GMT 45.857483 5.159153 8,375 116 245 3392
2022-06-27 09:52:01 GMT 45.860367 5.151114 8,375 119 244 3392
2022-06-27 09:51:59 GMT 45.860367 5.151114 8,225 111 248 3328
2022-06-27 09:51:53 GMT 45.862289 5.142740 7,925 105 249 3392
2022-06-27 09:51:48 GMT 45.863216 5.135284 7,650 93 253 3776
2022-06-27 09:51:44 GMT 45.863297 5.127400 7,350 84 257 3712
2022-06-27 09:51:38 GMT 45.862335 5.118222 7,025 74 260 3264
2022-06-27 09:51:32 GMT 45.859909 5.108375 6,725 48 253 2496
2022-06-27 09:51:28 GMT 45.857399 5.101982 6,525 56 256 2752
2022-06-27 09:51:20 GMT 45.850929 5.091339 6,150 40 250 2368
2022-06-27 09:51:18 GMT 45.849518 5.089684 5,950 31 244 2624
2022-06-27 09:51:12 GMT 45.843853 5.084541 5,825 22 239 3072
2022-06-27 09:51:08 GMT 45.839676 5.082048 5,600 19 237 3392
2022-06-27 09:51:02 GMT 45.833469 5.079803 5,250 9 235 3584
2022-06-27 09:50:59 GMT 45.830212 5.079391 5,075 1 233 3776
2022-06-27 09:50:56 GMT 45.826904 5.079368 4,875 352 232 3968
2022-06-27 09:50:51 GMT 45.821739 5.080215 4,575 352 232 3968
2022-06-27 09:50:42 GMT 45.812756 5.082001 4,075 354 232 2944
2022-06-27 09:50:38 GMT 45.806377 5.082962 3,825 355 217 1408
2022-06-27 09:50:33 GMT 45.803261 5.083374 3,725 355 220 1600
2022-06-27 09:50:21 GMT 45.790970 5.085062 3,475 355 194 1408
2022-06-27 09:50:11 GMT 45.782078 5.086189 3,275 356 187 1344
2022-06-27 09:50:03 GMT 45.775543 5.087005 3,100 356 173 1344
2022-06-27 09:49:52 GMT 45.765923 5.088181 2,825 356 162 1408
2022-06-27 09:49:43 GMT 45.759750 5.088948 2,575 356 152 1728
2022-06-27 09:49:33 GMT 45.752655 5.089885 2,200 355 148 2688
We lost coverage of the aircraft here for a total of 79 minutes
2022-06-27 08:30:51 GMT 45.740601 5.091133 775 174 146 -768
2022-06-27 08:30:49 GMT 45.742630 5.090890 800 174 146 -768
2022-06-27 08:30:41 GMT 45.748001 5.090240 900 175 145 -640
2022-06-27 08:30:29 GMT 45.755402 5.089417 1,050 175 146 -768
2022-06-27 08:30:18 GMT 45.762772 5.088479 1,175 174 147 -768
2022-06-27 08:30:09 GMT 45.768906 5.087742 1,300 175 149 -768
2022-06-27 08:30:00 GMT 45.775772 5.086938 1,450 175 150 -832
2022-06-27 08:29:50 GMT 45.782822 5.086067 1,575 175 153 -768
2022-06-27 08:29:40 GMT 45.789917 5.085196 1,700 174 156 -896
2022-06-27 08:29:30 GMT 45.797470 5.084258 1,850 174 159 -960
2022-06-27 08:29:18 GMT 45.805893 5.083186 2,025 175 171 -704
2022-06-27 08:29:09 GMT 45.813129 5.082344 2,150 174 177 -896
2022-06-27 08:28:59 GMT 45.821869 5.081244 2,300 175 184 -960
2022-06-27 08:28:49 GMT 45.830017 5.080239 2,475 175 187 -1152
2022-06-27 08:28:39 GMT 45.839310 5.079167 2,675 175 187 -1088
2022-06-27 08:28:28 GMT 45.848190 5.078028 2,800 175 190 -576
2022-06-27 08:28:20 GMT 45.856655 5.076988 2,850 175 198 0
2022-06-27 08:28:07 GMT 45.867779 5.075684 2,850 175 202 0
2022-06-27 08:27:59 GMT 45.875290 5.074746 2,850 175 202 -64
2022-06-27 08:27:47 GMT 45.885727 5.073473 2,875 175 204 -64
2022-06-27 08:27:38 GMT 45.894547 5.072456 2,850 174 211 0
2022-06-27 08:27:28 GMT 45.904404 5.071195 2,850 174 211 0
2022-06-27 08:27:15 GMT 45.917217 5.069435 2,850 173 223 -64
2022-06-27 08:26:57 GMT 45.935978 5.065247 2,850 164 238 128
2022-06-27 08:26:30 GMT 45.961624 5.039107 2,950 137 265 -1088
2022-06-27 08:26:11 GMT 45.978836 5.016331 3,300 137 269 -1152
2022-06-27 08:26:01 GMT 45.988266 5.004005 3,475 137 273 -1152
2022-06-27 08:25:50 GMT 45.997787 4.991477 3,675 137 276 -1024
2022-06-27 08:25:40 GMT 46.007530 4.978798 3,850 137 277 -1088
2022-06-27 08:25:31 GMT 46.016739 4.966691 4,025 137 279 -1344
2022-06-27 08:25:20 GMT 46.026855 4.953226 4,300 137 280 -1472
2022-06-27 08:25:10 GMT 46.036346 4.940758 4,525 137 280 -1280
2022-06-27 08:25:00 GMT 46.045609 4.928535 4,725 137 281 -1216
2022-06-27 08:24:56 GMT 46.049568 4.923248 4,825 137 282 -1216
2022-06-27 08:24:50 GMT 46.055573 4.915283 4,950 136 283 -1152
2022-06-27 08:24:47 GMT 46.058552 4.911232 5,000 136 284 -1152
2022-06-27 08:24:38 GMT 46.067024 4.899696 5,250 136 285 -1344
2022-06-27 08:24:27 GMT 46.077404 4.885620 5,425 136 287 -1344
2022-06-27 08:24:20 GMT 46.084625 4.875652 5,600 136 289 -1472
2022-06-27 08:24:17 GMT 46.086594 4.872972 5,650 135 289 -1472
2022-06-27 08:24:10 GMT 46.094009 4.862589 5,850 135 291 -1472
2022-06-27 08:24:07 GMT 46.097004 4.858429 5,925 135 291 -1536
2022-06-27 08:24:04 GMT 46.099960 4.854282 6,000 135 292 -1664
2022-06-27 08:23:59 GMT 46.104034 4.848541 6,125 135 292 -1792
2022-06-27 08:23:56 GMT 46.107330 4.843899 6,225 135 292 -1792
2022-06-27 08:23:50 GMT 46.113602 4.834989 6,400 135 292 -1472
2022-06-27 08:23:46 GMT 46.116806 4.830367 6,475 134 293 -1472
2022-06-27 08:23:40 GMT 46.123169 4.821055 6,650 134 294 -1600
2022-06-27 08:23:36 GMT 46.126190 4.816544 6,750 133 294 -1728
2022-06-27 08:23:29 GMT 46.132851 4.806450 6,925 133 295 -1664
2022-06-27 08:23:26 GMT 46.135410 4.802605 7,000 133 295 -1728
2022-06-27 08:23:16 GMT 46.145096 4.787694 7,325 132 295 -1856
2022-06-27 08:23:11 GMT 46.149261 4.781196 7,450 132 295 -1792
2022-06-27 08:23:06 GMT 46.154217 4.773354 7,625 132 294 -1920
2022-06-27 08:23:02 GMT 46.158417 4.766727 7,775 132 293 -1920
2022-06-27 08:22:59 GMT 46.161015 4.762505 7,875 131 292 -1920
2022-06-27 08:22:55 GMT 46.164001 4.757750 7,975 131 293 -1920
2022-06-27 08:22:47 GMT 46.172928 4.743481 8,300 131 293 -1408
2022-06-27 08:22:44 GMT 46.174255 4.741337 8,300 131 293 -1408
2022-06-27 08:22:39 GMT 46.178375 4.734572 8,375 131 296 -1024
2022-06-27 08:22:35 GMT 46.181992 4.728609 8,425 131 299 -768
2022-06-27 08:22:29 GMT 46.187595 4.719521 8,500 131 302 -768
2022-06-27 08:22:24 GMT 46.192295 4.711830 8,650 131 308 0
2022-06-27 08:22:20 GMT 46.196159 4.705513 8,650 131 308 -960
2022-06-27 08:22:15 GMT 46.201466 4.696930 8,725 131 311 -896
2022-06-27 08:22:09 GMT 46.206940 4.688014 8,825 131 315 -896
2022-06-27 08:22:05 GMT 46.211243 4.681068 8,875 131 319 -832
2022-06-27 08:21:59 GMT 46.216270 4.672966 8,950 131 322 -1024
2022-06-27 08:21:55 GMT 46.221111 4.665138 9,050 131 325 -1280
2022-06-27 08:21:48 GMT 46.227493 4.654921 9,200 131 329 -1408
2022-06-27 08:21:44 GMT 46.231865 4.647903 9,300 132 332 -1408
2022-06-27 08:21:39 GMT 46.237171 4.639458 9,400 132 335 -1344
2022-06-27 08:21:34 GMT 46.242279 4.631273 9,550 131 337 -2304
2022-06-27 08:21:28 GMT 46.248734 4.620756 9,850 130 337 -3584
2022-06-27 08:21:24 GMT 46.252762 4.613722 10,125 128 337 -3968
2022-06-27 08:21:20 GMT 46.256584 4.606636 10,375 126 339 -3968
2022-06-27 08:21:17 GMT 46.258850 4.602133 10,550 125 339 -3968
2022-06-27 08:21:14 GMT 46.262123 4.595306 10,775 123 340 -3840
2022-06-27 08:21:07 GMT 46.267960 4.581835 11,200 120 343 -3520
2022-06-27 08:21:04 GMT 46.270432 4.575739 11,375 120 344 -3392
2022-06-27 08:20:57 GMT 46.275532 4.563171 11,750 120 346 -3456
2022-06-27 08:20:53 GMT 46.278744 4.555138 11,975 120 347 -3520
2022-06-27 08:20:48 GMT 46.283352 4.543602 12,300 119 348 -3520
2022-06-27 08:20:43 GMT 46.286865 4.534607 12,575 119 350 -3520
2022-06-27 08:20:38 GMT 46.291405 4.523071 12,900 119 351 -3520
2022-06-27 08:20:33 GMT 46.295059 4.513639 13,150 119 353 -3264
2022-06-27 08:20:28 GMT 46.299362 4.502586 13,450 119 356 -3072
2022-06-27 08:20:25 GMT 46.301880 4.496086 13,600 119 360 -3136
2022-06-27 08:20:22 GMT 46.303371 4.492172 13,700 119 358 -3072
2022-06-27 08:20:18 GMT 46.306583 4.483795 14,175 118 361 -3200
2022-06-27 08:20:14 GMT 46.310715 4.473110 14,175 119 362 -3264
2022-06-27 08:20:11 GMT 46.312401 4.468758 14,275 118 363 -3264
2022-06-27 08:20:08 GMT 46.314972 4.461990 14,650 118 365 -3200
2022-06-27 08:20:04 GMT 46.318871 4.451797 14,725 118 366 -3264
2022-06-27 08:20:00 GMT 46.322159 4.443166 14,950 118 368 -3456
2022-06-27 08:19:57 GMT 46.323807 4.438820 15,225 118 370 -3392
2022-06-27 08:19:52 GMT 46.328182 4.427490 15,350 118 371 -3200
2022-06-27 08:19:47 GMT 46.332466 4.416435 15,625 120 374 -3328
2022-06-27 08:19:41 GMT 46.337681 4.404076 15,950 123 372 -3456
2022-06-27 08:19:37 GMT 46.342255 4.394866 16,225 130 370 -3264
2022-06-27 08:19:29 GMT 46.351086 4.381622 16,675 140 363 -3968
2022-06-27 08:19:25 GMT 46.356995 4.375037 16,975 146 359 -4032
2022-06-27 08:19:21 GMT 46.361885 4.370293 17,200 146 359 -4032
2022-06-27 08:19:16 GMT 46.368404 4.363976 17,525 146 359 -4224
2022-06-27 08:19:09 GMT 46.378273 4.354362 18,025 146 359 -4288
2022-06-27 08:19:06 GMT 46.382553 4.350243 18,250 146 359 -4224
2022-06-27 08:18:58 GMT 46.394211 4.339466 18,725 148 360 -2624
2022-06-27 08:18:55 GMT 46.397964 4.336235 18,800 150 362 -2112
2022-06-27 08:18:49 GMT 46.406483 4.329575 18,975 152 362 -1408
2022-06-27 08:18:46 GMT 46.411232 4.326073 19,050 154 361 -1472
2022-06-27 08:18:40 GMT 46.420486 4.319838 19,200 155 362 -1472
2022-06-27 08:18:37 GMT 46.426548 4.315773 19,300 155 363 -1472
2022-06-27 08:18:29 GMT 46.437836 4.308248 19,475 155 362 -1472
2022-06-27 08:18:24 GMT 46.444378 4.303894 19,575 155 363 -1472
2022-06-27 08:18:19 GMT 46.453217 4.297932 19,725 155 363 -1536
2022-06-27 08:18:16 GMT 46.457932 4.294783 19,800 155 365 -1536
2022-06-27 08:18:09 GMT 46.468304 4.287827 19,975 155 365 -1472
2022-06-27 08:18:06 GMT 46.473053 4.284599 20,050 155 366 -1344
2022-06-27 08:18:00 GMT 46.482224 4.278488 20,250 155 366 -1408
2022-06-27 08:17:55 GMT 46.489014 4.273950 20,300 155 366 -1344
2022-06-27 08:17:49 GMT 46.498764 4.267452 20,425 155 366 -1408
2022-06-27 08:17:46 GMT 46.503571 4.264236 20,575 155 366 -1408
2022-06-27 08:17:39 GMT 46.514576 4.256859 20,725 155 366 -1408
2022-06-27 08:17:35 GMT 46.520630 4.252808 20,775 155 366 -1472
2022-06-27 08:17:28 GMT 46.531265 4.245680 20,925 155 366 -1536
2022-06-27 08:17:25 GMT 46.535889 4.242598 21,000 155 367 -1600
2022-06-27 08:17:18 GMT 46.546051 4.235832 21,175 155 368 -1600
2022-06-27 08:17:15 GMT 46.551682 4.232081 21,275 155 368 -1664
2022-06-27 08:17:09 GMT 46.562153 4.225204 21,475 155 369 -1664
2022-06-27 08:17:04 GMT 46.567886 4.221430 21,900 155 367 -1408
2022-06-27 08:16:58 GMT 46.577934 4.214836 21,725 155 363 -1088
2022-06-27 08:16:54 GMT 46.583195 4.211334 21,800 155 359 -960
2022-06-27 08:16:48 GMT 46.592461 4.205223 21,900 155 349 -832
2022-06-27 08:16:44 GMT 46.598698 4.201103 21,975 155 344 -1024
2022-06-27 08:16:38 GMT 46.607437 4.195237 22,075 155 342 -1408
2022-06-27 08:16:34 GMT 46.612930 4.191552 22,150 155 343 -1600
2022-06-27 08:16:28 GMT 46.621788 4.185585 22,350 155 344 -2112
2022-06-27 08:16:23 GMT 46.628632 4.180968 22,525 155 346 -2240
2022-06-27 08:16:18 GMT 46.636452 4.175697 22,700 155 346 -2112
2022-06-27 08:16:13 GMT 46.643665 4.170822 22,875 154 347 -1920
2022-06-27 08:16:07 GMT 46.651627 4.165466 23,025 154 349 -1536
2022-06-27 08:16:03 GMT 46.657883 4.161206 23,150 154 353 -1472
2022-06-27 08:15:56 GMT 46.668045 4.154306 23,300 154 355 -1152
2022-06-27 08:15:53 GMT 46.672531 4.151291 23,350 154 358 -960
2022-06-27 08:15:47 GMT 46.681747 4.145004 23,450 154 363 -1024
2022-06-27 08:15:43 GMT 46.688217 4.140610 23,525 154 366 -1088
2022-06-27 08:15:36 GMT 46.698898 4.133405 23,700 155 369 -1856
2022-06-27 08:15:32 GMT 46.704975 4.129280 23,850 155 370 -2304
2022-06-27 08:15:26 GMT 46.714645 4.122754 24,100 155 370 -2560
2022-06-27 08:15:22 GMT 46.721130 4.118431 24,275 155 370 -2688
2022-06-27 08:15:16 GMT 46.729248 4.112973 24,500 155 370 -2816
2022-06-27 08:15:12 GMT 46.736023 4.108418 24,725 154 370 -2752
2022-06-27 08:15:06 GMT 46.745895 4.101677 25,000 154 370 -2752
2022-06-27 08:15:02 GMT 46.751434 4.097900 25,150 155 371 -2496
2022-06-27 08:14:58 GMT 46.759209 4.092613 25,350 154 372 -2304
2022-06-27 08:14:55 GMT 46.761658 4.091000 25,425 154 373 -2176
2022-06-27 08:14:52 GMT 46.767635 4.086914 25,550 154 374 -2112
2022-06-27 08:14:45 GMT 46.777412 4.080254 25,775 155 376 -1920
2022-06-27 08:14:41 GMT 46.783836 4.075928 25,900 154 378 -1856
2022-06-27 08:14:37 GMT 46.791733 4.070569 26,125 155 381 -2304
2022-06-27 08:14:34 GMT 46.794773 4.068512 26,125 155 381 -2304
2022-06-27 08:14:31 GMT 46.800842 4.064405 26,300 155 381 -2752
2022-06-27 08:14:25 GMT 46.810638 4.057773 26,600 154 380 -3200
2022-06-27 08:14:21 GMT 46.816223 4.053955 26,800 154 380 -3072
2022-06-27 08:14:17 GMT 46.823219 4.049149 27,150 154 381 -2816
2022-06-27 08:14:14 GMT 46.827713 4.046117 27,150 154 381 -2816
2022-06-27 08:14:11 GMT 46.832016 4.043175 27,250 154 382 -2560
2022-06-27 08:14:05 GMT 46.841354 4.036806 27,500 154 383 -2240
2022-06-27 08:14:01 GMT 46.848869 4.031639 27,675 154 385 -2176
2022-06-27 08:13:57 GMT 46.855545 4.027092 27,825 154 386 -2368
2022-06-27 08:13:53 GMT 46.861267 4.023207 27,875 154 387 -2560
2022-06-27 08:13:50 GMT 46.865891 4.019991 28,100 154 387 -2880
2022-06-27 08:13:47 GMT 46.871307 4.016278 28,275 154 386 -3136
2022-06-27 08:13:44 GMT 46.875412 4.013512 37,000 154 386 -3200
2022-06-27 08:13:40 GMT 46.882004 4.008980 28,800 154 386 -3200
2022-06-27 08:13:35 GMT 46.890812 4.002897 28,925 154 386 -2880
2022-06-27 08:13:30 GMT 46.898300 3.997719 29,250 154 386 -2752
2022-06-27 08:13:26 GMT 46.910110 3.989616 29,475 154 387 -2752
2022-06-27 08:13:20 GMT 46.914925 3.986276 29,700 154 388 -2624
2022-06-27 08:13:16 GMT 46.920700 3.982333 29,975 154 388 -2624
2022-06-27 08:13:12 GMT 46.927643 3.977531 29,975 154 388 -2688
2022-06-27 08:13:09 GMT 46.933453 3.973530 30,125 154 389 -2880
2022-06-27 08:13:06 GMT 46.936993 3.971065 30,225 154 389 -2880
2022-06-27 08:13:00 GMT 46.947647 3.963661 30,575 154 389 -3392
2022-06-27 08:12:56 GMT 46.953377 3.959656 30,775 154 388 -3456
2022-06-27 08:12:48 GMT 46.967010 3.950066 31,275 154 387 -3392
2022-06-27 08:12:45 GMT 46.977398 3.942683 31,575 154 389 -2112
2022-06-27 08:12:41 GMT 46.977398 3.942683 31,575 154 388 -2688
2022-06-27 08:12:37 GMT 46.990387 3.933669 31,725 156 388 -2112
2022-06-27 08:12:34 GMT 46.990387 3.933669 31,775 154 389 -2048
2022-06-27 08:12:32 GMT 46.991924 3.932683 31,875 155 389 -2112
2022-06-27 08:12:28 GMT 46.999054 3.928574 32,050 160 384 -2432
2022-06-27 08:12:23 GMT 47.007248 3.924728 32,250 165 379 -2944
2022-06-27 08:12:19 GMT 47.014389 3.922188 32,650 170 373 -3584
2022-06-27 08:12:16 GMT 47.029495 3.918343 32,700 170 372 -3648
2022-06-27 08:12:10 GMT 47.029495 3.918343 32,800 171 371 -3776
2022-06-27 08:12:06 GMT 47.037003 3.916626 33,275 170 369 -3584
2022-06-27 08:12:02 GMT 47.042267 3.915321 33,450 170 370 -3584
2022-06-27 08:11:56 GMT 47.053528 3.912369 33,825 166 371 -3264
2022-06-27 08:11:52 GMT 47.059845 3.910240 34,025 166 372 -3136
2022-06-27 08:11:46 GMT 47.070644 3.905569 34,350 161 378 -2752
2022-06-27 08:11:43 GMT 47.074905 3.903374 34,475 156 385 -2048
2022-06-27 08:11:38 GMT 47.083164 3.898456 34,650 155 385 -1920
2022-06-27 08:11:34 GMT 47.093307 3.891151 34,875 145 405 -448
2022-06-27 08:11:32 GMT 47.093307 3.891151 34,875 145 405 -448
2022-06-27 08:11:25 GMT 47.102951 3.882892 34,975 139 415 -64
2022-06-27 08:11:22 GMT 47.107559 3.878456 34,975 139 415 -64
2022-06-27 08:11:19 GMT 47.113403 3.872406 35,000 139 415 -64
2022-06-27 08:11:15 GMT 47.118454 3.866695 35,025 136 419 64
2022-06-27 08:11:12 GMT 47.123337 3.860664 35,025 136 419 64
2022-06-27 08:11:09 GMT 47.127529 3.855215 35,025 132 425 64
2022-06-27 08:11:05 GMT 47.132835 3.847680 35,025 134 423 0
2022-06-27 08:11:01 GMT 47.139175 3.837730 35,025 132 426 64
2022-06-27 08:10:56 GMT 47.145687 3.826482 35,025 128 432 0
2022-06-27 08:10:51 GMT 47.152809 3.813242 35,025 127 433 128
2022-06-27 08:10:46 GMT 47.158672 3.802326 35,000 128 434 64
2022-06-27 08:10:43 GMT 47.161331 3.797287 35,000 128 434 0
2022-06-27 08:10:39 GMT 47.165771 3.788979 35,000 128 434 0
2022-06-27 08:10:36 GMT 47.169662 3.781700 35,000 128 435 -64
2022-06-27 08:10:32 GMT 47.175064 3.771538 35,000 128 435 0
2022-06-27 08:10:27 GMT 47.181015 3.760414 35,000 128 434 0
2022-06-27 08:10:24 GMT 47.184372 3.754155 35,000 128 434 -64
2022-06-27 08:10:21 GMT 47.188156 3.747025 35,000 128 434 0
2022-06-27 08:10:15 GMT 47.195961 3.732394 35,000 128 434 0
2022-06-27 08:10:11 GMT 47.200943 3.723027 35,000 127 433 0
2022-06-27 08:10:04 GMT 47.208984 3.707954 35,000 127 433 0
2022-06-27 08:10:02 GMT 47.211464 3.703308 35,000 127 433 0
2022-06-27 08:09:56 GMT 47.219658 3.687885 35,000 127 433 64
2022-06-27 08:09:53 GMT 47.223221 3.681175 35,000 127 433 64
2022-06-27 08:09:49 GMT 47.227615 3.672935 34,975 127 433 64
2022-06-27 08:09:45 GMT 47.232925 3.662884 34,975 127 433 64
2022-06-27 08:09:40 GMT 47.238693 3.652061 34,975 127 433 64
2022-06-27 08:09:34 GMT 47.246384 3.637505 34,975 127 433 0
2022-06-27 08:09:32 GMT 47.248260 3.634003 34,975 127 433 0
2022-06-27 08:09:28 GMT 47.253937 3.623360 34,975 127 433 64
2022-06-27 08:09:25 GMT 47.257549 3.616544 34,975 127 433 64
2022-06-27 08:09:22 GMT 47.265884 3.600839 34,950 127 432 64
2022-06-27 08:09:18 GMT 47.265884 3.600839 34,950 128 433 64
2022-06-27 08:09:15 GMT 47.273941 3.585663 34,950 127 432 64
2022-06-27 08:09:12 GMT 47.273941 3.585663 34,950 127 432 0
2022-06-27 08:09:07 GMT 47.279430 3.575346 34,950 127 432 0
2022-06-27 08:09:04 GMT 47.283154 3.568303 34,950 128 431 0
2022-06-27 08:09:02 GMT 47.285110 3.564583 34,950 128 431 0
2022-06-27 08:08:59 GMT 47.289486 3.556331 34,950 128 431 0
2022-06-27 08:08:56 GMT 47.293076 3.549614 34,950 128 431 0
2022-06-27 08:08:53 GMT 47.297073 3.542105 34,950 128 431 0
2022-06-27 08:08:48 GMT 47.302193 3.532457 34,950 128 431 0
2022-06-27 08:08:45 GMT 47.308273 3.520981 34,950 127 431 -64
2022-06-27 08:08:41 GMT 47.311020 3.515762 34,975 127 431 0
2022-06-27 08:08:39 GMT 47.314407 3.509377 34,975 127 431 -64
2022-06-27 08:08:36 GMT 47.317612 3.503403 34,975 128 430 -64
2022-06-27 08:08:33 GMT 47.322464 3.494270 34,975 128 430 -64
2022-06-27 08:08:29 GMT 47.327377 3.485060 34,975 128 430 -64
2022-06-27 08:08:26 GMT 47.330311 3.479567 34,975 128 430 -128
2022-06-27 08:08:22 GMT 47.334873 3.470975 35,000 128 430 -64
2022-06-27 08:08:18 GMT 47.339310 3.462685 35,000 128 430 -64
2022-06-27 08:08:14 GMT 47.344837 3.452172 35,000 128 430 -64
2022-06-27 08:08:09 GMT 47.350468 3.441608 35,000 128 430 -64
2022-06-27 08:08:04 GMT 47.357620 3.428078 35,025 128 430 -64
2022-06-27 08:07:59 GMT 47.363068 3.417915 35,025 127 431 -128
2022-06-27 08:07:55 GMT 47.367416 3.409607 35,050 127 431 -64
2022-06-27 08:07:52 GMT 47.371651 3.401677 35,025 127 431 -128
2022-06-27 08:07:48 GMT 47.376446 3.392592 35,025 127 431 -128
2022-06-27 08:07:45 GMT 47.380260 3.385338 35,050 127 431 -64
2022-06-27 08:07:42 GMT 47.384537 3.377335 35,050 127 431 -64
2022-06-27 08:07:39 GMT 47.387833 3.371155 35,050 127 431 -64
2022-06-27 08:07:34 GMT 47.396484 3.354744 35,050 127 431 0
2022-06-27 08:07:31 GMT 47.396484 3.354744 35,050 127 431 0
2022-06-27 08:07:28 GMT 47.400925 3.346436 35,050 127 431 0
2022-06-27 08:07:24 GMT 47.411087 3.327072 35,050 127 432 0
2022-06-27 08:07:21 GMT 47.411087 3.327072 35,050 127 432 0
2022-06-27 08:07:18 GMT 47.416759 3.316392 35,050 127 432 0
2022-06-27 08:07:15 GMT 47.416759 3.316392 35,050 127 432 64
2022-06-27 08:07:12 GMT 47.420391 3.309490 35,025 127 433 64
2022-06-27 08:07:08 GMT 47.425415 3.299950 35,050 127 433 64
2022-06-27 08:07:05 GMT 47.429535 3.292053 35,050 127 432 64
2022-06-27 08:07:01 GMT 47.434113 3.283264 35,025 127 434 64
2022-06-27 08:06:56 GMT 47.440083 3.271813 35,025 127 434 0
2022-06-27 08:06:52 GMT 47.444733 3.262871 35,050 127 435 -64
2022-06-27 08:06:44 GMT 47.457912 3.237093 35,025 126 437 64
2022-06-27 08:06:39 GMT 47.460892 3.231248 35,025 126 436 64
2022-06-27 08:06:36 GMT 47.463825 3.225332 35,025 126 436 64
2022-06-27 08:06:34 GMT 47.466057 3.220896 35,025 126 437 64
2022-06-27 08:06:31 GMT 47.470230 3.212471 35,025 126 436 0
2022-06-27 08:06:29 GMT 47.472900 3.207163 35,025 126 437 0
2022-06-27 08:06:25 GMT 47.477509 3.197937 35,025 126 436 0
2022-06-27 08:06:21 GMT 47.482544 3.187889 35,025 133 424 64
2022-06-27 08:06:19 GMT 47.486435 3.180679 35,025 130 429 64
2022-06-27 08:06:14 GMT 47.490963 3.173006 35,025 132 426 64
2022-06-27 08:06:11 GMT 47.496964 3.163719 35,025 134 422 64
2022-06-27 08:06:09 GMT 47.498318 3.161809 35,025 138 415 0
2022-06-27 08:06:05 GMT 47.503189 3.155205 35,025 140 413 0
2022-06-27 08:06:02 GMT 47.508514 3.148710 35,025 146 403 -64
2022-06-27 08:05:59 GMT 47.512985 3.143738 35,025 157 387 0
2022-06-27 08:05:55 GMT 47.519211 3.137421 35,025 149 400 -128
2022-06-27 08:05:52 GMT 47.523926 3.133163 35,025 151 395 -64
2022-06-27 08:05:48 GMT 47.529278 3.128709 35,025 156 388 0
2022-06-27 08:05:45 GMT 47.535278 3.124237 35,025 157 385 0
2022-06-27 08:05:39 GMT 47.547867 3.116066 35,025 157 387 0
2022-06-27 08:05:37 GMT 47.547867 3.116066 35,025 157 387 0
2022-06-27 08:05:33 GMT 47.554695 3.111807 35,025 157 387 -64
2022-06-27 08:05:29 GMT 47.561722 3.107441 35,025 157 387 0
2022-06-27 08:05:24 GMT 47.569729 3.102370 35,025 157 386 0
2022-06-27 08:05:20 GMT 47.575783 3.098638 35,050 157 386 64
2022-06-27 08:05:16 GMT 47.582348 3.094553 35,025 157 386 64
2022-06-27 08:05:11 GMT 47.590679 3.089341 35,025 157 386 64
2022-06-27 08:05:09 GMT 47.593704 3.087440 35,025 157 386 64
2022-06-27 08:05:07 GMT 47.597809 3.084892 35,025 157 386 0
2022-06-27 08:05:03 GMT 47.604492 3.080704 35,025 157 386 64
2022-06-27 08:05:00 GMT 47.608704 3.078094 35,025 157 386 64
2022-06-27 08:04:58 GMT 47.614235 3.074623 35,025 157 386 0
2022-06-27 08:04:53 GMT 47.619400 3.071453 35,000 157 386 0
2022-06-27 08:04:50 GMT 47.625175 3.067862 35,000 157 386 0
2022-06-27 08:04:48 GMT 47.629807 3.064980 35,025 157 386 0
2022-06-27 08:04:43 GMT 47.638069 3.059833 35,000 157 386 0
2022-06-27 08:04:40 GMT 47.641159 3.057907 35,025 157 385 0
2022-06-27 08:04:37 GMT 47.646973 3.054268 35,025 157 385 0
2022-06-27 08:04:34 GMT 47.651802 3.051312 35,000 157 385 0
2022-06-27 08:04:30 GMT 47.657665 3.047650 35,000 157 385 0
2022-06-27 08:04:26 GMT 47.664047 3.043625 35,000 157 385 0
2022-06-27 08:04:21 GMT 47.674850 3.036964 35,025 157 385 0
2022-06-27 08:04:17 GMT 47.679657 3.033943 35,025 157 384 0
2022-06-27 08:04:14 GMT 47.684555 3.030922 35,025 157 385 0
2022-06-27 08:04:10 GMT 47.690964 3.026871 35,025 157 384 0
2022-06-27 08:04:07 GMT 47.695560 3.024057 35,025 157 384 0
2022-06-27 08:04:04 GMT 47.701145 3.020536 35,025 157 384 0
2022-06-27 08:03:59 GMT 47.714264 3.012383 35,000 157 384 64
2022-06-27 08:03:56 GMT 47.714264 3.012383 35,000 157 384 0
2022-06-27 08:03:52 GMT 47.720490 3.008537 35,000 157 384 0
2022-06-27 08:03:49 GMT 47.725403 3.005465 35,000 157 384 0
2022-06-27 08:03:43 GMT 47.734341 2.999901 35,000 157 383 -64
2022-06-27 08:03:40 GMT 47.739693 2.996521 35,025 157 383 -64
2022-06-27 08:03:38 GMT 47.743607 2.994118 35,000 157 383 -64
2022-06-27 08:03:33 GMT 47.750912 2.989549 35,000 157 382 64
2022-06-27 08:03:28 GMT 47.758438 2.984779 35,000 157 382 64
2022-06-27 08:03:23 GMT 47.767227 2.979286 35,000 156 382 0
2022-06-27 08:03:19 GMT 47.776978 2.973175 35,000 156 382 0
2022-06-27 08:03:13 GMT 47.783825 2.968844 35,000 156 381 0
2022-06-27 08:03:09 GMT 47.790249 2.964759 35,000 156 381 0
2022-06-27 08:03:04 GMT 47.798443 2.959548 35,000 156 381 0
2022-06-27 08:03:02 GMT 47.800964 2.957932 35,025 156 381 0
2022-06-27 08:02:59 GMT 47.808681 2.952998 35,025 156 381 0
2022-06-27 08:02:53 GMT 47.816162 2.948250 35,025 156 381 0
2022-06-27 08:02:50 GMT 47.821884 2.944611 35,000 156 381 0
2022-06-27 08:02:46 GMT 47.826511 2.941589 35,025 156 381 64
2022-06-27 08:02:43 GMT 47.832333 2.937857 35,000 156 381 0
2022-06-27 08:02:40 GMT 47.837872 2.934336 35,000 156 381 0
2022-06-27 08:02:37 GMT 47.841980 2.931633 35,000 156 381 0
2022-06-27 08:02:35 GMT 47.844498 2.930054 35,000 156 381 0
2022-06-27 08:02:32 GMT 47.849304 2.926964 35,000 154 382 64
2022-06-27 08:02:29 GMT 47.855839 2.922715 35,000 156 381 0
2022-06-27 08:02:24 GMT 47.862312 2.918560 35,000 156 381 0
2022-06-27 08:02:22 GMT 47.865646 2.916389 35,000 156 381 -64
2022-06-27 08:02:17 GMT 47.873856 2.911095 35,025 156 381 0
2022-06-27 08:02:12 GMT 47.882675 2.905472 35,025 156 380 0
2022-06-27 08:02:09 GMT 47.888565 2.901729 35,025 156 380 0
2022-06-27 08:02:06 GMT 47.892059 2.899546 35,000 156 380 0
2022-06-27 08:02:03 GMT 47.897224 2.896236 35,025 156 380 0
2022-06-27 08:01:59 GMT 47.905605 2.890954 35,025 156 379 64
2022-06-27 08:01:55 GMT 47.909225 2.888649 35,000 156 379 64
2022-06-27 08:01:48 GMT 47.921524 2.880883 35,000 156 379 0
2022-06-27 08:01:45 GMT 47.927216 2.877251 35,000 157 379 0
2022-06-27 08:01:43 GMT 47.930466 2.875191 35,000 157 379 0
2022-06-27 08:01:39 GMT 47.938190 2.870319 35,000 157 379 0
2022-06-27 08:01:32 GMT 47.947083 2.864755 35,000 157 379 0
2022-06-27 08:01:29 GMT 47.953217 2.860840 35,000 156 379 0
2022-06-27 08:01:23 GMT 47.962120 2.855178 35,000 156 379 0
2022-06-27 08:01:21 GMT 47.965332 2.853135 35,000 157 379 0
2022-06-27 08:01:18 GMT 47.970062 2.850197 35,000 157 379 0
2022-06-27 08:01:13 GMT 47.978210 2.844978 35,000 157 379 0
2022-06-27 08:01:07 GMT 47.987000 2.839417 35,000 157 379 0
2022-06-27 08:01:05 GMT 47.990753 2.837082 35,000 157 379 0
2022-06-27 08:01:02 GMT 47.995285 2.834198 35,000 157 379 0
2022-06-27 08:00:58 GMT 48.000916 2.830627 35,000 157 379 0
2022-06-27 08:00:56 GMT 48.004341 2.828487 35,000 157 379 0
2022-06-27 08:00:52 GMT 48.011604 2.823909 35,000 157 379 0
2022-06-27 08:00:49 GMT 48.016342 2.820946 35,000 157 379 0
2022-06-27 08:00:46 GMT 48.020279 2.818405 35,000 157 379 0
2022-06-27 08:00:43 GMT 48.025059 2.815387 35,000 157 380 -64
2022-06-27 08:00:39 GMT 48.032822 2.810577 35,000 157 379 -64
2022-06-27 08:00:37 GMT 48.035980 2.808517 35,025 157 378 -64
2022-06-27 08:00:34 GMT 48.040649 2.805634 35,025 157 378 0
2022-06-27 08:00:30 GMT 48.046703 2.801866 35,025 157 378 0
2022-06-27 08:00:28 GMT 48.050720 2.799316 35,025 157 378 0
2022-06-27 08:00:26 GMT 48.052505 2.798149 35,025 157 378 64
2022-06-27 08:00:23 GMT 48.058109 2.794682 35,000 157 378 64
2022-06-27 08:00:19 GMT 48.064133 2.790871 35,000 156 380 64
2022-06-27 08:00:16 GMT 48.068939 2.787781 35,000 156 380 64
2022-06-27 08:00:14 GMT 48.073051 2.785034 35,000 155 382 64
2022-06-27 08:00:11 GMT 48.078323 2.781395 35,000 154 382 64
2022-06-27 08:00:08 GMT 48.091442 2.771653 35,000 153 384 64
2022-06-27 08:00:03 GMT 48.091442 2.771653 35,000 152 384 128
2022-06-27 08:00:01 GMT 48.094620 2.769173 34,975 151 386 128
2022-06-27 07:59:58 GMT 48.098610 2.766019 34,975 151 386 128
2022-06-27 07:59:53 GMT 48.106339 2.759752 34,975 151 387 64
2022-06-27 07:59:51 GMT 48.114670 2.753061 34,975 151 387 0
2022-06-27 07:59:48 GMT 48.114670 2.753061 34,975 151 387 -64
2022-06-27 07:59:43 GMT 48.121994 2.747200 34,975 151 387 -64
2022-06-27 07:59:40 GMT 48.127121 2.743080 34,975 151 387 -128
2022-06-27 07:59:38 GMT 48.130360 2.740455 34,975 151 387 -128
2022-06-27 07:59:34 GMT 48.136505 2.735596 35,000 151 387 -128
2022-06-27 07:59:30 GMT 48.143112 2.730243 35,000 151 387 -128
2022-06-27 07:59:28 GMT 48.146347 2.727631 35,000 151 387 -128
2022-06-27 07:59:24 GMT 48.152378 2.722778 35,025 151 387 -128
2022-06-27 07:59:20 GMT 48.157104 2.718979 35,025 151 387 -128
2022-06-27 07:59:17 GMT 48.161819 2.715172 35,025 151 387 -128
2022-06-27 07:59:14 GMT 48.168091 2.710031 35,025 151 387 -64
2022-06-27 07:59:11 GMT 48.171753 2.707074 35,050 151 388 -64
2022-06-27 07:59:09 GMT 48.174816 2.704588 35,050 151 388 -64
2022-06-27 07:59:05 GMT 48.182190 2.698622 35,050 151 388 -64
2022-06-27 07:59:03 GMT 48.184872 2.696421 35,050 151 388 -64
2022-06-27 07:59:00 GMT 48.189514 2.692636 35,050 151 389 -64
2022-06-27 07:58:57 GMT 48.194275 2.688759 35,050 151 389 -64
2022-06-27 07:58:55 GMT 48.197433 2.686157 35,050 151 389 0
2022-06-27 07:58:52 GMT 48.203339 2.681439 35,050 151 389 0
2022-06-27 07:58:49 GMT 48.206703 2.678785 35,050 153 387 64
2022-06-27 07:58:47 GMT 48.210251 2.676016 35,050 152 388 64
2022-06-27 07:58:45 GMT 48.212814 2.674044 35,050 153 387 0
2022-06-27 07:58:42 GMT 48.219086 2.669389 35,050 154 386 0
2022-06-27 07:58:39 GMT 48.223415 2.666353 35,050 155 386 0
2022-06-27 07:58:36 GMT 48.228397 2.662884 35,050 155 386 0
2022-06-27 07:58:30 GMT 48.238083 2.656306 35,050 155 386 0
2022-06-27 07:58:27 GMT 48.242065 2.653621 35,050 155 386 0
2022-06-27 07:58:25 GMT 48.245453 2.651297 35,050 155 387 0
2022-06-27 07:58:22 GMT 48.251083 2.647564 35,050 155 387 64
2022-06-27 07:58:20 GMT 48.254189 2.645392 35,050 155 387 64
2022-06-27 07:58:16 GMT 48.260880 2.640874 35,025 155 387 64
2022-06-27 07:58:14 GMT 48.262474 2.639754 35,025 155 387 64
2022-06-27 07:58:12 GMT 48.265919 2.637369 35,025 154 388 64
2022-06-27 07:58:10 GMT 48.270767 2.633902 35,025 152 390 64
2022-06-27 07:58:06 GMT 48.277451 2.628831 35,025 152 391 64
2022-06-27 07:58:04 GMT 48.279980 2.626889 35,025 151 393 64
2022-06-27 07:58:01 GMT 48.284168 2.623564 35,025 151 393 64
2022-06-27 07:57:59 GMT 48.288635 2.619950 35,025 151 394 0
2022-06-27 07:57:55 GMT 48.293610 2.615802 35,025 150 395 0
2022-06-27 07:57:53 GMT 48.296768 2.613056 35,025 149 396 -64
2022-06-27 07:57:50 GMT 48.302582 2.607985 35,025 149 396 -64
2022-06-27 07:57:47 GMT 48.307259 2.603904 35,025 149 396 0
2022-06-27 07:57:43 GMT 48.313217 2.598773 35,025 149 396 -64
2022-06-27 07:57:41 GMT 48.316223 2.596083 35,025 149 396 -64
2022-06-27 07:57:39 GMT 48.319290 2.593478 35,025 149 396 0
2022-06-27 07:57:36 GMT 48.324528 2.588870 35,025 149 396 -64
2022-06-27 07:57:33 GMT 48.329544 2.584534 35,025 149 396 -64
2022-06-27 07:57:31 GMT 48.332676 2.581787 35,025 149 396 0
2022-06-27 07:57:27 GMT 48.339615 2.575801 35,025 149 396 0
2022-06-27 07:57:24 GMT 48.343521 2.572391 35,025 149 396 -64
2022-06-27 07:57:22 GMT 48.345703 2.570519 35,025 149 397 0
2022-06-27 07:57:19 GMT 48.351574 2.565380 35,025 149 396 0
2022-06-27 07:57:17 GMT 48.355042 2.562420 35,025 149 396 0
2022-06-27 07:57:15 GMT 48.358475 2.559392 35,025 149 396 0
2022-06-27 07:57:13 GMT 48.361443 2.556851 35,025 149 396 0
2022-06-27 07:57:11 GMT 48.363876 2.554744 35,025 149 397 0
2022-06-27 07:57:09 GMT 48.367401 2.551647 35,025 149 397 0
2022-06-27 07:57:06 GMT 48.371220 2.548322 35,025 149 397 0
2022-06-27 07:57:04 GMT 48.375084 2.544925 35,025 149 397 0
2022-06-27 07:57:02 GMT 48.378437 2.542034 35,025 149 397 64
2022-06-27 07:56:59 GMT 48.383286 2.537771 35,025 149 397 64
2022-06-27 07:56:56 GMT 48.387177 2.534391 35,025 149 398 64
2022-06-27 07:56:54 GMT 48.390289 2.531574 35,025 149 398 64
2022-06-27 07:56:51 GMT 48.395966 2.526644 35,025 149 398 64
2022-06-27 07:56:48 GMT 48.403244 2.520306 35,025 149 397 64
2022-06-27 07:56:46 GMT 48.403244 2.520306 35,025 149 397 64
2022-06-27 07:56:44 GMT 48.406971 2.517026 35,025 149 397 64
2022-06-27 07:56:41 GMT 48.411442 2.513123 35,000 149 397 64
2022-06-27 07:56:39 GMT 48.413727 2.511151 35,000 149 398 64
2022-06-27 07:56:36 GMT 48.419449 2.506184 35,000 149 398 64
2022-06-27 07:56:34 GMT 48.423203 2.502911 35,000 149 398 64
2022-06-27 07:56:32 GMT 48.425674 2.500728 35,000 149 398 -64
2022-06-27 07:56:29 GMT 48.429840 2.497136 35,000 149 398 0
2022-06-27 07:56:26 GMT 48.435516 2.492206 35,000 149 398 0
2022-06-27 07:56:24 GMT 48.438858 2.489319 35,000 149 398 0
2022-06-27 07:56:22 GMT 48.442703 2.485938 35,025 149 398 -64
2022-06-27 07:56:18 GMT 48.448334 2.481009 35,000 149 398 -64
2022-06-27 07:56:16 GMT 48.451756 2.478067 35,025 149 398 -64
2022-06-27 07:56:13 GMT 48.458542 2.472135 35,025 149 398 -64
2022-06-27 07:56:11 GMT 48.458542 2.472135 35,025 149 398 0
2022-06-27 07:56:08 GMT 48.463253 2.468021 35,025 149 398 0
2022-06-27 07:56:03 GMT 48.471401 2.460865 35,025 149 398 0
2022-06-27 07:56:01 GMT 48.475616 2.457135 35,025 149 398 0
2022-06-27 07:55:59 GMT 48.478088 2.454951 35,025 149 398 0
2022-06-27 07:55:56 GMT 48.483784 2.449951 35,025 149 398 0
2022-06-27 07:55:54 GMT 48.486694 2.447345 35,025 149 398 0
2022-06-27 07:55:51 GMT 48.491234 2.443374 35,025 149 398 0
2022-06-27 07:55:47 GMT 48.497635 2.437697 35,025 149 398 64
2022-06-27 07:55:45 GMT 48.500519 2.435162 35,025 149 398 64
2022-06-27 07:55:42 GMT 48.505337 2.430942 35,025 149 398 64
2022-06-27 07:55:39 GMT 48.510269 2.426533 35,000 149 399 0
2022-06-27 07:55:35 GMT 48.516495 2.421006 35,000 149 399 0
2022-06-27 07:55:32 GMT 48.524094 2.414316 35,000 149 399 0
2022-06-27 07:55:28 GMT 48.527031 2.411644 35,000 149 399 0
2022-06-27 07:55:26 GMT 48.532425 2.406851 35,000 149 399 -64
2022-06-27 07:55:22 GMT 48.537735 2.402132 35,025 149 399 0
2022-06-27 07:55:20 GMT 48.539322 2.400730 35,025 149 399 0
2022-06-27 07:55:16 GMT 48.552200 2.389245 35,025 149 399 0
2022-06-27 07:55:13 GMT 48.552200 2.389245 35,025 149 399 0
2022-06-27 07:55:10 GMT 48.555428 2.386418 35,000 149 400 0
2022-06-27 07:55:08 GMT 48.559429 2.382804 35,000 149 400 0
2022-06-27 07:55:06 GMT 48.563107 2.379552 35,000 149 401 64
2022-06-27 07:55:03 GMT 48.568268 2.375019 35,025 149 399 0
2022-06-27 07:55:01 GMT 48.571609 2.372061 35,000 149 399 0
2022-06-27 07:54:58 GMT 48.575165 2.368927 35,025 149 400 0
2022-06-27 07:54:55 GMT 48.585499 2.359748 35,000 149 400 0
2022-06-27 07:54:52 GMT 48.585499 2.359748 35,000 149 400 64
2022-06-27 07:54:50 GMT 48.587906 2.357624 35,000 149 400 64
2022-06-27 07:54:48 GMT 48.591087 2.354833 35,000 149 400 0
2022-06-27 07:54:45 GMT 48.596485 2.349990 35,000 149 401 64
2022-06-27 07:54:41 GMT 48.605896 2.341708 35,000 149 400 64
2022-06-27 07:54:39 GMT 48.611938 2.336355 35,000 149 400 0
2022-06-27 07:54:35 GMT 48.611938 2.336355 35,000 149 400 0
2022-06-27 07:54:30 GMT 48.620041 2.329242 35,000 149 400 0
2022-06-27 07:54:28 GMT 48.628372 2.321918 35,000 149 400 0
2022-06-27 07:54:25 GMT 48.628372 2.321918 35,000 149 400 0
2022-06-27 07:54:22 GMT 48.638672 2.312904 35,000 149 400 64
2022-06-27 07:54:18 GMT 48.638672 2.312904 35,000 149 401 64
2022-06-27 07:54:15 GMT 48.649017 2.303819 34,975 149 401 64
2022-06-27 07:54:12 GMT 48.649017 2.303819 35,000 149 401 0
2022-06-27 07:54:10 GMT 48.651947 2.301213 35,000 149 401 0
2022-06-27 07:54:07 GMT 48.657578 2.296283 34,975 149 401 0
2022-06-27 07:54:04 GMT 48.660553 2.293607 34,975 149 402 0
2022-06-27 07:54:02 GMT 48.664917 2.289782 35,000 149 401 0
2022-06-27 07:54:00 GMT 48.668594 2.286602 35,000 149 401 -64
2022-06-27 07:53:58 GMT 48.671082 2.284382 35,000 149 402 -64
2022-06-27 07:53:55 GMT 48.676712 2.279452 35,000 149 401 -64
2022-06-27 07:53:51 GMT 48.681583 2.275182 35,000 149 401 -64
2022-06-27 07:53:49 GMT 48.685959 2.271351 35,000 149 401 0
2022-06-27 07:53:45 GMT 48.692524 2.265641 35,000 150 400 64
2022-06-27 07:53:42 GMT 48.697540 2.261282 35,000 150 400 64
2022-06-27 07:53:40 GMT 48.706924 2.253042 35,000 150 400 64
2022-06-27 07:53:37 GMT 48.706924 2.253042 35,000 149 401 0
2022-06-27 07:53:34 GMT 48.709259 2.251000 35,000 149 402 0
2022-06-27 07:53:32 GMT 48.713196 2.247408 35,000 148 402 0
2022-06-27 07:53:30 GMT 48.716450 2.244391 35,000 146 404 0
2022-06-27 07:53:28 GMT 48.724411 2.236352 35,000 143 407 -64
2022-06-27 07:53:25 GMT 48.724411 2.236352 35,000 144 406 0
2022-06-27 07:53:21 GMT 48.729115 2.231309 35,000 143 408 -64
2022-06-27 07:53:17 GMT 48.735538 2.224009 35,000 139 414 -64
2022-06-27 07:53:14 GMT 48.740147 2.218371 35,000 140 412 0
2022-06-27 07:53:12 GMT 48.743179 2.214520 35,000 139 412 0
2022-06-27 07:53:10 GMT 48.746105 2.210782 35,000 139 412 -64
2022-06-27 07:53:07 GMT 48.750458 2.205224 35,000 139 413 0
2022-06-27 07:53:04 GMT 48.754669 2.199871 35,000 139 413 0
2022-06-27 07:53:01 GMT 48.760536 2.192351 35,000 139 413 -64
2022-06-27 07:52:59 GMT 48.763641 2.188392 35,000 139 413 -64
2022-06-27 07:52:56 GMT 48.766869 2.184183 35,000 139 414 -64
2022-06-27 07:52:53 GMT 48.771698 2.178040 35,000 139 414 -64
2022-06-27 07:52:50 GMT 48.776047 2.172476 35,000 139 414 -64
2022-06-27 07:52:47 GMT 48.779160 2.168532 35,000 139 414 0
2022-06-27 07:52:44 GMT 48.783672 2.162717 35,000 139 414 -64
2022-06-27 07:52:41 GMT 48.789551 2.155151 35,000 139 414 -64
2022-06-27 07:52:38 GMT 48.792984 2.150791 35,000 139 414 0
2022-06-27 07:52:36 GMT 48.795868 2.147032 35,000 139 415 0
2022-06-27 07:52:34 GMT 48.798569 2.143602 35,000 139 414 0
2022-06-27 07:52:31 GMT 48.803505 2.137274 35,000 139 414 0
2022-06-27 07:52:29 GMT 48.806252 2.133733 35,000 139 414 0
2022-06-27 07:52:26 GMT 48.811020 2.127615 35,000 139 415 0
2022-06-27 07:52:23 GMT 48.815689 2.121629 35,000 139 415 64
2022-06-27 07:52:20 GMT 48.820129 2.115925 35,000 139 416 64
2022-06-27 07:52:15 GMT 48.826221 2.108074 35,000 139 416 64
2022-06-27 07:52:13 GMT 48.829926 2.103248 35,000 139 416 64
2022-06-27 07:52:11 GMT 48.832260 2.100290 35,000 139 417 0
2022-06-27 07:52:09 GMT 48.835098 2.096628 35,000 139 418 0
2022-06-27 07:52:07 GMT 48.839676 2.090727 35,000 139 417 0
2022-06-27 07:52:04 GMT 48.843475 2.085853 35,000 139 417 0
2022-06-27 07:52:01 GMT 48.847733 2.080430 35,000 139 417 0
2022-06-27 07:51:59 GMT 48.851166 2.075993 35,000 139 417 0
2022-06-27 07:51:56 GMT 48.854279 2.071979 35,050 140 426 0
2022-06-27 07:51:53 GMT 48.859787 2.064924 35,000 139 417 0
2022-06-27 07:51:51 GMT 48.862701 2.061204 35,000 139 418 0
2022-06-27 07:51:49 GMT 48.864120 2.059373 35,000 139 418 0
2022-06-27 07:51:45 GMT 48.871170 2.050429 35,025 139 418 0
2022-06-27 07:51:43 GMT 48.874542 2.046131 35,000 139 418 0
2022-06-27 07:51:39 GMT 48.878906 2.040570 35,000 139 418 0
2022-06-27 07:51:37 GMT 48.882549 2.035940 35,000 139 419 -64
2022-06-27 07:51:33 GMT 48.893303 2.022279 35,000 139 419 -64
2022-06-27 07:51:30 GMT 48.897541 2.016786 35,000 139 420 -64
2022-06-27 07:51:27 GMT 48.897541 2.016786 35,025 139 420 -128
2022-06-27 07:51:24 GMT 48.902473 2.010498 35,025 139 420 -192
2022-06-27 07:51:22 GMT 48.905594 2.006523 35,025 139 420 -128
2022-06-27 07:51:20 GMT 48.907700 2.003737 35,025 139 419 -128
2022-06-27 07:51:17 GMT 48.912048 1.998174 35,050 139 419 -192
2022-06-27 07:51:14 GMT 48.917187 1.991561 35,050 139 419 -128
2022-06-27 07:51:12 GMT 48.919281 1.988878 35,050 139 419 -128
2022-06-27 07:51:09 GMT 48.923904 1.982962 35,050 139 420 -128
2022-06-27 07:51:04 GMT 48.931664 1.972986 35,075 140 418 -64
2022-06-27 07:51:02 GMT 48.934689 1.969155 35,075 140 418 0
2022-06-27 07:50:59 GMT 48.938644 1.964240 35,075 140 418 0
2022-06-27 07:50:56 GMT 48.942276 1.959614 35,075 140 419 0
2022-06-27 07:50:53 GMT 48.946930 1.953735 35,075 140 419 0
2022-06-27 07:50:51 GMT 48.949951 1.949932 35,075 140 420 0
2022-06-27 07:50:49 GMT 48.953171 1.945881 35,075 140 419 0
2022-06-27 07:50:46 GMT 48.957870 1.940002 35,075 140 420 0
2022-06-27 07:50:43 GMT 48.962082 1.934721 35,075 140 421 0
2022-06-27 07:50:41 GMT 48.966568 1.929016 35,075 140 421 0
2022-06-27 07:50:39 GMT 48.968857 1.926129 35,075 140 421 0
2022-06-27 07:50:37 GMT 48.973328 1.920511 35,075 140 422 0
2022-06-27 07:50:34 GMT 48.976456 1.916551 35,075 140 423 0
2022-06-27 07:50:32 GMT 48.978634 1.913862 35,075 140 422 0
2022-06-27 07:50:30 GMT 48.982403 1.909091 35,075 140 422 0
2022-06-27 07:50:28 GMT 48.988644 1.901213 35,075 140 422 0
2022-06-27 07:50:26 GMT 48.988644 1.901213 35,075 140 423 0
2022-06-27 07:50:23 GMT 48.994400 1.894085 35,075 140 424 0
2022-06-27 07:50:21 GMT 48.995903 1.892178 35,075 140 424 0
2022-06-27 07:50:18 GMT 48.998932 1.888381 35,075 140 426 0
2022-06-27 07:50:15 GMT 49.004974 1.880845 35,075 140 425 0
2022-06-27 07:50:12 GMT 49.009186 1.875493 35,075 140 425 0
2022-06-27 07:50:10 GMT 49.014851 1.868399 35,075 140 425 0
2022-06-27 07:50:06 GMT 49.018387 1.863943 35,075 140 426 0
2022-06-27 07:50:03 GMT 49.025650 1.854882 35,075 140 425 0
2022-06-27 07:49:58 GMT 49.029739 1.849788 35,075 140 425 0
2022-06-27 07:49:55 GMT 49.035427 1.842667 35,075 140 426 0
2022-06-27 07:49:51 GMT 49.041107 1.835584 35,075 140 426 0
2022-06-27 07:49:49 GMT 49.044342 1.831618 35,075 140 426 0
2022-06-27 07:49:46 GMT 49.053864 1.819755 35,075 140 427 0
2022-06-27 07:49:43 GMT 49.053864 1.819755 35,075 140 427 0
2022-06-27 07:49:41 GMT 49.056610 1.816286 35,075 140 427 0
2022-06-27 07:49:39 GMT 49.060272 1.811688 35,075 140 427 0
2022-06-27 07:49:35 GMT 49.066616 1.803782 35,075 140 427 0
2022-06-27 07:49:32 GMT 49.073456 1.795208 35,075 140 427 0
2022-06-27 07:49:30 GMT 49.073456 1.795208 35,075 140 427 0
2022-06-27 07:49:28 GMT 49.076069 1.792000 35,075 140 427 64
2022-06-27 07:49:25 GMT 49.081329 1.785419 35,075 140 427 64
2022-06-27 07:49:22 GMT 49.086914 1.778447 35,050 140 428 128
2022-06-27 07:49:19 GMT 49.090668 1.773729 35,050 140 427 64
2022-06-27 07:49:15 GMT 49.095806 1.767353 35,050 140 429 64
2022-06-27 07:49:13 GMT 49.099297 1.763017 35,050 140 429 64
2022-06-27 07:49:10 GMT 49.106140 1.754503 35,050 140 429 0
2022-06-27 07:49:08 GMT 49.106140 1.754503 35,025 140 429 0
2022-06-27 07:49:06 GMT 49.110191 1.749428 35,025 140 429 0
2022-06-27 07:49:03 GMT 49.114929 1.743516 35,025 140 429 -64
2022-06-27 07:48:59 GMT 49.120945 1.735984 35,050 140 429 -64
2022-06-27 07:48:56 GMT 49.126694 1.728797 35,050 140 429 0
2022-06-27 07:48:53 GMT 49.130581 1.723914 35,050 140 429 0
2022-06-27 07:48:49 GMT 49.136078 1.717036 35,050 140 428 0
2022-06-27 07:48:47 GMT 49.140728 1.711193 35,050 140 428 64
2022-06-27 07:48:44 GMT 49.143707 1.707434 35,050 140 428 0
2022-06-27 07:48:41 GMT 49.151669 1.697315 35,050 140 428 0
2022-06-27 07:48:39 GMT 49.151669 1.697315 35,050 140 429 64
2022-06-27 07:48:37 GMT 49.158371 1.688859 35,025 140 428 128
2022-06-27 07:48:34 GMT 49.164005 1.681631 35,050 140 428 128
2022-06-27 07:48:31 GMT 49.164005 1.681631 35,050 140 428 64
2022-06-27 07:48:29 GMT 49.171127 1.672596 35,025 140 428 64
2022-06-27 07:48:26 GMT 49.175995 1.666471 35,025 140 429 64
2022-06-27 07:48:23 GMT 49.175995 1.666471 35,025 140 429 64
2022-06-27 07:48:20 GMT 49.179226 1.662405 35,025 140 428 64
2022-06-27 07:48:18 GMT 49.183651 1.656839 35,025 140 427 64
2022-06-27 07:48:15 GMT 49.188080 1.651330 35,025 140 427 64
2022-06-27 07:48:11 GMT 49.193527 1.644498 35,025 140 427 64
2022-06-27 07:48:09 GMT 49.197281 1.639850 35,025 140 427 64
2022-06-27 07:48:07 GMT 49.200268 1.636240 35,025 141 426 64
2022-06-27 07:48:04 GMT 49.204739 1.630675 35,025 141 426 64
2022-06-27 07:48:01 GMT 49.208740 1.625760 35,000 141 426 64
2022-06-27 07:47:59 GMT 49.212978 1.620556 35,000 141 426 64
2022-06-27 07:47:57 GMT 49.215179 1.617807 35,000 141 426 128
2022-06-27 07:47:55 GMT 49.219261 1.612822 35,000 141 426 128
2022-06-27 07:47:52 GMT 49.222569 1.608774 35,000 141 426 128
2022-06-27 07:47:50 GMT 49.226624 1.603793 35,000 141 426 64
2022-06-27 07:47:48 GMT 49.230331 1.599285 35,000 141 426 64
2022-06-27 07:47:44 GMT 49.239441 1.588158 34,975 141 425 0
2022-06-27 07:47:41 GMT 49.239441 1.588158 34,975 141 426 0
2022-06-27 07:47:39 GMT 49.241867 1.585130 34,975 141 425 0
2022-06-27 07:47:37 GMT 49.245193 1.581019 34,975 141 425 0
2022-06-27 07:47:32 GMT 49.253803 1.570394 34,975 140 425 0
2022-06-27 07:47:30 GMT 49.256012 1.567594 34,975 140 424 -64
2022-06-27 07:47:27 GMT 49.261021 1.561360 35,000 140 424 -64
2022-06-27 07:47:25 GMT 49.264160 1.557453 34,975 140 424 -64
2022-06-27 07:47:22 GMT 49.273914 1.545242 35,000 140 424 0
2022-06-27 07:47:19 GMT 49.276474 1.542030 35,000 140 424 0
2022-06-27 07:47:17 GMT 49.276474 1.542030 35,000 140 423 0
2022-06-27 07:47:15 GMT 49.279549 1.538086 35,000 140 423 0
2022-06-27 07:47:12 GMT 49.284164 1.532311 35,000 140 423 0
2022-06-27 07:47:10 GMT 49.286621 1.529268 35,000 140 423 0
2022-06-27 07:47:08 GMT 49.293503 1.520620 35,000 140 423 -64
2022-06-27 07:47:06 GMT 49.293503 1.520620 35,000 140 423 -64
2022-06-27 07:47:03 GMT 49.297897 1.515127 35,000 140 423 -64
2022-06-27 07:47:00 GMT 49.306778 1.503930 35,000 140 423 -64
2022-06-27 07:46:57 GMT 49.306778 1.503930 35,025 140 423 0
2022-06-27 07:46:55 GMT 49.314743 1.493859 35,000 140 421 0
2022-06-27 07:46:52 GMT 49.314743 1.493859 35,000 140 422 0
2022-06-27 07:46:47 GMT 49.322342 1.484281 35,000 140 423 0
2022-06-27 07:46:44 GMT 49.326752 1.478673 35,000 140 423 0
2022-06-27 07:46:41 GMT 49.335690 1.467398 35,000 140 422 -64
2022-06-27 07:46:38 GMT 49.335690 1.467398 35,000 140 422 -64
2022-06-27 07:46:36 GMT 49.343033 1.458083 35,025 140 422 -64
2022-06-27 07:46:33 GMT 49.343033 1.458083 35,025 140 423 0
2022-06-27 07:46:30 GMT 49.347702 1.452238 35,025 140 422 -64
2022-06-27 07:46:28 GMT 49.350819 1.448244 35,025 140 422 -64
2022-06-27 07:46:25 GMT 49.359879 1.436815 35,025 140 422 -64
2022-06-27 07:46:22 GMT 49.359879 1.436815 35,025 140 422 0
2022-06-27 07:46:19 GMT 49.363575 1.432126 35,025 140 422 0
2022-06-27 07:46:16 GMT 49.367889 1.426673 35,025 140 423 0
2022-06-27 07:46:14 GMT 49.375351 1.417236 35,025 140 422 0
2022-06-27 07:46:11 GMT 49.375351 1.417236 35,025 140 423 0
2022-06-27 07:46:08 GMT 49.380707 1.410546 35,025 140 423 0
2022-06-27 07:46:06 GMT 49.382858 1.407799 35,025 140 423 0
2022-06-27 07:46:03 GMT 49.388351 1.400898 35,025 140 423 0
2022-06-27 07:46:00 GMT 49.395493 1.391883 35,025 140 423 0
2022-06-27 07:45:58 GMT 49.395493 1.391883 35,025 140 423 0
2022-06-27 07:45:55 GMT 49.399792 1.386446 35,025 140 423 0
2022-06-27 07:45:52 GMT 49.403778 1.381531 35,025 140 423 0
2022-06-27 07:45:48 GMT 49.410645 1.372868 35,025 140 424 0
2022-06-27 07:45:45 GMT 49.414261 1.368291 35,025 140 424 0
2022-06-27 07:45:42 GMT 49.418972 1.362377 35,025 140 423 0
2022-06-27 07:45:39 GMT 49.423721 1.356450 35,025 140 423 0
2022-06-27 07:45:37 GMT 49.426792 1.352619 35,025 140 424 0
2022-06-27 07:45:35 GMT 49.429352 1.349388 35,025 140 424 0
2022-06-27 07:45:33 GMT 49.433727 1.343969 35,025 141 423 64
2022-06-27 07:45:30 GMT 49.438110 1.338525 35,025 141 423 64
2022-06-27 07:45:27 GMT 49.442947 1.332463 35,025 141 423 64
2022-06-27 07:45:23 GMT 49.447861 1.326455 35,025 141 423 64
2022-06-27 07:45:20 GMT 49.458023 1.313878 35,000 141 423 64
2022-06-27 07:45:17 GMT 49.458023 1.313878 35,000 141 423 64
2022-06-27 07:45:13 GMT 49.464203 1.306361 35,000 141 423 0
2022-06-27 07:45:10 GMT 49.469013 1.300395 35,000 141 423 0
2022-06-27 07:45:08 GMT 49.471893 1.296820 35,000 141 423 0
2022-06-27 07:45:06 GMT 49.476974 1.290597 35,000 141 423 0
2022-06-27 07:45:01 GMT 49.481369 1.285111 35,000 140 423 64
2022-06-27 07:44:57 GMT 49.487541 1.277458 35,000 140 423 0
2022-06-27 07:44:54 GMT 49.494370 1.268993 35,000 141 423 64
2022-06-27 07:44:51 GMT 49.496761 1.265952 35,000 141 423 0
2022-06-27 07:44:47 GMT 49.502811 1.258380 35,000 141 423 0
2022-06-27 07:44:44 GMT 49.508652 1.251140 35,025 141 423 0
2022-06-27 07:44:42 GMT 49.510914 1.248359 35,000 141 422 0
2022-06-27 07:44:38 GMT 49.517349 1.240371 35,000 141 422 0
2022-06-27 07:44:35 GMT 49.521469 1.235311 35,000 141 422 0
2022-06-27 07:44:31 GMT 49.536469 1.216736 35,000 141 422 -64
2022-06-27 07:44:26 GMT 49.536469 1.216736 35,000 141 422 0
2022-06-27 07:44:22 GMT 49.541542 1.210500 35,000 141 422 0
2022-06-27 07:44:19 GMT 49.545734 1.205304 35,000 141 421 -64
2022-06-27 07:44:17 GMT 49.548664 1.201741 35,000 141 421 0
2022-06-27 07:44:15 GMT 49.558502 1.189559 35,000 141 422 -64
2022-06-27 07:44:11 GMT 49.558502 1.189559 35,000 141 422 -64
2022-06-27 07:44:08 GMT 49.567062 1.179006 35,000 141 422 -64
2022-06-27 07:44:06 GMT 49.568848 1.176838 35,000 141 422 -64
2022-06-27 07:44:04 GMT 49.568848 1.176838 35,000 141 422 -64
2022-06-27 07:44:02 GMT 49.572781 1.172048 35,000 141 421 0
2022-06-27 07:43:59 GMT 49.576363 1.167669 35,000 141 421 -64
2022-06-27 07:43:55 GMT 49.581299 1.161587 35,025 141 421 -64
2022-06-27 07:43:53 GMT 49.585674 1.156237 35,025 141 421 -64
2022-06-27 07:43:50 GMT 49.589771 1.151189 35,025 141 421 0
2022-06-27 07:43:46 GMT 49.595764 1.143879 35,000 141 421 0
2022-06-27 07:43:44 GMT 49.602295 1.135897 35,025 141 421 0
2022-06-27 07:43:42 GMT 49.602295 1.135897 35,000 141 421 0
2022-06-27 07:43:39 GMT 49.607391 1.129640 35,025 141 422 0
2022-06-27 07:43:36 GMT 49.611465 1.124653 35,025 141 422 0
2022-06-27 07:43:33 GMT 49.616680 1.118230 35,025 141 422 64
2022-06-27 07:43:30 GMT 49.620216 1.113999 35,000 142 423 -64
2022-06-27 07:43:27 GMT 49.631157 1.100786 35,000 142 423 0
2022-06-27 07:43:23 GMT 49.631157 1.100786 35,000 142 422 0
2022-06-27 07:43:20 GMT 49.636089 1.094847 35,000 142 422 -64
2022-06-27 07:43:17 GMT 49.640606 1.089502 35,000 142 422 -64
2022-06-27 07:43:15 GMT 49.644150 1.085189 35,025 142 423 -64
2022-06-27 07:43:13 GMT 49.646439 1.082515 35,025 142 423 -64
2022-06-27 07:43:10 GMT 49.656876 1.070083 35,025 142 423 -64
2022-06-27 07:43:07 GMT 49.656876 1.070083 35,025 142 423 -64
2022-06-27 07:43:05 GMT 49.659256 1.067264 35,025 142 424 -64
2022-06-27 07:43:03 GMT 49.662487 1.063447 35,025 142 423 -64
2022-06-27 07:43:00 GMT 49.666397 1.058735 35,025 142 423 -64
2022-06-27 07:42:58 GMT 49.672310 1.051792 35,025 142 423 -64
2022-06-27 07:42:56 GMT 49.676285 1.047026 35,025 142 423 -64
2022-06-27 07:42:54 GMT 49.676285 1.047026 35,025 142 423 0
2022-06-27 07:42:51 GMT 49.680954 1.041533 35,025 142 423 0
2022-06-27 07:42:48 GMT 49.685062 1.036723 35,025 142 423 0
2022-06-27 07:42:45 GMT 49.690155 1.030691 35,025 142 424 0
2022-06-27 07:42:41 GMT 49.700287 1.018685 35,000 142 427 0
2022-06-27 07:42:38 GMT 49.700287 1.018685 35,025 142 424 64
2022-06-27 07:42:36 GMT 49.703659 1.014718 35,025 142 425 64
2022-06-27 07:42:33 GMT 49.708420 1.009152 35,025 142 425 64
2022-06-27 07:42:30 GMT 49.713135 1.003616 35,025 142 425 64
2022-06-27 07:42:27 GMT 49.718719 0.997009 35,025 142 425 64
2022-06-27 07:42:24 GMT 49.723236 0.991739 35,025 142 426 64
2022-06-27 07:42:22 GMT 49.727325 0.986963 35,025 142 426 64
2022-06-27 07:42:19 GMT 49.731216 0.982337 35,025 142 426 64
2022-06-27 07:42:17 GMT 49.734081 0.978971 35,000 142 426 0
2022-06-27 07:42:14 GMT 49.742661 0.968893 35,000 142 426 0
2022-06-27 07:42:11 GMT 49.742661 0.968893 35,000 142 426 0
2022-06-27 07:42:07 GMT 49.750305 0.959858 35,000 142 427 0
2022-06-27 07:42:04 GMT 49.755249 0.954076 35,000 142 427 0
2022-06-27 07:42:01 GMT 49.759003 0.949667 35,000 142 427 0
2022-06-27 07:41:59 GMT 49.762482 0.945475 35,000 142 427 0
2022-06-27 07:41:56 GMT 49.767288 0.939837 35,000 142 427 0
2022-06-27 07:41:54 GMT 49.769604 0.937178 35,000 142 427 0
2022-06-27 07:41:52 GMT 49.772766 0.933392 35,000 142 427 0
2022-06-27 07:41:49 GMT 49.777679 0.927622 35,000 142 428 -64
2022-06-27 07:41:46 GMT 49.782639 0.921812 35,000 142 427 0
2022-06-27 07:41:43 GMT 49.787338 0.916245 35,000 142 427 0
2022-06-27 07:41:40 GMT 49.792648 0.910058 35,000 142 427 -64
2022-06-27 07:41:37 GMT 49.796631 0.905360 35,000 142 427 -64
2022-06-27 07:41:33 GMT 49.806747 0.893507 35,025 142 427 0
2022-06-27 07:41:30 GMT 49.806747 0.893507 35,000 142 427 0
2022-06-27 07:41:27 GMT 49.812927 0.886206 35,000 142 429 -64
2022-06-27 07:41:24 GMT 49.816772 0.881653 35,000 142 428 0
2022-06-27 07:41:22 GMT 49.819931 0.877967 35,000 142 428 0
2022-06-27 07:41:19 GMT 49.830231 0.865824 35,025 142 428 -64
2022-06-27 07:41:16 GMT 49.830231 0.865824 35,025 142 428 -64
2022-06-27 07:41:13 GMT 49.835194 0.859903 35,025 142 428 -64
2022-06-27 07:41:11 GMT 49.840485 0.853681 35,025 142 428 -64
2022-06-27 07:41:09 GMT 49.840485 0.853681 35,025 142 429 -64
2022-06-27 07:41:06 GMT 49.846275 0.846764 35,025 142 429 -64
2022-06-27 07:41:01 GMT 49.854034 0.837635 35,025 142 429 0
2022-06-27 07:40:58 GMT 49.857727 0.833254 35,025 142 429 -64
2022-06-27 07:40:56 GMT 49.861542 0.828745 35,025 142 429 0
2022-06-27 07:40:53 GMT 49.865616 0.823902 35,025 142 429 0
2022-06-27 07:40:50 GMT 49.870651 0.817903 35,025 142 429 0
2022-06-27 07:40:47 GMT 49.875229 0.812543 35,025 142 429 0
2022-06-27 07:40:45 GMT 49.878387 0.808796 35,025 142 429 0
2022-06-27 07:40:42 GMT 49.883057 0.803231 35,025 142 429 64
2022-06-27 07:40:38 GMT 49.889694 0.795352 35,025 142 429 64
2022-06-27 07:40:34 GMT 49.895325 0.788703 35,025 142 429 64
2022-06-27 07:40:31 GMT 49.900955 0.781981 35,025 142 429 64
2022-06-27 07:40:29 GMT 49.903885 0.778511 35,000 142 429 128
2022-06-27 07:40:26 GMT 49.908371 0.773235 35,000 142 430 128
2022-06-27 07:40:23 GMT 49.912399 0.768465 35,000 142 430 64
2022-06-27 07:40:20 GMT 49.922527 0.756424 35,000 142 432 0
2022-06-27 07:40:17 GMT 49.922527 0.756424 35,000 142 431 0
2022-06-27 07:40:14 GMT 49.928577 0.749297 35,000 142 431 0
2022-06-27 07:40:11 GMT 49.933701 0.743210 35,000 142 431 0
2022-06-27 07:40:08 GMT 49.936569 0.739842 35,000 142 432 0
2022-06-27 07:40:05 GMT 49.941605 0.733843 35,000 142 432 -64
2022-06-27 07:40:03 GMT 49.947105 0.727325 35,025 142 432 -64
2022-06-27 07:39:59 GMT 49.957214 0.715340 35,000 142 432 0
2022-06-27 07:39:56 GMT 49.957214 0.715340 35,000 142 432 0
2022-06-27 07:39:53 GMT 49.960373 0.711587 35,000 142 432 0
2022-06-27 07:39:50 GMT 49.964657 0.706465 35,000 142 432 0
2022-06-27 07:39:48 GMT 49.968845 0.701492 35,000 142 432 0
2022-06-27 07:39:45 GMT 49.972569 0.697038 35,000 142 432 0
2022-06-27 07:39:43 GMT 49.974838 0.694379 35,000 142 432 0
2022-06-27 07:39:41 GMT 49.978294 0.690283 35,025 142 432 0
2022-06-27 07:39:38 GMT 49.984772 0.682526 35,025 142 432 0
2022-06-27 07:39:36 GMT 49.987934 0.678777 35,025 142 432 -64
2022-06-27 07:39:33 GMT 49.990864 0.675288 35,025 142 432 -64
2022-06-27 07:39:31 GMT 49.994843 0.670455 35,025 142 433 -64
2022-06-27 07:39:29 GMT 49.998592 0.666009 35,025 142 433 0
2022-06-27 07:39:27 GMT 50.003494 0.660119 35,025 142 433 0
2022-06-27 07:39:24 GMT 50.006599 0.656433 35,025 142 433 -64
2022-06-27 07:39:21 GMT 50.011917 0.650000 35,025 142 433 -64
2022-06-27 07:39:17 GMT 50.017960 0.642774 35,025 142 433 -64
2022-06-27 07:39:15 GMT 50.022243 0.637652 35,025 142 433 -64
2022-06-27 07:39:12 GMT 50.024662 0.634757 35,025 142 433 -64
2022-06-27 07:39:10 GMT 50.028198 0.630526 35,025 142 434 -64
2022-06-27 07:39:07 GMT 50.033043 0.624736 35,025 142 434 -64
2022-06-27 07:39:04 GMT 50.038769 0.617832 35,025 142 434 0
2022-06-27 07:39:01 GMT 50.042679 0.613156 35,050 142 434 0
2022-06-27 07:38:59 GMT 50.050079 0.604322 35,050 142 434 0
2022-06-27 07:38:56 GMT 50.050079 0.604322 35,050 142 434 0
2022-06-27 07:38:54 GMT 50.054031 0.599550 35,050 142 434 0
2022-06-27 07:38:51 GMT 50.059483 0.592965 35,050 142 434 64
2022-06-27 07:38:47 GMT 50.065842 0.585311 35,050 142 435 64
2022-06-27 07:38:44 GMT 50.069817 0.580568 35,025 142 435 64
2022-06-27 07:38:41 GMT 50.075172 0.574110 35,025 142 435 64
2022-06-27 07:38:38 GMT 50.081036 0.567058 35,025 142 436 128
2022-06-27 07:38:35 GMT 50.087082 0.559797 35,025 142 436 128
2022-06-27 07:38:32 GMT 50.087082 0.559797 35,000 142 436 128
2022-06-27 07:38:30 GMT 50.091843 0.554015 35,025 142 436 128
2022-06-27 07:38:27 GMT 50.096375 0.548594 35,025 142 436 128
2022-06-27 07:38:25 GMT 50.100449 0.543675 35,000 142 436 128
2022-06-27 07:38:23 GMT 50.102077 0.541745 35,000 142 438 -64
2022-06-27 07:38:20 GMT 50.107773 0.534861 35,000 142 437 64
2022-06-27 07:38:17 GMT 50.113403 0.528067 35,000 142 437 64
2022-06-27 07:38:14 GMT 50.116882 0.523874 35,000 142 437 64
2022-06-27 07:38:12 GMT 50.120373 0.519698 35,000 142 437 64
2022-06-27 07:38:10 GMT 50.124378 0.514873 34,975 142 437 0
2022-06-27 07:38:07 GMT 50.129196 0.509130 35,000 142 438 -64
2022-06-27 07:38:04 GMT 50.133736 0.503664 35,000 142 438 -64
2022-06-27 07:38:01 GMT 50.139179 0.497131 35,000 142 438 -64
2022-06-27 07:37:59 GMT 50.142471 0.493228 35,000 142 438 -64
2022-06-27 07:37:56 GMT 50.145744 0.489263 35,000 142 437 -64
2022-06-27 07:37:54 GMT 50.149143 0.485180 35,000 142 438 -64
2022-06-27 07:37:52 GMT 50.153194 0.480355 35,025 142 438 -64
2022-06-27 07:37:49 GMT 50.157120 0.475665 35,025 142 438 -64
2022-06-27 07:37:46 GMT 50.163017 0.468552 35,025 142 437 -64
2022-06-27 07:37:43 GMT 50.167786 0.462799 35,025 142 438 -64
2022-06-27 07:37:40 GMT 50.172421 0.457195 35,025 142 438 0
2022-06-27 07:37:37 GMT 50.176933 0.451776 35,025 142 438 0
2022-06-27 07:37:34 GMT 50.182709 0.444872 35,025 142 438 -64
2022-06-27 07:37:31 GMT 50.186756 0.439973 35,025 142 437 -64
2022-06-27 07:37:29 GMT 50.193100 0.432370 35,025 142 438 -64
2022-06-27 07:37:27 GMT 50.193100 0.432370 35,025 142 438 -64
2022-06-27 07:37:25 GMT 50.195663 0.429262 35,025 142 438 -64
2022-06-27 07:37:23 GMT 50.198769 0.425572 35,025 142 438 -64
2022-06-27 07:37:21 GMT 50.201431 0.422323 35,025 142 438 -64
2022-06-27 07:37:18 GMT 50.207336 0.415240 35,025 142 438 -64
2022-06-27 07:37:16 GMT 50.210403 0.411626 35,050 142 438 -64
2022-06-27 07:37:13 GMT 50.215668 0.405232 35,050 142 438 -64
2022-06-27 07:37:11 GMT 50.218781 0.401579 35,050 142 438 -64
2022-06-27 07:37:08 GMT 50.223579 0.395879 35,050 142 438 0
2022-06-27 07:37:06 GMT 50.227489 0.391202 35,050 142 438 64
2022-06-27 07:37:04 GMT 50.231506 0.386401 35,025 142 438 64
2022-06-27 07:37:01 GMT 50.233913 0.383482 35,025 142 438 64
2022-06-27 07:36:59 GMT 50.237961 0.378739 35,025 142 438 64
2022-06-27 07:36:57 GMT 50.241119 0.374981 35,025 139 441 0
2022-06-27 07:36:54 GMT 50.245506 0.369749 35,025 142 439 0
2022-06-27 07:36:51 GMT 50.249542 0.364934 35,025 142 439 0
2022-06-27 07:36:49 GMT 50.253002 0.360767 35,025 140 441 0
2022-06-27 07:36:47 GMT 50.257095 0.355682 35,025 141 440 0
2022-06-27 07:36:45 GMT 50.261192 0.350449 35,025 138 442 -64
2022-06-27 07:36:42 GMT 50.264454 0.346069 35,025 137 442 -64
2022-06-27 07:36:40 GMT 50.268311 0.340576 35,025 135 444 -64
2022-06-27 07:36:37 GMT 50.275864 0.329228 35,025 134 444 -64
2022-06-27 07:36:34 GMT 50.275864 0.329228 35,025 133 444 -64
2022-06-27 07:36:31 GMT 50.280579 0.321495 35,050 132 445 -64
2022-06-27 07:36:29 GMT 50.284470 0.314818 35,050 131 446 -64
2022-06-27 07:36:27 GMT 50.285774 0.312442 35,050 130 447 0
2022-06-27 07:36:25 GMT 50.289963 0.304871 35,025 130 446 0
2022-06-27 07:36:22 GMT 50.293175 0.299006 35,050 130 447 0
2022-06-27 07:36:19 GMT 50.297085 0.291806 35,050 130 447 0
2022-06-27 07:36:17 GMT 50.303284 0.280513 35,050 130 448 0
2022-06-27 07:36:15 GMT 50.303284 0.280513 35,050 130 448 0
2022-06-27 07:36:13 GMT 50.309284 0.269536 35,025 130 448 64
2022-06-27 07:36:10 GMT 50.309284 0.269536 35,050 130 448 64
2022-06-27 07:36:07 GMT 50.313938 0.261000 35,050 130 448 64
2022-06-27 07:36:04 GMT 50.319988 0.249939 35,025 130 448 64
2022-06-27 07:36:02 GMT 50.321758 0.246673 35,025 130 448 64
2022-06-27 07:36:00 GMT 50.321758 0.246673 35,025 130 448 64
2022-06-27 07:35:58 GMT 50.325390 0.240066 35,025 130 448 64
2022-06-27 07:35:56 GMT 50.328278 0.234796 35,025 130 448 64
2022-06-27 07:35:54 GMT 50.329952 0.231752 35,025 130 448 0
2022-06-27 07:35:52 GMT 50.333351 0.225517 35,025 130 449 0
2022-06-27 07:35:49 GMT 50.337753 0.217414 35,050 130 448 0
2022-06-27 07:35:47 GMT 50.340500 0.212426 35,025 130 448 0
2022-06-27 07:35:44 GMT 50.345123 0.203898 35,025 130 449 0
2022-06-27 07:35:41 GMT 50.348602 0.197465 35,025 130 449 0
2022-06-27 07:35:39 GMT 50.351212 0.192694 35,025 130 449 0
2022-06-27 07:35:36 GMT 50.359138 0.178008 35,025 130 449 0
2022-06-27 07:35:33 GMT 50.359138 0.178008 35,025 130 449 0
2022-06-27 07:35:30 GMT 50.362865 0.171105 35,025 130 449 0
2022-06-27 07:35:28 GMT 50.366135 0.165084 35,025 130 449 0
2022-06-27 07:35:26 GMT 50.368729 0.160341 35,025 130 449 0
2022-06-27 07:35:24 GMT 50.373711 0.151062 35,025 130 449 0
2022-06-27 07:35:22 GMT 50.373711 0.151062 35,025 130 449 0
2022-06-27 07:35:19 GMT 50.379112 0.141115 35,025 130 449 0
2022-06-27 07:35:17 GMT 50.379112 0.141115 35,025 130 449 0
2022-06-27 07:35:15 GMT 50.383301 0.133426 35,025 130 449 0
2022-06-27 07:35:13 GMT 50.385906 0.128570 35,050 130 449 -64
2022-06-27 07:35:10 GMT 50.390533 0.120127 35,050 130 449 64
2022-06-27 07:35:07 GMT 50.394012 0.113694 35,050 130 449 0
2022-06-27 07:35:04 GMT 50.397125 0.107984 35,050 130 449 0
2022-06-27 07:35:02 GMT 50.400558 0.101551 35,050 130 449 0
2022-06-27 07:35:00 GMT 50.402714 0.097615 35,050 130 449 0
2022-06-27 07:34:58 GMT 50.406204 0.091231 35,050 130 449 0
2022-06-27 07:34:56 GMT 50.408859 0.086258 35,050 130 449 0
2022-06-27 07:34:54 GMT 50.411728 0.080952 35,050 130 449 64
2022-06-27 07:34:52 GMT 50.414398 0.076014 35,050 130 449 64
2022-06-27 07:34:49 GMT 50.417377 0.070520 35,050 130 449 64
2022-06-27 07:34:47 GMT 50.420311 0.065027 35,025 130 449 64
2022-06-27 07:34:44 GMT 50.424591 0.057100 35,025 130 449 0
2022-06-27 07:34:42 GMT 50.427979 0.050812 35,025 130 449 64
2022-06-27 07:34:39 GMT 50.431854 0.043648 35,025 130 449 64
2022-06-27 07:34:35 GMT 50.437069 0.033924 35,025 130 449 0
2022-06-27 07:34:32 GMT 50.440521 0.027610 35,025 130 450 0
2022-06-27 07:34:30 GMT 50.443863 0.021394 35,025 130 449 0
2022-06-27 07:34:28 GMT 50.445309 0.018706 35,025 130 449 64
2022-06-27 07:34:26 GMT 50.449448 0.011059 35,025 130 449 0
2022-06-27 07:34:24 GMT 50.450729 0.008746 35,025 130 449 0
2022-06-27 07:34:22 GMT 50.453503 0.003563 35,025 130 449 0
2022-06-27 07:34:20 GMT 50.457047 -0.002963 35,025 130 449 0
2022-06-27 07:34:17 GMT 50.461716 -0.011565 35,025 130 449 0
2022-06-27 07:34:14 GMT 50.465466 -0.018484 35,025 130 449 0
2022-06-27 07:34:12 GMT 50.471798 -0.030212 35,025 130 449 64
2022-06-27 07:34:09 GMT 50.471798 -0.030212 35,025 130 449 64
2022-06-27 07:34:07 GMT 50.474449 -0.035112 35,025 130 449 0
2022-06-27 07:34:04 GMT 50.479065 -0.043656 35,025 130 449 64
2022-06-27 07:34:02 GMT 50.481216 -0.047632 35,025 130 449 0
2022-06-27 07:34:00 GMT 50.486938 -0.058329 35,025 130 449 64
2022-06-27 07:33:58 GMT 50.489548 -0.063027 35,025 130 449 64
2022-06-27 07:33:56 GMT 50.489548 -0.063027 35,025 130 449 64
2022-06-27 07:33:54 GMT 50.493771 -0.070817 35,025 130 448 64
2022-06-27 07:33:52 GMT 50.493771 -0.070817 35,025 130 448 64
2022-06-27 07:33:50 GMT 50.497879 -0.078494 35,025 129 449 0
2022-06-27 07:33:47 GMT 50.501495 -0.085293 35,025 129 450 64
2022-06-27 07:33:45 GMT 50.503555 -0.089192 35,025 129 449 64
2022-06-27 07:33:42 GMT 50.508545 -0.098805 35,000 129 449 64
2022-06-27 07:33:39 GMT 50.513351 -0.108056 35,000 129 449 0
2022-06-27 07:33:36 GMT 50.516624 -0.114391 35,000 129 449 0
2022-06-27 07:33:33 GMT 50.518581 -0.118177 35,000 129 449 0
2022-06-27 07:33:31 GMT 50.526123 -0.132727 35,000 129 449 0
2022-06-27 07:33:29 GMT 50.526123 -0.132727 35,000 129 449 0
2022-06-27 07:33:25 GMT 50.530197 -0.140509 35,000 129 449 0
2022-06-27 07:33:22 GMT 50.534225 -0.148315 35,000 129 449 64
2022-06-27 07:33:19 GMT 50.539169 -0.157856 35,000 129 449 64
2022-06-27 07:33:16 GMT 50.542557 -0.164424 35,000 129 449 64
2022-06-27 07:33:13 GMT 50.546036 -0.171155 35,000 129 449 64
2022-06-27 07:33:11 GMT 50.548141 -0.175262 35,000 129 448 64
2022-06-27 07:33:08 GMT 50.551392 -0.181419 35,000 129 448 64
2022-06-27 07:33:05 GMT 50.556847 -0.192038 35,000 129 449 64
2022-06-27 07:33:02 GMT 50.560593 -0.199199 35,000 129 448 128
2022-06-27 07:32:59 GMT 50.564621 -0.207033 35,000 129 448 128
2022-06-27 07:32:56 GMT 50.567413 -0.212426 35,000 129 449 64
2022-06-27 07:32:54 GMT 50.570847 -0.219076 34,975 129 449 128
2022-06-27 07:32:52 GMT 50.573639 -0.224425 34,975 129 449 64
2022-06-27 07:32:49 GMT 50.577072 -0.231147 34,975 129 449 64
2022-06-27 07:32:46 GMT 50.580368 -0.237507 34,975 129 449 64
2022-06-27 07:32:44 GMT 50.583481 -0.243506 34,975 129 449 -64
2022-06-27 07:32:41 GMT 50.587620 -0.251572 34,975 129 449 -64
2022-06-27 07:32:38 GMT 50.593018 -0.261965 34,975 129 449 -64
2022-06-27 07:32:35 GMT 50.595612 -0.267069 34,975 129 448 -64
2022-06-27 07:32:32 GMT 50.600052 -0.275598 34,975 129 448 -64
2022-06-27 07:32:30 GMT 50.601768 -0.278964 34,975 129 448 -64
2022-06-27 07:32:28 GMT 50.604935 -0.285051 34,975 129 447 -64
2022-06-27 07:32:25 GMT 50.607880 -0.290776 34,975 129 447 -64
2022-06-27 07:32:23 GMT 50.611313 -0.297426 35,000 129 447 -128
2022-06-27 07:32:20 GMT 50.615223 -0.304945 35,000 129 447 -64
2022-06-27 07:32:17 GMT 50.618683 -0.311665 35,000 129 447 -64
2022-06-27 07:32:14 GMT 50.622578 -0.319197 35,000 129 447 -64
2022-06-27 07:32:11 GMT 50.627609 -0.328867 35,000 129 447 0
2022-06-27 07:32:08 GMT 50.631546 -0.336529 35,000 129 447 0
2022-06-27 07:32:05 GMT 50.635567 -0.344362 35,000 129 447 0
2022-06-27 07:32:02 GMT 50.639618 -0.352231 35,000 129 447 0
2022-06-27 07:31:59 GMT 50.642624 -0.357995 35,000 129 446 0
2022-06-27 07:31:56 GMT 50.646194 -0.364934 35,000 129 446 0
2022-06-27 07:31:54 GMT 50.651394 -0.375020 35,000 129 446 0
2022-06-27 07:31:52 GMT 50.651394 -0.375020 35,000 129 446 0
2022-06-27 07:31:50 GMT 50.655167 -0.382353 35,000 129 446 -64
2022-06-27 07:31:47 GMT 50.658424 -0.388678 35,000 129 447 0
2022-06-27 07:31:44 GMT 50.661682 -0.394988 35,000 129 447 0
2022-06-27 07:31:41 GMT 50.665592 -0.402560 35,000 129 446 -64
2022-06-27 07:31:39 GMT 50.668713 -0.408647 35,000 128 447 -64
2022-06-27 07:31:36 GMT 50.672157 -0.415344 35,025 128 447 -64
2022-06-27 07:31:33 GMT 50.676041 -0.422899 35,000 128 447 -64
2022-06-27 07:31:31 GMT 50.679886 -0.430374 35,025 128 447 -64
2022-06-27 07:31:28 GMT 50.682358 -0.435148 35,025 128 447 -64
2022-06-27 07:31:25 GMT 50.686077 -0.442429 35,025 128 447 -64
2022-06-27 07:31:23 GMT 50.688812 -0.447841 35,025 128 447 -64
2022-06-27 07:31:21 GMT 50.695759 -0.461349 35,025 128 448 -64
2022-06-27 07:31:18 GMT 50.695759 -0.461349 35,025 128 448 -64
2022-06-27 07:31:15 GMT 50.699112 -0.467958 35,025 128 448 -64
2022-06-27 07:31:12 GMT 50.703827 -0.477163 35,025 128 447 -64
2022-06-27 07:31:09 GMT 50.710609 -0.490494 35,025 128 448 -64
2022-06-27 07:31:06 GMT 50.710609 -0.490494 35,050 128 449 -64
2022-06-27 07:31:03 GMT 50.715134 -0.499358 35,050 128 448 -64
2022-06-27 07:31:01 GMT 50.718933 -0.506782 35,050 128 449 0
2022-06-27 07:30:58 GMT 50.721497 -0.511829 35,050 128 448 -64
2022-06-27 07:30:55 GMT 50.725571 -0.519921 35,050 128 448 -64
2022-06-27 07:30:53 GMT 50.727859 -0.524449 35,050 128 448 -64
2022-06-27 07:30:51 GMT 50.731510 -0.531540 35,050 128 449 0
2022-06-27 07:30:48 GMT 50.734165 -0.536880 35,050 128 449 0
2022-06-27 07:30:45 GMT 50.737610 -0.543671 35,050 128 450 0
2022-06-27 07:30:42 GMT 50.742031 -0.552368 35,050 128 449 0
2022-06-27 07:30:39 GMT 50.746502 -0.561142 35,050 128 449 64
2022-06-27 07:30:37 GMT 50.753159 -0.574265 38,000 128 449 0
2022-06-27 07:30:34 GMT 50.753159 -0.574265 35,050 128 450 0
2022-06-27 07:30:31 GMT 50.757580 -0.582962 35,050 128 450 0
2022-06-27 07:30:28 GMT 50.760326 -0.588379 35,050 128 450 0
2022-06-27 07:30:25 GMT 50.764297 -0.596083 35,050 128 450 0
2022-06-27 07:30:22 GMT 50.768417 -0.604248 35,050 128 450 0
2022-06-27 07:30:20 GMT 50.774155 -0.615463 35,050 128 451 0
2022-06-27 07:30:18 GMT 50.774155 -0.615463 35,050 128 451 0
2022-06-27 07:30:15 GMT 50.776566 -0.620208 35,050 128 451 0
2022-06-27 07:30:13 GMT 50.780365 -0.627705 35,050 128 451 0
2022-06-27 07:30:10 GMT 50.783066 -0.632976 35,050 128 451 0
2022-06-27 07:30:08 GMT 50.786396 -0.639572 35,050 128 451 0
2022-06-27 07:30:05 GMT 50.790665 -0.648045 35,050 128 451 0
2022-06-27 07:30:02 GMT 50.794464 -0.655542 35,025 128 451 64
2022-06-27 07:29:59 GMT 50.797894 -0.662231 35,050 128 451 64
2022-06-27 07:29:57 GMT 50.800323 -0.667048 35,025 128 451 64
2022-06-27 07:29:55 GMT 50.807693 -0.681672 35,025 128 451 64
2022-06-27 07:29:52 GMT 50.807693 -0.681672 35,025 128 452 0
2022-06-27 07:29:50 GMT 50.810165 -0.686497 35,025 128 452 0
2022-06-27 07:29:48 GMT 50.812092 -0.690308 35,025 128 452 0
2022-06-27 07:29:46 GMT 50.815308 -0.696564 35,025 128 452 0
2022-06-27 07:29:43 GMT 50.819183 -0.704313 35,025 128 453 -64
2022-06-27 07:29:40 GMT 50.822617 -0.711068 35,025 128 453 -64
2022-06-27 07:29:38 GMT 50.829224 -0.724106 35,025 128 453 -64
2022-06-27 07:29:36 GMT 50.829224 -0.724106 35,050 128 452 -64
2022-06-27 07:29:33 GMT 50.836163 -0.737762 35,050 128 452 -64
2022-06-27 07:29:30 GMT 50.836163 -0.737762 35,050 128 452 -64
2022-06-27 07:29:28 GMT 50.838959 -0.743284 35,050 128 452 0
2022-06-27 07:29:25 GMT 50.842941 -0.751153 35,050 128 452 0
2022-06-27 07:29:22 GMT 50.846786 -0.758650 35,050 128 452 64
2022-06-27 07:29:20 GMT 50.849289 -0.763626 35,025 128 452 64
2022-06-27 07:29:18 GMT 50.852081 -0.769119 35,025 128 452 64
2022-06-27 07:29:15 GMT 50.856400 -0.777580 35,025 128 452 64
2022-06-27 07:29:12 GMT 50.859146 -0.782999 35,025 128 452 64
2022-06-27 07:29:09 GMT 50.862415 -0.789490 35,025 128 452 64
2022-06-27 07:29:07 GMT 50.866699 -0.797958 35,025 128 453 64
2022-06-27 07:29:04 GMT 50.871277 -0.806975 35,025 128 453 64
2022-06-27 07:29:01 GMT 50.873356 -0.811005 35,025 128 453 64
2022-06-27 07:29:00 GMT 50.874847 -0.814028 35,025 128 453 64
2022-06-27 07:28:58 GMT 50.878895 -0.821915 35,025 128 453 0
2022-06-27 07:28:56 GMT 50.880249 -0.824643 35,000 128 453 0
2022-06-27 07:28:54 GMT 50.882950 -0.830062 35,025 128 453 0
2022-06-27 07:28:51 GMT 50.887043 -0.838089 35,025 128 453 64
2022-06-27 07:28:49 GMT 50.889091 -0.842133 35,000 128 453 64
2022-06-27 07:28:47 GMT 50.891560 -0.847015 35,000 128 453 64
2022-06-27 07:28:45 GMT 50.894863 -0.853577 35,000 128 453 64
2022-06-27 07:28:42 GMT 50.903664 -0.870972 35,000 128 453 64
2022-06-27 07:28:39 GMT 50.903664 -0.870972 35,000 128 452 64
2022-06-27 07:28:36 GMT 50.906082 -0.875854 35,000 128 452 64
2022-06-27 07:28:33 GMT 50.909855 -0.883331 35,000 128 453 0
2022-06-27 07:28:31 GMT 50.913204 -0.889893 35,000 128 453 0
2022-06-27 07:28:28 GMT 50.917236 -0.897984 35,000 128 453 0
2022-06-27 07:28:25 GMT 50.920349 -0.904219 35,000 128 453 0
2022-06-27 07:28:24 GMT 50.921539 -0.906525 35,000 128 453 0
2022-06-27 07:28:23 GMT 50.922607 -0.908737 35,000 128 453 0
2022-06-27 07:28:22 GMT 50.923820 -0.911102 35,000 128 453 0
2022-06-27 07:28:19 GMT 50.932571 -0.928493 35,000 128 452 0
2022-06-27 07:28:16 GMT 50.935043 -0.933467 35,000 128 453 0
2022-06-27 07:28:14 GMT 50.935043 -0.933467 35,000 128 452 0
2022-06-27 07:28:12 GMT 50.937691 -0.938721 35,000 128 452 -64
2022-06-27 07:28:10 GMT 50.940533 -0.944366 35,000 128 451 -64
2022-06-27 07:28:07 GMT 50.944382 -0.952099 35,000 128 451 -64
2022-06-27 07:28:05 GMT 50.947559 -0.958405 35,000 128 451 -64
2022-06-27 07:28:02 GMT 50.950306 -0.963898 35,000 128 451 -64
2022-06-27 07:28:00 GMT 50.958591 -0.980453 35,000 128 451 -64
2022-06-27 07:27:57 GMT 50.958591 -0.980453 35,000 128 451 -64
2022-06-27 07:27:54 GMT 50.961155 -0.985565 35,000 128 451 0
2022-06-27 07:27:51 GMT 50.965805 -0.994782 35,000 128 451 0
2022-06-27 07:27:48 GMT 50.968277 -0.999756 35,000 128 451 -64
2022-06-27 07:27:46 GMT 50.971767 -1.006699 35,000 128 451 -64
2022-06-27 07:27:44 GMT 50.973907 -1.010971 35,025 128 451 -64
2022-06-27 07:27:42 GMT 50.976334 -1.015790 35,025 128 451 -64
2022-06-27 07:27:40 GMT 50.979538 -1.022174 35,025 128 451 0
2022-06-27 07:27:37 GMT 50.983246 -1.029597 35,025 128 451 0
2022-06-27 07:27:35 GMT 50.987000 -1.037095 35,025 128 451 0
2022-06-27 07:27:32 GMT 50.989643 -1.042404 35,025 128 451 0
2022-06-27 07:27:30 GMT 50.992950 -1.048965 35,025 128 451 0
2022-06-27 07:27:27 GMT 50.995510 -1.054077 35,025 128 451 0
2022-06-27 07:27:25 GMT 51.003113 -1.069237 35,025 128 451 0
2022-06-27 07:27:22 GMT 51.003113 -1.069237 35,025 128 451 0
2022-06-27 07:27:20 GMT 51.004944 -1.073023 35,025 128 451 0
2022-06-27 07:27:19 GMT 51.006310 -1.075668 35,025 128 451 64
2022-06-27 07:27:17 GMT 51.010391 -1.083861 35,025 128 451 0
2022-06-27 07:27:14 GMT 51.013046 -1.089131 35,025 128 451 0
2022-06-27 07:27:12 GMT 51.016178 -1.095352 35,000 128 451 0
2022-06-27 07:27:10 GMT 51.019485 -1.101913 35,025 128 451 0
2022-06-27 07:27:07 GMT 51.022202 -1.107392 35,025 128 451 0
2022-06-27 07:27:04 GMT 51.026276 -1.115483 35,025 128 451 0
2022-06-27 07:27:01 GMT 51.030304 -1.123575 35,025 128 451 0
2022-06-27 07:26:58 GMT 51.033497 -1.129990 35,025 128 451 0
2022-06-27 07:26:55 GMT 51.037361 -1.137695 35,025 128 451 0
2022-06-27 07:26:53 GMT 51.039127 -1.141205 35,025 128 451 0
2022-06-27 07:26:51 GMT 51.041840 -1.146587 35,025 128 451 -64
2022-06-27 07:26:50 GMT 51.043179 -1.149292 35,025 128 451 -64
2022-06-27 07:26:49 GMT 51.044575 -1.152039 35,025 128 451 -64
2022-06-27 07:26:48 GMT 51.045788 -1.154480 35,025 128 451 -64
2022-06-27 07:26:46 GMT 51.049278 -1.161575 35,025 128 451 -64
2022-06-27 07:26:45 GMT 51.050583 -1.164180 35,025 128 452 -64
2022-06-27 07:26:43 GMT 51.056957 -1.176910 35,025 128 452 -64
2022-06-27 07:26:40 GMT 51.060699 -1.184371 35,050 128 452 0
2022-06-27 07:26:37 GMT 51.060699 -1.184371 35,025 128 452 -64
2022-06-27 07:26:34 GMT 51.064911 -1.192907 35,025 128 452 -64
2022-06-27 07:26:31 GMT 51.068710 -1.200479 35,025 128 452 0
2022-06-27 07:26:28 GMT 51.072273 -1.207657 35,025 128 452 0
2022-06-27 07:26:26 GMT 51.074833 -1.212845 35,050 128 452 0
2022-06-27 07:26:24 GMT 51.077209 -1.217575 35,050 128 452 0
2022-06-27 07:26:23 GMT 51.078560 -1.220322 35,050 128 452 -64
2022-06-27 07:26:21 GMT 51.081665 -1.226609 35,050 128 452 0
2022-06-27 07:26:19 GMT 51.084961 -1.233290 35,050 128 452 -64
2022-06-27 07:26:16 GMT 51.088844 -1.241074 35,050 128 452 -64
2022-06-27 07:26:13 GMT 51.091312 -1.246033 35,050 128 452 -64
2022-06-27 07:26:11 GMT 51.099152 -1.261795 35,050 128 453 -64
2022-06-27 07:26:08 GMT 51.099152 -1.261795 35,050 128 452 0
2022-06-27 07:26:05 GMT 51.101929 -1.267319 35,050 128 452 0
2022-06-27 07:26:04 GMT 51.103134 -1.269812 35,050 128 452 0
2022-06-27 07:26:02 GMT 51.105560 -1.274643 35,050 128 453 0
2022-06-27 07:26:01 GMT 51.106842 -1.277309 35,050 128 452 0
2022-06-27 07:26:00 GMT 51.108261 -1.280130 35,050 128 453 0
2022-06-27 07:25:59 GMT 51.110821 -1.285248 35,050 128 453 -64
2022-06-27 07:25:57 GMT 51.112167 -1.287918 35,050 128 453 -64
2022-06-27 07:25:56 GMT 51.114624 -1.292972 35,050 128 453 -64
2022-06-27 07:25:54 GMT 51.115952 -1.295644 35,050 128 453 -64
2022-06-27 07:25:53 GMT 51.117188 -1.298094 35,050 128 453 -64
2022-06-27 07:25:52 GMT 51.119804 -1.303329 35,050 128 453 -64
2022-06-27 07:25:50 GMT 51.121033 -1.305888 35,050 128 453 -64
2022-06-27 07:25:49 GMT 51.122410 -1.308594 35,050 128 453 -64
2022-06-27 07:25:47 GMT 51.125156 -1.314163 35,050 128 454 -64
2022-06-27 07:25:46 GMT 51.126526 -1.316875 35,050 128 454 -64
2022-06-27 07:25:45 GMT 51.130875 -1.325634 35,050 128 454 -64
2022-06-27 07:25:43 GMT 51.130875 -1.325634 35,050 128 454 0
2022-06-27 07:25:41 GMT 51.133907 -1.331787 35,050 128 454 0
2022-06-27 07:25:40 GMT 51.135166 -1.334305 35,050 128 454 0
2022-06-27 07:25:39 GMT 51.135864 -1.335730 35,050 128 454 0
2022-06-27 07:25:37 GMT 51.139252 -1.342559 35,050 128 453 0
2022-06-27 07:25:35 GMT 51.140518 -1.345139 35,050 128 453 0
2022-06-27 07:25:33 GMT 51.144524 -1.353149 35,050 128 453 0
2022-06-27 07:25:30 GMT 51.146805 -1.357777 35,050 128 453 0
2022-06-27 07:25:28 GMT 51.150787 -1.365794 35,050 128 453 64
2022-06-27 07:25:27 GMT 51.152020 -1.368256 35,050 128 453 64
2022-06-27 07:25:26 GMT 51.154312 -1.372920 35,050 128 454 64
2022-06-27 07:25:24 GMT 51.155697 -1.375732 35,050 128 454 64
2022-06-27 07:25:23 GMT 51.158386 -1.381085 35,050 128 454 64
2022-06-27 07:25:21 GMT 51.159760 -1.383832 35,050 128 453 64
2022-06-27 07:25:19 GMT 51.162121 -1.388626 35,050 128 454 64
2022-06-27 07:25:18 GMT 51.163376 -1.391144 35,050 128 454 64
2022-06-27 07:25:17 GMT 51.164703 -1.393779 35,050 128 454 64
2022-06-27 07:25:15 GMT 51.167519 -1.399460 35,050 128 454 64
2022-06-27 07:25:13 GMT 51.168732 -1.401945 35,050 128 455 128
2022-06-27 07:25:12 GMT 51.171478 -1.407438 35,025 128 454 64
2022-06-27 07:25:10 GMT 51.172779 -1.410141 35,050 128 454 64
2022-06-27 07:25:09 GMT 51.173992 -1.412506 35,050 128 454 64
2022-06-27 07:25:08 GMT 51.175323 -1.415232 35,025 128 454 64
2022-06-27 07:25:06 GMT 51.178226 -1.421051 35,025 128 454 128
2022-06-27 07:25:04 GMT 51.181297 -1.427307 35,025 128 454 128
2022-06-27 07:25:01 GMT 51.185349 -1.435547 35,025 128 454 128
2022-06-27 07:24:59 GMT 51.187260 -1.439285 35,025 128 454 128
2022-06-27 07:24:58 GMT 51.188469 -1.441727 35,025 128 454 128
2022-06-27 07:24:57 GMT 51.189606 -1.444034 35,025 128 455 64
2022-06-27 07:24:56 GMT 51.192352 -1.449676 35,000 128 455 128
2022-06-27 07:24:53 GMT 51.196152 -1.457247 35,000 128 455 64
2022-06-27 07:24:50 GMT 51.199177 -1.463394 35,000 128 455 64
2022-06-27 07:24:48 GMT 51.203178 -1.471481 35,000 128 455 0
2022-06-27 07:24:45 GMT 51.207275 -1.479814 35,000 128 455 0
2022-06-27 07:24:42 GMT 51.209839 -1.485010 35,000 128 455 0
2022-06-27 07:24:40 GMT 51.217331 -1.500168 35,000 128 455 0
2022-06-27 07:24:37 GMT 51.217331 -1.500168 35,000 128 455 0
2022-06-27 07:24:34 GMT 51.221237 -1.508022 35,000 128 455 0
2022-06-27 07:24:31 GMT 51.224442 -1.514554 35,000 128 455 64
2022-06-27 07:24:29 GMT 51.227554 -1.520864 35,000 128 455 64
2022-06-27 07:24:26 GMT 51.231251 -1.528320 35,000 128 455 64
2022-06-27 07:24:23 GMT 51.235535 -1.537094 35,000 128 454 0
2022-06-27 07:24:20 GMT 51.238770 -1.543653 35,000 128 454 0
2022-06-27 07:24:18 GMT 51.240784 -1.547736 35,000 128 454 0
2022-06-27 07:24:16 GMT 51.243759 -1.553823 35,000 128 454 64
2022-06-27 07:24:12 GMT 51.251686 -1.569977 35,000 128 454 0
2022-06-27 07:24:10 GMT 51.251686 -1.569977 35,000 128 454 0
2022-06-27 07:24:08 GMT 51.254150 -1.575053 35,000 127 453 0
2022-06-27 07:24:05 GMT 51.259048 -1.585075 35,000 127 453 0
2022-06-27 07:24:02 GMT 51.262985 -1.593092 35,000 127 453 0
2022-06-27 07:23:59 GMT 51.266235 -1.599698 35,000 127 453 -64
2022-06-27 07:23:56 GMT 51.270218 -1.607938 35,000 127 453 0
2022-06-27 07:23:53 GMT 51.274776 -1.617203 35,000 127 453 0
2022-06-27 07:23:50 GMT 51.277382 -1.622467 35,000 127 453 0
2022-06-27 07:23:47 GMT 51.282486 -1.633029 35,000 127 453 0
2022-06-27 07:23:44 GMT 51.285763 -1.639633 35,000 127 453 0
2022-06-27 07:23:42 GMT 51.290695 -1.649780 35,000 127 453 -64
2022-06-27 07:23:40 GMT 51.290695 -1.649780 35,000 127 453 0
2022-06-27 07:23:37 GMT 51.294003 -1.656494 35,000 127 453 0
2022-06-27 07:23:34 GMT 51.297680 -1.663971 35,000 127 453 0
2022-06-27 07:23:32 GMT 51.300751 -1.670293 35,000 127 453 0
2022-06-27 07:23:30 GMT 51.302856 -1.674598 35,000 127 453 0
2022-06-27 07:23:27 GMT 51.306339 -1.681747 35,000 127 453 0
2022-06-27 07:23:25 GMT 51.309402 -1.687960 35,000 127 453 0
2022-06-27 07:23:23 GMT 51.313183 -1.695709 35,000 127 453 0
2022-06-27 07:23:20 GMT 51.316818 -1.703252 35,000 127 453 0
2022-06-27 07:23:16 GMT 51.320572 -1.710898 35,000 127 453 0
2022-06-27 07:23:13 GMT 51.324692 -1.719360 35,000 127 453 0
2022-06-27 07:23:11 GMT 51.328217 -1.726532 35,000 127 453 0
2022-06-27 07:23:08 GMT 51.331661 -1.733627 35,000 127 453 64
2022-06-27 07:23:05 GMT 51.335449 -1.741407 35,000 127 453 0
2022-06-27 07:23:02 GMT 51.338654 -1.748014 35,000 127 453 0
2022-06-27 07:23:00 GMT 51.341721 -1.754249 35,000 127 453 0
2022-06-27 07:22:58 GMT 51.345108 -1.761227 35,000 127 453 0
2022-06-27 07:22:55 GMT 51.348724 -1.768650 34,975 127 453 64
2022-06-27 07:22:52 GMT 51.351929 -1.775183 34,975 127 453 0
2022-06-27 07:22:49 GMT 51.355591 -1.782761 34,975 127 454 64
2022-06-27 07:22:46 GMT 51.359779 -1.791306 34,975 127 454 64
2022-06-27 07:22:43 GMT 51.363735 -1.799469 34,975 127 454 64
2022-06-27 07:22:40 GMT 51.367832 -1.807861 34,975 127 454 0
2022-06-27 07:22:38 GMT 51.370468 -1.813338 34,975 127 454 0
2022-06-27 07:22:35 GMT 51.377975 -1.828704 34,975 127 454 0
2022-06-27 07:22:32 GMT 51.377975 -1.828704 34,975 127 455 0
2022-06-27 07:22:30 GMT 51.379986 -1.832886 34,975 127 455 0
2022-06-27 07:22:28 GMT 51.382450 -1.837997 34,975 127 455 -64
2022-06-27 07:22:26 GMT 51.385666 -1.844635 34,975 127 455 -64
2022-06-27 07:22:24 GMT 51.388363 -1.850128 34,975 127 455 -64
2022-06-27 07:22:22 GMT 51.391388 -1.856393 34,975 127 455 -64
2022-06-27 07:22:19 GMT 51.395718 -1.865311 34,975 127 455 -64
2022-06-27 07:22:16 GMT 51.398746 -1.871643 35,000 127 455 -64
2022-06-27 07:22:13 GMT 51.402649 -1.879701 34,975 127 455 -64
2022-06-27 07:22:11 GMT 51.405212 -1.884898 35,000 127 455 0
2022-06-27 07:22:08 GMT 51.408520 -1.891785 35,000 127 455 0
2022-06-27 07:22:05 GMT 51.411686 -1.898270 35,000 127 455 64
2022-06-27 07:22:03 GMT 51.415459 -1.906128 34,975 127 455 0
2022-06-27 07:22:01 GMT 51.417503 -1.910324 35,025 127 455 0
2022-06-27 07:21:58 GMT 51.420765 -1.917038 34,975 127 455 0
2022-06-27 07:21:56 GMT 51.423931 -1.923599 34,975 127 456 0
2022-06-27 07:21:54 GMT 51.427189 -1.930313 34,975 127 455 -64
2022-06-27 07:21:52 GMT 51.432449 -1.941165 35,000 127 456 0
2022-06-27 07:21:50 GMT 51.436203 -1.948960 34,975 127 456 0
2022-06-27 07:21:47 GMT 51.436203 -1.948960 35,000 127 456 -128
2022-06-27 07:21:44 GMT 51.439526 -1.955795 35,000 127 456 0
2022-06-27 07:21:42 GMT 51.446552 -1.970367 35,000 127 456 -64
2022-06-27 07:21:39 GMT 51.446552 -1.970367 35,000 127 456 -128
2022-06-27 07:21:36 GMT 51.449394 -1.976166 35,000 127 456 -128
2022-06-27 07:21:34 GMT 51.452095 -1.981735 35,025 127 457 -128
2022-06-27 07:21:32 GMT 51.454697 -1.987041 35,025 127 457 -128
2022-06-27 07:21:29 GMT 51.459820 -1.997604 35,025 127 456 -128
2022-06-27 07:21:26 GMT 51.463028 -2.004188 35,025 128 457 -128
2022-06-27 07:21:23 GMT 51.465912 -2.010127 35,025 128 457 -128
2022-06-27 07:21:21 GMT 51.469971 -2.018356 35,050 128 457 -64
2022-06-27 07:21:18 GMT 51.472809 -2.024155 35,050 128 457 -64
2022-06-27 07:21:15 GMT 51.481838 -2.042542 35,050 128 457 0
2022-06-27 07:21:12 GMT 51.481838 -2.042542 35,050 128 457 0
2022-06-27 07:21:09 GMT 51.485229 -2.049396 35,025 128 457 0
2022-06-27 07:21:06 GMT 51.490219 -2.059555 35,025 127 458 64
2022-06-27 07:21:03 GMT 51.492920 -2.065207 35,025 127 458 64
2022-06-27 07:21:01 GMT 51.499763 -2.080460 35,050 124 458 0
2022-06-27 07:20:58 GMT 51.499763 -2.080460 35,050 112 461 0
2022-06-27 07:20:55 GMT 51.504047 -2.091141 35,050 120 459 0
2022-06-27 07:20:53 GMT 51.504047 -2.091141 35,050 120 459 0
2022-06-27 07:20:51 GMT 51.507477 -2.100690 35,050 118 460 0
2022-06-27 07:20:48 GMT 51.510006 -2.108231 35,025 115 460 0
2022-06-27 07:20:45 GMT 51.512466 -2.116353 35,050 114 460 0
2022-06-27 07:20:43 GMT 51.514286 -2.122803 35,050 114 461 0
2022-06-27 07:20:41 GMT 51.516083 -2.129566 35,025 110 461 0
2022-06-27 07:20:38 GMT 51.518692 -2.140330 35,050 109 462 0
2022-06-27 07:20:35 GMT 51.522034 -2.155844 35,025 108 462 0
2022-06-27 07:20:33 GMT 51.523270 -2.161931 35,025 108 463 0
2022-06-27 07:20:31 GMT 51.523270 -2.161931 35,025 108 463 0
2022-06-27 07:20:29 GMT 51.523956 -2.165272 35,025 108 463 0
2022-06-27 07:20:27 GMT 51.526066 -2.175446 35,025 108 463 0
2022-06-27 07:20:24 GMT 51.528030 -2.184943 35,025 108 464 0
2022-06-27 07:20:22 GMT 51.529369 -2.191391 35,050 108 464 -64
2022-06-27 07:20:19 GMT 51.531326 -2.200977 35,050 108 464 0
2022-06-27 07:20:16 GMT 51.532955 -2.208710 35,050 108 464 -64
2022-06-27 07:20:14 GMT 51.534302 -2.215230 35,050 108 464 -64
2022-06-27 07:20:12 GMT 51.538261 -2.234573 35,075 108 464 0
2022-06-27 07:20:09 GMT 51.540218 -2.243958 35,050 108 464 0
2022-06-27 07:20:06 GMT 51.541306 -2.249228 35,050 108 465 -64
2022-06-27 07:20:02 GMT 51.542454 -2.254868 35,050 108 465 -64
2022-06-27 07:20:00 GMT 51.544266 -2.263794 35,075 108 467 0
2022-06-27 07:19:57 GMT 51.546387 -2.274021 35,075 108 465 -64
2022-06-27 07:19:54 GMT 51.548218 -2.282707 35,075 108 465 -64
2022-06-27 07:19:52 GMT 51.549545 -2.289091 35,075 108 465 0
2022-06-27 07:19:50 GMT 51.551109 -2.296829 35,075 108 466 -64
2022-06-27 07:19:47 GMT 51.552429 -2.303120 35,075 108 466 0
2022-06-27 07:19:45 GMT 51.556274 -2.321827 35,075 108 466 0
2022-06-27 07:19:42 GMT 51.558014 -2.330289 35,075 108 466 -64
2022-06-27 07:19:40 GMT 51.558014 -2.330289 35,075 108 466 -64
2022-06-27 07:19:37 GMT 51.561356 -2.346546 35,050 108 467 0
2022-06-27 07:19:34 GMT 51.561356 -2.346546 35,075 108 467 0
2022-06-27 07:19:32 GMT 51.563168 -2.355270 35,075 108 467 0
2022-06-27 07:19:29 GMT 51.565613 -2.367257 35,075 108 468 -64
2022-06-27 07:19:26 GMT 51.567730 -2.377548 35,075 108 467 0
2022-06-27 07:19:23 GMT 51.569138 -2.384553 35,075 108 468 0
2022-06-27 07:19:21 GMT 51.572250 -2.399548 35,075 108 468 0
2022-06-27 07:19:18 GMT 51.572250 -2.399548 35,075 108 468 0
2022-06-27 07:19:15 GMT 51.574432 -2.410126 35,075 108 468 64
2022-06-27 07:19:12 GMT 51.576462 -2.420036 35,075 108 470 0
2022-06-27 07:19:10 GMT 51.578476 -2.430131 35,050 108 469 128
2022-06-27 07:19:07 GMT 51.580261 -2.438742 35,050 108 469 128
2022-06-27 07:19:04 GMT 51.581787 -2.446136 35,050 108 469 128
2022-06-27 07:19:02 GMT 51.583191 -2.453143 35,050 108 470 128
2022-06-27 07:19:00 GMT 51.585094 -2.462463 35,050 108 470 128
2022-06-27 07:18:57 GMT 51.588501 -2.479124 35,025 107 470 128
2022-06-27 07:18:54 GMT 51.588501 -2.479124 35,025 108 470 128
2022-06-27 07:18:52 GMT 51.590122 -2.487183 35,025 108 471 128
2022-06-27 07:18:50 GMT 51.591705 -2.495041 35,000 108 471 128
2022-06-27 07:18:47 GMT 51.593147 -2.502213 35,025 108 471 128
2022-06-27 07:18:44 GMT 51.596924 -2.520917 35,000 107 471 64
2022-06-27 07:18:42 GMT 51.596924 -2.520917 35,000 107 471 64
2022-06-27 07:18:40 GMT 51.598526 -2.528860 35,000 107 471 64
2022-06-27 07:18:37 GMT 51.599525 -2.533875 35,000 107 471 64
2022-06-27 07:18:35 GMT 51.601593 -2.544077 35,000 107 471 64
2022-06-27 07:18:32 GMT 51.603653 -2.554099 35,000 107 471 64
2022-06-27 07:18:29 GMT 51.605392 -2.562784 35,000 107 470 0
2022-06-27 07:18:27 GMT 51.606789 -2.569809 35,000 107 470 64
2022-06-27 07:18:24 GMT 51.611443 -2.592773 35,000 107 470 0
2022-06-27 07:18:21 GMT 51.611443 -2.592773 35,000 107 470 0
2022-06-27 07:18:18 GMT 51.612652 -2.598801 35,000 107 470 0
2022-06-27 07:18:15 GMT 51.615257 -2.611618 35,000 108 470 0
2022-06-27 07:18:12 GMT 51.616974 -2.620239 34,975 108 470 0
2022-06-27 07:18:10 GMT 51.620937 -2.639771 35,000 108 470 0
2022-06-27 07:18:07 GMT 51.620937 -2.639771 34,975 107 469 0
2022-06-27 07:18:04 GMT 51.622662 -2.648163 34,975 107 469 0
2022-06-27 07:18:01 GMT 51.624847 -2.659149 34,975 107 469 0
2022-06-27 07:17:58 GMT 51.626266 -2.666040 34,975 107 469 0
2022-06-27 07:17:55 GMT 51.628853 -2.678833 34,975 107 469 0
2022-06-27 07:17:52 GMT 51.630249 -2.685860 34,975 107 469 0
2022-06-27 07:17:50 GMT 51.631599 -2.692566 35,000 107 469 -64
2022-06-27 07:17:47 GMT 51.634003 -2.704418 35,000 107 469 -64
2022-06-27 07:17:44 GMT 51.635696 -2.712784 35,000 107 469 -64
2022-06-27 07:17:41 GMT 51.639359 -2.730993 35,000 107 469 -64
2022-06-27 07:17:39 GMT 51.639359 -2.730993 35,000 107 468 0
2022-06-27 07:17:36 GMT 51.641098 -2.739753 35,000 107 468 0
2022-06-27 07:17:33 GMT 51.642883 -2.748512 35,000 107 468 0
2022-06-27 07:17:31 GMT 51.644493 -2.756577 35,000 107 468 0
2022-06-27 07:17:28 GMT 51.646225 -2.765066 35,000 107 468 64
2022-06-27 07:17:25 GMT 51.648544 -2.776871 35,000 107 468 64
2022-06-27 07:17:22 GMT 51.650208 -2.784960 34,975 107 468 64
2022-06-27 07:17:20 GMT 51.652035 -2.794037 34,975 107 468 64
2022-06-27 07:17:17 GMT 51.653366 -2.800846 34,975 107 468 64
2022-06-27 07:17:14 GMT 51.655289 -2.810347 34,975 107 468 64
2022-06-27 07:17:11 GMT 51.657394 -2.820814 34,975 107 468 64
2022-06-27 07:17:09 GMT 51.659157 -2.829666 34,975 107 468 64
2022-06-27 07:17:06 GMT 51.661011 -2.838704 34,975 107 468 64
2022-06-27 07:17:03 GMT 51.662796 -2.847686 34,975 107 468 0
2022-06-27 07:17:00 GMT 51.665348 -2.860489 34,975 107 469 0
2022-06-27 07:16:57 GMT 51.666641 -2.866912 35,000 107 468 0
2022-06-27 07:16:54 GMT 51.669113 -2.879309 34,975 107 468 -64
2022-06-27 07:16:51 GMT 51.670990 -2.888662 34,975 107 468 -64
2022-06-27 07:16:49 GMT 51.671951 -2.893487 34,975 107 468 -64
2022-06-27 07:16:47 GMT 51.673355 -2.900543 34,975 107 468 -64
2022-06-27 07:16:44 GMT 51.675522 -2.911451 35,000 107 468 -64
2022-06-27 07:16:41 GMT 51.677219 -2.919998 35,000 107 468 -64
2022-06-27 07:16:39 GMT 51.678452 -2.926149 35,000 107 468 -64
2022-06-27 07:16:36 GMT 51.681129 -2.939682 35,000 107 468 -64
2022-06-27 07:16:33 GMT 51.685226 -2.960129 35,000 107 468 -64
2022-06-27 07:16:30 GMT 51.685226 -2.960129 35,000 107 468 -64
2022-06-27 07:16:27 GMT 51.687057 -2.969426 35,000 107 468 0
2022-06-27 07:16:24 GMT 51.688766 -2.978210 35,000 107 469 -64
2022-06-27 07:16:21 GMT 51.690536 -2.987168 35,000 107 468 -64
2022-06-27 07:16:19 GMT 51.691933 -2.994003 35,000 107 469 -64
2022-06-27 07:16:16 GMT 51.693977 -3.004532 35,025 107 469 -64
2022-06-27 07:16:13 GMT 51.695606 -3.012619 35,025 107 469 0
2022-06-27 07:16:10 GMT 51.697842 -3.024139 35,025 107 468 0
2022-06-27 07:16:07 GMT 51.701981 -3.045143 35,000 107 468 0
2022-06-27 07:16:03 GMT 51.701981 -3.045143 35,000 107 468 0
2022-06-27 07:16:01 GMT 51.703629 -3.053531 35,000 107 468 64
2022-06-27 07:15:59 GMT 51.705002 -3.060583 35,000 107 468 64
2022-06-27 07:15:56 GMT 51.707016 -3.070679 35,000 107 471 64
2022-06-27 07:15:53 GMT 51.709259 -3.082185 35,000 107 469 0
2022-06-27 07:15:50 GMT 51.710922 -3.090668 35,000 107 469 0
2022-06-27 07:15:48 GMT 51.711903 -3.095703 35,000 107 469 -64
2022-06-27 07:15:45 GMT 51.716721 -3.120191 35,000 107 469 -64
2022-06-27 07:15:42 GMT 51.716721 -3.120191 35,000 107 469 -64
2022-06-27 07:15:39 GMT 51.717682 -3.125091 35,025 107 469 -64
2022-06-27 07:15:37 GMT 51.719582 -3.134995 35,025 107 469 -128
2022-06-27 07:15:34 GMT 51.721848 -3.146544 35,025 107 470 -64
2022-06-27 07:15:31 GMT 51.723259 -3.153610 35,025 107 469 -64
2022-06-27 07:15:29 GMT 51.724842 -3.161621 35,025 107 469 -64
2022-06-27 07:15:27 GMT 51.726517 -3.170224 35,025 107 470 -64
2022-06-27 07:15:24 GMT 51.728287 -3.179245 35,025 107 470 -64
2022-06-27 07:15:21 GMT 51.730011 -3.188019 35,025 107 470 -64
2022-06-27 07:15:19 GMT 51.730988 -3.193207 35,025 107 470 -64
2022-06-27 07:15:17 GMT 51.732330 -3.200065 35,025 107 471 0
2022-06-27 07:15:15 GMT 51.733887 -3.208082 35,050 107 470 -64
2022-06-27 07:15:12 GMT 51.735580 -3.216619 35,050 107 471 -64
2022-06-27 07:15:09 GMT 51.737823 -3.228125 35,050 107 471 -64
2022-06-27 07:15:06 GMT 51.741928 -3.249207 35,025 107 471 0
2022-06-27 07:15:03 GMT 51.741928 -3.249207 35,025 107 471 64
2022-06-27 07:15:00 GMT 51.743546 -3.257521 35,025 107 472 0
2022-06-27 07:14:58 GMT 51.744534 -3.262558 35,025 107 471 64
2022-06-27 07:14:55 GMT 51.746201 -3.271179 35,025 107 471 64
2022-06-27 07:14:53 GMT 51.748306 -3.281937 35,025 107 472 0
2022-06-27 07:14:50 GMT 51.750587 -3.293457 35,025 107 472 0
2022-06-27 07:14:47 GMT 51.753708 -3.309631 35,025 107 472 -64
2022-06-27 07:14:44 GMT 51.753708 -3.309631 35,025 107 472 -64
2022-06-27 07:14:42 GMT 51.756638 -3.324585 35,050 107 473 0
2022-06-27 07:14:40 GMT 51.756638 -3.324585 35,050 107 472 -64
2022-06-27 07:14:37 GMT 51.758652 -3.335019 35,050 107 473 -64
2022-06-27 07:14:34 GMT 51.760315 -3.343430 35,050 107 473 0
2022-06-27 07:14:32 GMT 51.761574 -3.350067 35,050 107 474 0
2022-06-27 07:14:29 GMT 51.763641 -3.360629 35,050 107 474 0
2022-06-27 07:14:27 GMT 51.764786 -3.366567 35,050 107 473 0
2022-06-27 07:14:25 GMT 51.766087 -3.373489 35,050 107 474 0
2022-06-27 07:14:23 GMT 51.767998 -3.383255 35,050 107 474 0
2022-06-27 07:14:20 GMT 51.769318 -3.390025 35,050 107 474 0
2022-06-27 07:14:18 GMT 51.770603 -3.396835 35,050 107 474 64
2022-06-27 07:14:16 GMT 51.773895 -3.413927 35,050 107 474 0
2022-06-27 07:14:13 GMT 51.773895 -3.413927 35,050 107 474 0
2022-06-27 07:14:10 GMT 51.776825 -3.429071 35,050 107 474 0
2022-06-27 07:14:07 GMT 51.778286 -3.436584 35,050 107 474 0
2022-06-27 07:14:04 GMT 51.780472 -3.447800 35,050 107 475 0
2022-06-27 07:14:01 GMT 51.781815 -3.454681 35,050 107 474 0
2022-06-27 07:13:58 GMT 51.783501 -3.463593 35,050 107 475 0
2022-06-27 07:13:56 GMT 51.784927 -3.470863 35,050 107 475 0
2022-06-27 07:13:53 GMT 51.789093 -3.492539 35,050 107 475 0
2022-06-27 07:13:50 GMT 51.789093 -3.492539 35,050 107 475 0
2022-06-27 07:13:47 GMT 51.791336 -3.504193 35,050 107 475 0
2022-06-27 07:13:44 GMT 51.792995 -3.512573 35,050 107 475 0
2022-06-27 07:13:42 GMT 51.793991 -3.517926 35,050 107 475 0
2022-06-27 07:13:40 GMT 51.797604 -3.536758 35,050 107 476 -64
2022-06-27 07:13:37 GMT 51.797604 -3.536758 35,050 107 475 -64
2022-06-27 07:13:35 GMT 51.798706 -3.542349 35,050 107 475 -64
2022-06-27 07:13:32 GMT 51.801048 -3.554611 35,050 107 475 -64
2022-06-27 07:13:29 GMT 51.802460 -3.561872 35,050 107 475 -64
2022-06-27 07:13:27 GMT 51.803833 -3.569072 35,050 107 475 -64
2022-06-27 07:13:25 GMT 51.805710 -3.578648 35,050 107 476 0
2022-06-27 07:13:22 GMT 51.808914 -3.595499 35,050 107 476 0
2022-06-27 07:13:20 GMT 51.808914 -3.595499 35,050 107 476 64
2022-06-27 07:13:17 GMT 51.812317 -3.613052 35,050 107 476 64
2022-06-27 07:13:14 GMT 51.812317 -3.613052 35,050 107 476 64
2022-06-27 07:13:11 GMT 51.816696 -3.635881 35,050 107 476 64
2022-06-27 07:13:08 GMT 51.816696 -3.635881 35,050 107 476 64
2022-06-27 07:13:05 GMT 51.818974 -3.647995 35,050 107 476 64
2022-06-27 07:13:02 GMT 51.820862 -3.657705 35,050 107 477 0
2022-06-27 07:12:59 GMT 51.822189 -3.664683 35,025 107 477 0
2022-06-27 07:12:56 GMT 51.823242 -3.670324 35,025 107 477 0
2022-06-27 07:12:54 GMT 51.825211 -3.680643 35,025 107 477 0
2022-06-27 07:12:51 GMT 51.827770 -3.694229 35,050 107 477 0
2022-06-27 07:12:48 GMT 51.829353 -3.702545 35,025 107 477 0
2022-06-27 07:12:46 GMT 51.830292 -3.707366 35,050 107 477 0
2022-06-27 07:12:44 GMT 51.831867 -3.715668 35,050 107 477 0
2022-06-27 07:12:41 GMT 51.833820 -3.726044 35,025 107 477 64
2022-06-27 07:12:38 GMT 51.837315 -3.744354 35,025 107 477 0
2022-06-27 07:12:36 GMT 51.837315 -3.744354 35,025 107 476 64
2022-06-27 07:12:33 GMT 51.838943 -3.752899 35,025 107 476 64
2022-06-27 07:12:30 GMT 51.841232 -3.764970 35,025 107 476 64
2022-06-27 07:12:27 GMT 51.842621 -3.772278 35,025 107 476 64
2022-06-27 07:12:24 GMT 51.844902 -3.784332 35,025 107 476 0
2022-06-27 07:12:22 GMT 51.846485 -3.792419 35,025 107 476 0
2022-06-27 07:12:20 GMT 51.847183 -3.796222 35,025 107 476 0
2022-06-27 07:12:18 GMT 51.848766 -3.804245 35,025 107 476 0
2022-06-27 07:12:14 GMT 51.851326 -3.817825 35,025 106 475 0
2022-06-27 07:12:11 GMT 51.853420 -3.828583 35,025 107 476 0
2022-06-27 07:12:08 GMT 51.855328 -3.838654 35,025 107 476 0
2022-06-27 07:12:06 GMT 51.856430 -3.844547 35,025 107 476 0
2022-06-27 07:12:04 GMT 51.858028 -3.852921 35,025 106 475 0
2022-06-27 07:12:01 GMT 51.859818 -3.862214 35,000 106 474 64
2022-06-27 07:11:58 GMT 51.861465 -3.871122 35,025 106 475 64
2022-06-27 07:11:56 GMT 51.863102 -3.879623 35,025 106 475 64
2022-06-27 07:11:54 GMT 51.864120 -3.885077 35,025 106 474 64
2022-06-27 07:11:51 GMT 51.865997 -3.894950 35,025 106 474 64
2022-06-27 07:11:48 GMT 51.868469 -3.908089 35,025 106 474 64
2022-06-27 07:11:45 GMT 51.870644 -3.919754 35,025 106 474 64
2022-06-27 07:11:42 GMT 51.871529 -3.924408 35,000 106 474 0
2022-06-27 07:11:39 GMT 51.873642 -3.935555 35,000 106 474 0
2022-06-27 07:11:37 GMT 51.874878 -3.942236 35,000 106 474 0
2022-06-27 07:11:35 GMT 51.875904 -3.947601 35,000 106 474 0
2022-06-27 07:11:33 GMT 51.877899 -3.958196 35,000 106 473 64
2022-06-27 07:11:30 GMT 51.881378 -3.976680 35,000 106 473 64
2022-06-27 07:11:27 GMT 51.881378 -3.976680 35,000 106 473 64
2022-06-27 07:11:25 GMT 51.882248 -3.981356 35,025 106 473 64
2022-06-27 07:11:23 GMT 51.883575 -3.988260 35,025 106 473 0
2022-06-27 07:11:21 GMT 51.885086 -3.996351 35,000 106 473 0
2022-06-27 07:11:18 GMT 51.887100 -4.007189 35,025 106 473 0
2022-06-27 07:11:16 GMT 51.888382 -4.013870 35,000 106 473 0
2022-06-27 07:11:13 GMT 51.890800 -4.026794 35,025 106 473 0
2022-06-27 07:11:10 GMT 51.893967 -4.043732 35,025 106 473 0
2022-06-27 07:11:07 GMT 51.893967 -4.043732 35,025 106 473 0
2022-06-27 07:11:04 GMT 51.896713 -4.058380 35,025 106 472 0
2022-06-27 07:11:01 GMT 51.897739 -4.063921 35,025 106 472 0
2022-06-27 07:10:58 GMT 51.899414 -4.072710 35,025 106 472 0
2022-06-27 07:10:56 GMT 51.900558 -4.079056 35,025 106 472 0
2022-06-27 07:10:54 GMT 51.901928 -4.086365 35,025 106 472 0
2022-06-27 07:10:52 GMT 51.905281 -4.104571 35,025 106 473 0
2022-06-27 07:10:49 GMT 51.906212 -4.109750 35,025 106 473 0
2022-06-27 07:10:45 GMT 51.907791 -4.118382 35,025 106 474 0
2022-06-27 07:10:43 GMT 51.910583 -4.133530 35,025 106 475 64
2022-06-27 07:10:40 GMT 51.910583 -4.133530 35,000 106 475 64
2022-06-27 07:10:37 GMT 51.913101 -4.147574 35,025 106 475 64
2022-06-27 07:10:35 GMT 51.913986 -4.152518 35,025 106 475 64
2022-06-27 07:10:33 GMT 51.915520 -4.161072 35,025 108 478 -64
2022-06-27 07:10:30 GMT 51.917038 -4.169540 35,000 105 476 0
2022-06-27 07:10:27 GMT 51.918915 -4.180222 35,025 106 477 -64
2022-06-27 07:10:23 GMT 51.921753 -4.195938 35,025 108 478 -64
2022-06-27 07:10:20 GMT 51.923630 -4.205933 35,025 108 478 -64
2022-06-27 07:10:17 GMT 51.925156 -4.213414 35,025 109 479 -64
2022-06-27 07:10:15 GMT 51.927486 -4.224008 35,025 111 479 -64
2022-06-27 07:10:12 GMT 51.929901 -4.234238 35,025 114 479 0
2022-06-27 07:10:09 GMT 51.931999 -4.242685 35,025 115 480 0
2022-06-27 07:10:06 GMT 51.933632 -4.248805 35,025 115 480 0
2022-06-27 07:10:04 GMT 51.936237 -4.258144 35,025 115 480 0
2022-06-27 07:10:02 GMT 51.939880 -4.270401 35,025 116 479 -64
2022-06-27 07:10:00 GMT 51.939880 -4.270401 35,025 117 480 -64
2022-06-27 07:09:57 GMT 51.943733 -4.282471 35,025 117 480 -64
2022-06-27 07:09:54 GMT 51.945782 -4.288749 35,025 117 480 -64
2022-06-27 07:09:52 GMT 51.950867 -4.304276 35,025 117 481 -64
2022-06-27 07:09:49 GMT 51.950867 -4.304276 35,025 117 481 0
2022-06-27 07:09:46 GMT 51.954021 -4.313860 35,025 117 481 0
2022-06-27 07:09:43 GMT 51.958420 -4.327469 35,025 117 483 64
2022-06-27 07:09:40 GMT 51.961189 -4.335911 35,000 117 484 64
2022-06-27 07:09:36 GMT 51.964493 -4.346034 35,000 117 484 64
2022-06-27 07:09:34 GMT 51.966824 -4.353176 35,000 117 484 128
2022-06-27 07:09:32 GMT 51.969086 -4.360199 34,975 117 485 256
2022-06-27 07:09:29 GMT 51.971786 -4.368439 34,975 117 487 448
2022-06-27 07:09:26 GMT 51.974922 -4.378130 34,975 117 487 512
2022-06-27 07:09:23 GMT 51.978413 -4.388881 34,925 117 486 640
2022-06-27 07:09:20 GMT 51.981674 -4.398880 34,850 117 486 704
2022-06-27 07:09:17 GMT 51.984978 -4.408970 34,850 117 486 768
2022-06-27 07:09:14 GMT 51.988174 -4.418869 34,825 117 486 768
2022-06-27 07:09:11 GMT 51.990921 -4.427185 34,800 117 486 704
2022-06-27 07:09:08 GMT 51.994194 -4.437299 34,775 117 485 704
2022-06-27 07:09:05 GMT 51.997696 -4.448090 34,725 117 484 768
2022-06-27 07:09:02 GMT 52.000481 -4.456604 34,650 117 484 768
2022-06-27 07:08:59 GMT 52.003555 -4.466019 34,650 117 483 832
2022-06-27 07:08:56 GMT 52.006577 -4.475281 34,575 117 484 768
2022-06-27 07:08:53 GMT 52.009277 -4.483566 34,575 117 484 768
2022-06-27 07:08:51 GMT 52.012344 -4.493103 34,525 117 484 832
2022-06-27 07:08:48 GMT 52.014542 -4.499817 34,500 117 483 832
2022-06-27 07:08:46 GMT 52.017563 -4.509103 34,450 117 483 832
2022-06-27 07:08:43 GMT 52.020309 -4.517593 34,450 117 483 832
2022-06-27 07:08:40 GMT 52.023289 -4.526838 34,425 117 483 832
2022-06-27 07:08:37 GMT 52.025665 -4.534149 34,350 117 483 832
2022-06-27 07:08:34 GMT 52.031982 -4.553680 34,325 117 483 832
2022-06-27 07:08:32 GMT 52.031982 -4.553680 34,150 117 483 896
2022-06-27 07:08:29 GMT 52.035049 -4.563293 34,075 117 483 896
2022-06-27 07:08:26 GMT 52.037861 -4.571960 34,225 117 482 896
2022-06-27 07:08:24 GMT 52.039909 -4.578317 34,200 117 482 896
2022-06-27 07:08:22 GMT 52.041397 -4.583025 34,150 117 481 896
2022-06-27 07:08:20 GMT 52.043884 -4.590683 33,950 117 480 896
2022-06-27 07:08:17 GMT 52.046722 -4.599609 34,075 117 481 832
2022-06-27 07:08:15 GMT 52.052757 -4.618182 34,025 117 481 832
2022-06-27 07:08:12 GMT 52.052757 -4.618182 34,000 117 481 832
2022-06-27 07:08:09 GMT 52.056061 -4.628540 33,950 117 481 832
2022-06-27 07:08:06 GMT 52.058350 -4.635696 33,925 117 480 896
2022-06-27 07:08:04 GMT 52.060547 -4.642487 33,850 117 480 1152
2022-06-27 07:08:01 GMT 52.063522 -4.651642 33,825 117 480 896
2022-06-27 07:07:58 GMT 52.067001 -4.662399 33,750 117 479 960
2022-06-27 07:07:55 GMT 52.070251 -4.672546 33,725 117 479 1024
2022-06-27 07:07:52 GMT 52.072723 -4.680176 33,650 117 480 1152
2022-06-27 07:07:50 GMT 52.075195 -4.687805 33,650 117 480 1216
2022-06-27 07:07:47 GMT 52.077755 -4.695635 33,525 117 481 1600
2022-06-27 07:07:45 GMT 52.080410 -4.703796 33,550 117 480 1344
2022-06-27 07:07:41 GMT 52.084087 -4.715175 33,475 117 481 1472
2022-06-27 07:07:38 GMT 52.088013 -4.727325 33,150 117 482 1984
2022-06-27 07:07:35 GMT 52.090557 -4.735186 33,275 117 482 2048
2022-06-27 07:07:32 GMT 52.093048 -4.742889 33,075 117 485 2496
2022-06-27 07:07:29 GMT 52.097076 -4.755325 33,025 117 485 2496
2022-06-27 07:07:26 GMT 52.099823 -4.763794 32,925 117 487 2560
2022-06-27 07:07:24 GMT 52.102055 -4.770656 32,825 117 488 2688
2022-06-27 07:07:22 GMT 52.105957 -4.782791 32,550 117 490 2752
2022-06-27 07:07:17 GMT 52.108154 -4.789568 31,950 117 492 2752
2022-06-27 07:07:15 GMT 52.110760 -4.797573 32,475 117 492 2560
2022-06-27 07:07:13 GMT 52.113373 -4.805832 32,375 117 496 2176
2022-06-27 07:07:11 GMT 52.114952 -4.810756 32,300 117 496 2176
2022-06-27 07:07:09 GMT 52.117279 -4.817976 31,925 117 498 1472
2022-06-27 07:07:06 GMT 52.120628 -4.828570 32,125 117 498 1536
2022-06-27 07:07:03 GMT 52.123795 -4.838379 32,000 117 498 1344
2022-06-27 07:07:00 GMT 52.126923 -4.848251 31,950 117 498 960
2022-06-27 07:06:57 GMT 52.130501 -4.859410 31,900 117 499 1024
2022-06-27 07:06:54 GMT 52.137772 -4.882431 31,850 117 498 896
2022-06-27 07:06:50 GMT 52.137772 -4.882431 31,825 117 498 832
2022-06-27 07:06:47 GMT 52.144512 -4.903591 31,775 117 496 960
2022-06-27 07:06:44 GMT 52.144512 -4.903591 31,750 117 497 768
2022-06-27 07:06:41 GMT 52.147163 -4.911987 31,425 117 496 960
2022-06-27 07:06:39 GMT 52.149353 -4.918900 31,675 117 496 1024
2022-06-27 07:06:37 GMT 52.154022 -4.933472 31,600 117 496 1344
2022-06-27 07:06:34 GMT 52.154022 -4.933472 31,550 117 496 1344
2022-06-27 07:06:30 GMT 52.159195 -4.949799 31,475 117 496 1280
2022-06-27 07:06:28 GMT 52.161301 -4.956360 31,425 117 496 1152
2022-06-27 07:06:25 GMT 52.166439 -4.972491 31,375 117 496 832
2022-06-27 07:06:22 GMT 52.166439 -4.972491 31,300 117 495 768
2022-06-27 07:06:19 GMT 52.170441 -4.985046 31,100 117 494 1216
2022-06-27 07:06:16 GMT 52.173798 -4.995575 31,250 117 494 1472
2022-06-27 07:06:13 GMT 52.176399 -5.003802 31,200 117 494 1088
2022-06-27 07:06:11 GMT 52.178009 -5.008774 31,125 117 494 1344
2022-06-27 07:06:08 GMT 52.181988 -5.021301 31,100 117 494 1472
2022-06-27 07:06:06 GMT 52.184406 -5.028835 30,900 117 495 1664
2022-06-27 07:06:03 GMT 52.187073 -5.037231 30,975 117 495 1664
2022-06-27 07:06:01 GMT 52.188675 -5.042267 30,950 117 495 1664
2022-06-27 07:05:59 GMT 52.191296 -5.050572 30,875 117 495 1600
2022-06-27 07:05:56 GMT 52.197830 -5.071182 30,600 117 495 1472
2022-06-27 07:05:53 GMT 52.199303 -5.075919 30,675 117 495 1408
2022-06-27 07:05:49 GMT 52.202003 -5.084316 30,600 117 495 1280
2022-06-27 07:05:47 GMT 52.203598 -5.089493 30,550 117 495 1216
2022-06-27 07:05:43 GMT 52.208405 -5.104599 30,500 117 495 1088
2022-06-27 07:05:41 GMT 52.209961 -5.109558 30,375 117 494 1216
2022-06-27 07:05:38 GMT 52.213440 -5.120621 30,425 117 495 1024
2022-06-27 07:05:35 GMT 52.216248 -5.129438 30,325 117 494 1216
2022-06-27 07:05:32 GMT 52.220490 -5.142975 30,250 117 495 1152
2022-06-27 07:05:29 GMT 52.223236 -5.151596 30,250 117 494 1216
2022-06-27 07:05:27 GMT 52.224674 -5.156276 30,050 117 494 1216
2022-06-27 07:05:24 GMT 52.227795 -5.166242 30,175 117 494 1216
2022-06-27 07:05:22 GMT 52.230167 -5.173776 30,125 117 494 1216
2022-06-27 07:05:18 GMT 52.233986 -5.185939 29,350 116 488 1344
2022-06-27 07:05:15 GMT 52.237617 -5.197396 29,975 117 494 1088
2022-06-27 07:05:12 GMT 52.240734 -5.207363 29,950 117 493 1088
2022-06-27 07:05:08 GMT 52.244934 -5.220795 29,850 117 493 1024
2022-06-27 07:05:06 GMT 52.249115 -5.234122 29,800 117 491 960
2022-06-27 07:05:03 GMT 52.249115 -5.234122 29,800 117 491 960
2022-06-27 07:05:01 GMT 52.251534 -5.241813 29,750 117 491 1024
2022-06-27 07:04:59 GMT 52.255737 -5.255127 29,700 117 491 1024
2022-06-27 07:04:57 GMT 52.255737 -5.255127 29,625 117 491 1088
2022-06-27 07:04:54 GMT 52.261642 -5.273972 29,275 116 488 1344
2022-06-27 07:04:51 GMT 52.261642 -5.273972 29,575 117 490 1088
2022-06-27 07:04:49 GMT 52.263885 -5.281219 29,400 116 489 1280
2022-06-27 07:04:47 GMT 52.266247 -5.288740 29,425 117 489 1152
2022-06-27 07:04:44 GMT 52.269104 -5.297852 29,450 116 489 1216
2022-06-27 07:04:42 GMT 52.272903 -5.310006 29,325 116 489 1280
2022-06-27 07:04:37 GMT 52.275604 -5.318756 29,300 116 488 1344
2022-06-27 07:04:34 GMT 52.279449 -5.331116 29,150 116 488 1216
2022-06-27 07:04:31 GMT 52.282028 -5.339434 29,175 116 488 1344
2022-06-27 07:04:28 GMT 52.286087 -5.352478 29,075 116 488 1280
2022-06-27 07:04:24 GMT 52.291897 -5.371373 28,975 116 488 1152
2022-06-27 07:04:21 GMT 52.291897 -5.371373 28,925 116 487 1152
2022-06-27 07:04:19 GMT 52.296505 -5.386440 28,850 116 487 1152
2022-06-27 07:04:17 GMT 52.296505 -5.386440 28,850 116 487 1280
2022-06-27 07:04:14 GMT 52.300976 -5.401271 28,775 116 487 1280
2022-06-27 07:04:11 GMT 52.302464 -5.406137 28,650 116 486 1216
2022-06-27 07:04:08 GMT 52.306000 -5.417786 28,675 116 486 1152
2022-06-27 07:04:04 GMT 52.309631 -5.429993 28,425 115 486 1216
2022-06-27 07:04:02 GMT 52.311028 -5.434623 28,575 115 486 1216
2022-06-27 07:04:00 GMT 52.312912 -5.440979 28,525 115 485 1216
2022-06-27 07:03:57 GMT 52.315887 -5.450974 28,425 115 484 1280
2022-06-27 07:03:55 GMT 52.318314 -5.458984 28,375 116 485 1216
2022-06-27 07:03:52 GMT 52.321014 -5.468063 28,375 116 484 1216
2022-06-27 07:03:50 GMT 52.323074 -5.474777 28,350 116 484 1216
2022-06-27 07:03:47 GMT 52.326279 -5.484848 28,150 121 485 1152
2022-06-27 07:03:44 GMT 52.330261 -5.496216 28,200 121 485 1152
2022-06-27 07:03:41 GMT 52.333187 -5.503758 28,125 124 484 1088
2022-06-27 07:03:39 GMT 52.338318 -5.515900 28,025 126 484 1024
2022-06-27 07:03:34 GMT 52.342987 -5.525894 28,000 129 483 1152
2022-06-27 07:03:31 GMT 52.347572 -5.534912 27,950 131 483 1344
2022-06-27 07:03:28 GMT 52.351250 -5.541504 27,875 132 483 1472
2022-06-27 07:03:25 GMT 52.356556 -5.550528 27,800 135 482 1664
2022-06-27 07:03:22 GMT 52.360329 -5.556571 27,725 137 483 1792
2022-06-27 07:03:20 GMT 52.365170 -5.563790 27,575 138 483 1920
2022-06-27 07:03:17 GMT 52.373611 -5.575943 27,525 138 484 1920
2022-06-27 07:03:14 GMT 52.379379 -5.584183 27,425 138 484 1920
2022-06-27 07:03:11 GMT 52.379379 -5.584183 27,375 138 484 1920
2022-06-27 07:03:08 GMT 52.384460 -5.591431 27,275 138 484 2048
2022-06-27 07:03:05 GMT 52.389084 -5.598068 27,175 138 485 2112
2022-06-27 07:03:02 GMT 52.393890 -5.604989 27,125 138 485 2048
2022-06-27 07:03:00 GMT 52.397324 -5.609894 27,000 138 485 1280
2022-06-27 07:02:57 GMT 52.402271 -5.616996 26,900 138 486 1600
2022-06-27 07:02:54 GMT 52.407669 -5.624695 26,800 138 486 1536
2022-06-27 07:02:51 GMT 52.413528 -5.633087 26,800 138 486 1536
2022-06-27 07:02:49 GMT 52.416145 -5.636928 26,675 138 485 1344
2022-06-27 07:02:46 GMT 52.421356 -5.644379 26,600 138 485 1280
2022-06-27 07:02:43 GMT 52.425503 -5.650347 26,600 138 485 1344
2022-06-27 07:02:40 GMT 52.430157 -5.657096 26,525 138 485 1280
2022-06-27 07:02:37 GMT 52.436371 -5.666046 26,450 138 484 1280
2022-06-27 07:02:33 GMT 52.442959 -5.675537 26,325 138 483 1344
2022-06-27 07:02:30 GMT 52.447495 -5.682144 26,300 138 483 1408
2022-06-27 07:02:28 GMT 52.450790 -5.686874 26,250 138 482 1472
2022-06-27 07:02:26 GMT 52.454315 -5.691986 26,175 138 483 1408
2022-06-27 07:02:23 GMT 52.459167 -5.699005 26,125 138 483 1472
2022-06-27 07:02:20 GMT 52.463974 -5.705948 26,075 138 481 1472
2022-06-27 07:02:18 GMT 52.467270 -5.710754 26,000 138 481 1472
2022-06-27 07:02:16 GMT 52.470890 -5.715951 25,975 138 481 1536
2022-06-27 07:02:13 GMT 52.476570 -5.724191 25,875 138 481 1536
2022-06-27 07:02:11 GMT 52.482944 -5.733451 25,800 138 481 1536
2022-06-27 07:02:09 GMT 52.482944 -5.733451 25,725 138 481 1536
2022-06-27 07:02:06 GMT 52.487000 -5.739288 25,700 138 481 1536
2022-06-27 07:02:04 GMT 52.490845 -5.744781 25,650 138 480 1536
2022-06-27 07:02:02 GMT 52.495331 -5.751266 25,575 138 480 1472
2022-06-27 07:02:00 GMT 52.497620 -5.754623 25,575 138 480 1536
2022-06-27 07:01:56 GMT 52.503754 -5.763550 25,450 138 479 1536
2022-06-27 07:01:53 GMT 52.510117 -5.772705 25,350 138 478 1536
2022-06-27 07:01:51 GMT 52.516232 -5.781555 25,300 138 478 1536
2022-06-27 07:01:49 GMT 52.516232 -5.781555 25,300 138 478 1536
2022-06-27 07:01:45 GMT 52.522842 -5.791207 25,125 138 478 1600
2022-06-27 07:01:42 GMT 52.530945 -5.802994 25,050 138 478 1664
2022-06-27 07:01:40 GMT 52.530945 -5.802994 25,025 138 477 1728
2022-06-27 07:01:38 GMT 52.535522 -5.809631 24,900 138 476 1856
2022-06-27 07:01:35 GMT 52.539093 -5.814819 24,825 138 477 1920
2022-06-27 07:01:32 GMT 52.545235 -5.823696 24,750 138 477 1920
2022-06-27 07:01:29 GMT 52.550995 -5.832138 24,650 138 477 1984
2022-06-27 07:01:25 GMT 52.556396 -5.839996 24,475 138 477 1984
2022-06-27 07:01:22 GMT 52.564739 -5.852103 24,400 138 478 1920
2022-06-27 07:01:20 GMT 52.569946 -5.859756 24,275 138 478 1920
2022-06-27 07:01:15 GMT 52.573059 -5.864258 24,275 138 478 1856
2022-06-27 07:01:12 GMT 52.578518 -5.872349 24,075 138 477 1728
2022-06-27 07:01:09 GMT 52.581024 -5.875931 24,075 138 477 1728
2022-06-27 07:01:06 GMT 52.587547 -5.885533 23,950 138 477 1728
2022-06-27 07:01:04 GMT 52.590202 -5.889457 23,900 138 476 1728
2022-06-27 07:01:02 GMT 52.592697 -5.893097 23,850 138 476 1728
2022-06-27 07:01:00 GMT 52.597046 -5.899501 23,775 138 476 1728
2022-06-27 07:00:56 GMT 52.603004 -5.908290 23,650 138 475 1664
2022-06-27 07:00:54 GMT 52.606960 -5.914176 23,600 137 475 1664
2022-06-27 07:00:51 GMT 52.610779 -5.919800 23,575 137 475 1664
2022-06-27 07:00:49 GMT 52.614075 -5.924683 23,500 137 475 1600
2022-06-27 07:00:46 GMT 52.619110 -5.932146 23,400 137 473 1600
2022-06-27 07:00:44 GMT 52.622269 -5.936890 23,300 137 473 1600
2022-06-27 07:00:41 GMT 52.626373 -5.942897 23,300 137 473 1728
2022-06-27 07:00:39 GMT 52.630966 -5.949783 23,200 137 472 1856
2022-06-27 07:00:37 GMT 52.633308 -5.953256 23,150 137 472 1984
2022-06-27 07:00:34 GMT 52.640385 -5.963693 22,975 138 472 1920
2022-06-27 07:00:31 GMT 52.642868 -5.967331 22,975 138 472 1920
2022-06-27 07:00:29 GMT 52.647739 -5.974208 22,875 140 472 1664
2022-06-27 07:00:27 GMT 52.652863 -5.981036 22,750 143 471 1344
2022-06-27 07:00:24 GMT 52.655979 -5.985038 22,750 143 471 1344
2022-06-27 07:00:21 GMT 52.661041 -5.991135 22,675 144 470 1216
2022-06-27 07:00:19 GMT 52.663879 -5.994415 22,600 146 468 1216
2022-06-27 07:00:17 GMT 52.668457 -5.999603 22,600 146 468 1216
2022-06-27 07:00:14 GMT 52.674088 -6.005554 22,525 148 466 1216
2022-06-27 07:00:12 GMT 52.682049 -6.013445 22,475 149 464 1152
2022-06-27 07:00:09 GMT 52.686447 -6.017532 22,425 150 462 1024
2022-06-27 07:00:04 GMT 52.693130 -6.023636 22,350 150 460 1024
2022-06-27 07:00:01 GMT 52.697571 -6.027679 22,300 150 460 1088
2022-06-27 06:59:59 GMT 52.702011 -6.031799 22,275 150 457 1088
2022-06-27 06:59:54 GMT 52.711052 -6.040126 22,125 150 454 1024
2022-06-27 06:59:51 GMT 52.716125 -6.044756 22,125 150 454 1024
2022-06-27 06:59:48 GMT 52.721786 -6.049957 22,025 150 452 1216
2022-06-27 06:59:44 GMT 52.729393 -6.056920 21,975 150 450 1408
2022-06-27 06:59:41 GMT 52.734375 -6.061471 21,925 150 449 1536
2022-06-27 06:59:39 GMT 52.743359 -6.069711 21,825 150 449 1792
2022-06-27 06:59:37 GMT 52.746002 -6.072159 21,725 150 448 1664
2022-06-27 06:59:32 GMT 52.748611 -6.074524 21,675 150 448 1664
2022-06-27 06:59:30 GMT 52.754440 -6.079912 21,600 150 448 1408
2022-06-27 06:59:28 GMT 52.758720 -6.083758 21,550 150 447 1344
2022-06-27 06:59:25 GMT 52.763191 -6.087917 21,475 150 444 896
2022-06-27 06:59:22 GMT 52.769348 -6.093521 21,400 150 446 1216
2022-06-27 06:59:20 GMT 52.773193 -6.097031 21,375 150 445 1152
2022-06-27 06:59:18 GMT 52.776459 -6.100080 21,325 150 443 768
2022-06-27 06:59:15 GMT 52.781799 -6.104965 21,300 150 440 832
2022-06-27 06:59:12 GMT 52.787109 -6.109848 21,275 150 440 832
2022-06-27 06:59:10 GMT 52.789913 -6.112401 21,250 150 439 960
2022-06-27 06:59:07 GMT 52.795486 -6.117554 21,125 150 437 1408
2022-06-27 06:59:04 GMT 52.802399 -6.123962 21,100 150 436 1472
2022-06-27 06:59:01 GMT 52.806610 -6.127853 21,050 150 435 1536
2022-06-27 06:58:59 GMT 52.814491 -6.135080 20,950 150 434 1664
2022-06-27 06:58:56 GMT 52.814491 -6.135080 20,875 150 433 1920
2022-06-27 06:58:53 GMT 52.819153 -6.139450 20,800 150 433 1984
2022-06-27 06:58:51 GMT 52.823822 -6.143723 20,750 150 432 2112
2022-06-27 06:58:49 GMT 52.830318 -6.149754 20,600 150 432 2112
2022-06-27 06:58:45 GMT 52.834415 -6.153521 20,525 150 432 1856
2022-06-27 06:58:43 GMT 52.837051 -6.156006 20,450 150 431 1600
2022-06-27 06:58:41 GMT 52.841309 -6.159897 20,425 150 429 1344
2022-06-27 06:58:39 GMT 52.844704 -6.163095 20,375 150 428 1152
2022-06-27 06:58:37 GMT 52.848038 -6.166153 20,350 150 428 1024
2022-06-27 06:58:33 GMT 52.854015 -6.171727 20,275 150 423 512
2022-06-27 06:58:30 GMT 52.860394 -6.177612 20,275 150 422 256
2022-06-27 06:58:28 GMT 52.863968 -6.180878 20,250 150 419 192
2022-06-27 06:58:26 GMT 52.865887 -6.182635 20,250 150 418 192
2022-06-27 06:58:23 GMT 52.871750 -6.188049 20,250 150 415 384
2022-06-27 06:58:21 GMT 52.874451 -6.190560 20,225 150 413 448
2022-06-27 06:58:19 GMT 52.878891 -6.194687 20,200 150 409 896
2022-06-27 06:58:17 GMT 52.881409 -6.197052 20,200 150 410 832
2022-06-27 06:58:15 GMT 52.885712 -6.201019 20,125 150 406 1536
2022-06-27 06:58:12 GMT 52.890884 -6.205863 20,125 150 408 1216
2022-06-27 06:58:09 GMT 52.896744 -6.211243 19,950 150 404 1856
2022-06-27 06:58:06 GMT 52.900845 -6.215044 19,850 150 404 1920
2022-06-27 06:58:03 GMT 52.904892 -6.218796 19,800 150 403 1984
2022-06-27 06:58:01 GMT 52.907501 -6.221237 19,800 150 403 1920
2022-06-27 06:57:59 GMT 52.910843 -6.224365 19,725 150 403 1920
2022-06-27 06:57:57 GMT 52.914047 -6.227341 19,675 150 402 1792
2022-06-27 06:57:53 GMT 52.921841 -6.234584 19,525 150 400 1472
2022-06-27 06:57:50 GMT 52.925007 -6.237566 19,475 150 400 1344
2022-06-27 06:57:47 GMT 52.930893 -6.243057 19,400 150 397 960
2022-06-27 06:57:44 GMT 52.935902 -6.247689 19,375 150 396 960
2022-06-27 06:57:42 GMT 52.938309 -6.250000 19,350 150 394 1024
2022-06-27 06:57:40 GMT 52.941998 -6.253418 19,300 150 392 1280
2022-06-27 06:57:37 GMT 52.946503 -6.257629 19,225 150 391 1408
2022-06-27 06:57:35 GMT 52.950165 -6.261063 19,175 150 390 1536
2022-06-27 06:57:32 GMT 52.956757 -6.267229 19,075 150 389 1600
2022-06-27 06:57:30 GMT 52.958130 -6.268539 19,050 150 388 1664
2022-06-27 06:57:27 GMT 52.962021 -6.272202 18,975 150 387 1728
2022-06-27 06:57:24 GMT 52.965878 -6.275783 18,900 150 386 1792
2022-06-27 06:57:22 GMT 52.968998 -6.278687 18,800 150 386 1792
2022-06-27 06:57:20 GMT 52.972778 -6.282272 18,675 150 385 1792
2022-06-27 06:57:17 GMT 52.977539 -6.286697 18,650 150 384 1856
2022-06-27 06:57:15 GMT 52.981659 -6.290615 18,600 150 383 1984
2022-06-27 06:57:12 GMT 52.988525 -6.297073 18,475 150 382 1984
2022-06-27 06:57:08 GMT 52.991714 -6.300031 18,400 150 381 1984
2022-06-27 06:57:06 GMT 52.997627 -6.305603 18,275 150 379 1920
2022-06-27 06:57:01 GMT 53.002487 -6.310120 18,175 150 379 1920
2022-06-27 06:56:57 GMT 53.009174 -6.316432 18,075 150 378 2112
2022-06-27 06:56:55 GMT 53.012100 -6.319199 17,775 150 378 2432
2022-06-27 06:56:52 GMT 53.016899 -6.323730 17,825 150 377 2624
2022-06-27 06:56:50 GMT 53.021881 -6.328439 17,625 150 379 2624
2022-06-27 06:56:48 GMT 53.021881 -6.328439 17,650 150 378 2880
2022-06-27 06:56:46 GMT 53.024231 -6.330643 17,550 150 378 2880
2022-06-27 06:56:44 GMT 53.027756 -6.333923 17,350 150 378 2752
2022-06-27 06:56:41 GMT 53.032974 -6.338882 17,325 150 379 2560
2022-06-27 06:56:37 GMT 53.038406 -6.343977 17,175 150 379 2496
2022-06-27 06:56:35 GMT 53.042179 -6.347586 17,000 150 378 2432
2022-06-27 06:56:32 GMT 53.046021 -6.351166 16,925 150 378 2432
2022-06-27 06:56:30 GMT 53.049728 -6.354675 16,800 150 377 2496
2022-06-27 06:56:27 GMT 53.053303 -6.358024 16,775 150 377 2496
2022-06-27 06:56:25 GMT 53.057053 -6.361542 16,625 150 377 2624
2022-06-27 06:56:22 GMT 53.062473 -6.366656 16,500 150 377 2752
2022-06-27 06:56:20 GMT 53.068527 -6.372306 16,400 150 377 2752
2022-06-27 06:56:18 GMT 53.068527 -6.372306 16,325 150 377 2752
2022-06-27 06:56:15 GMT 53.077606 -6.380844 16,175 150 377 2688
2022-06-27 06:56:12 GMT 53.077606 -6.380844 16,050 150 377 2496
2022-06-27 06:56:08 GMT 53.083008 -6.385956 15,875 150 376 2240
2022-06-27 06:56:06 GMT 53.086403 -6.389178 15,825 150 374 2176
2022-06-27 06:56:03 GMT 53.090149 -6.392670 15,750 150 373 2112
2022-06-27 06:56:01 GMT 53.094131 -6.396476 15,650 150 373 2048
2022-06-27 06:55:59 GMT 53.096413 -6.398648 15,600 150 372 2048
2022-06-27 06:55:57 GMT 53.098663 -6.400792 15,550 150 372 2112
2022-06-27 06:55:55 GMT 53.103149 -6.404951 15,400 150 371 2176
2022-06-27 06:55:52 GMT 53.106766 -6.408404 15,325 150 369 2304
2022-06-27 06:55:50 GMT 53.113216 -6.414481 15,200 150 369 2304
2022-06-27 06:55:48 GMT 53.113216 -6.414481 15,150 150 369 2368
2022-06-27 06:55:45 GMT 53.117081 -6.418197 15,000 150 368 2496
2022-06-27 06:55:42 GMT 53.124157 -6.424902 14,875 150 367 2496
2022-06-27 06:55:40 GMT 53.124157 -6.424902 14,800 150 367 2496
2022-06-27 06:55:38 GMT 53.127182 -6.427708 14,725 150 367 2496
2022-06-27 06:55:36 GMT 53.131210 -6.431553 14,675 150 366 2560
2022-06-27 06:55:34 GMT 53.134071 -6.434272 14,600 150 366 2624
2022-06-27 06:55:31 GMT 53.137253 -6.437282 14,500 150 366 2688
2022-06-27 06:55:29 GMT 53.141846 -6.441704 14,400 150 365 2752
2022-06-27 06:55:26 GMT 53.145630 -6.445286 14,250 150 365 2688
2022-06-27 06:55:24 GMT 53.148315 -6.447844 14,075 150 365 2688
2022-06-27 06:55:21 GMT 53.155426 -6.454625 13,850 149 363 2496
2022-06-27 06:55:19 GMT 53.155426 -6.454625 13,950 150 364 2560
2022-06-27 06:55:17 GMT 53.157722 -6.456810 13,875 150 364 2496
2022-06-27 06:55:14 GMT 53.162750 -6.461738 13,675 149 362 2432
2022-06-27 06:55:11 GMT 53.166519 -6.465293 13,625 149 362 2432
2022-06-27 06:55:09 GMT 53.169964 -6.468685 13,525 149 362 2432
2022-06-27 06:55:07 GMT 53.172665 -6.471270 13,425 149 361 2432
2022-06-27 06:55:04 GMT 53.177364 -6.475794 13,325 149 359 2432
2022-06-27 06:55:01 GMT 53.183853 -6.482091 13,125 149 358 2560
2022-06-27 06:54:59 GMT 53.183853 -6.482091 13,125 149 358 2560
2022-06-27 06:54:57 GMT 53.187241 -6.485465 13,025 149 358 2688
2022-06-27 06:54:54 GMT 53.191772 -6.489859 12,875 149 357 2880
2022-06-27 06:54:51 GMT 53.195526 -6.493548 12,750 149 357 2880
2022-06-27 06:54:48 GMT 53.199692 -6.497628 12,600 149 356 2880
2022-06-27 06:54:45 GMT 53.204086 -6.502023 12,450 149 357 2816
2022-06-27 06:54:43 GMT 53.207859 -6.505764 12,325 149 356 2752
2022-06-27 06:54:40 GMT 53.211395 -6.509319 12,225 149 356 2688
2022-06-27 06:54:37 GMT 53.215759 -6.513637 12,075 149 355 2496
2022-06-27 06:54:34 GMT 53.220612 -6.518502 11,875 148 353 2240
2022-06-27 06:54:30 GMT 53.229675 -6.527605 11,800 148 351 1856
2022-06-27 06:54:27 GMT 53.229675 -6.527605 11,725 148 350 1792
2022-06-27 06:54:24 GMT 53.234528 -6.532549 11,625 148 348 1536
2022-06-27 06:54:21 GMT 53.237465 -6.535492 11,550 148 345 1344
2022-06-27 06:54:19 GMT 53.240257 -6.538239 11,525 148 345 1280
2022-06-27 06:54:17 GMT 53.243820 -6.541809 11,475 149 342 1088
2022-06-27 06:54:14 GMT 53.247334 -6.545347 11,400 149 338 1152
2022-06-27 06:54:11 GMT 53.250732 -6.548715 11,325 149 334 1280
2022-06-27 06:54:09 GMT 53.258606 -6.556248 11,250 150 331 1344
2022-06-27 06:54:06 GMT 53.258606 -6.556248 11,200 150 329 1344
2022-06-27 06:54:03 GMT 53.261856 -6.559230 11,175 155 323 1280
2022-06-27 06:53:59 GMT 53.267632 -6.563927 11,075 159 319 1216
2022-06-27 06:53:55 GMT 53.275314 -6.568098 10,975 168 311 1216
2022-06-27 06:53:53 GMT 53.275314 -6.568098 10,950 172 308 1280
2022-06-27 06:53:50 GMT 53.279316 -6.569340 10,925 172 308 1280
2022-06-27 06:53:48 GMT 53.282364 -6.569824 10,875 176 304 1280
2022-06-27 06:53:44 GMT 53.288345 -6.569663 10,700 198 286 1600
2022-06-27 06:53:41 GMT 53.292526 -6.568726 10,700 193 290 1344
2022-06-27 06:53:39 GMT 53.295319 -6.567784 10,650 196 287 1472
2022-06-27 06:53:37 GMT 53.301453 -6.564645 10,525 201 282 2048
2022-06-27 06:53:35 GMT 53.301453 -6.564645 10,525 201 282 2048
2022-06-27 06:53:31 GMT 53.304749 -6.562526 10,425 203 279 2368
2022-06-27 06:53:29 GMT 53.307861 -6.560329 10,300 203 278 2688
2022-06-27 06:53:26 GMT 53.310333 -6.558681 10,225 203 277 2880
2022-06-27 06:53:24 GMT 53.313484 -6.556495 10,025 203 277 3200
2022-06-27 06:53:21 GMT 53.316792 -6.554153 9,950 203 277 3200
2022-06-27 06:53:19 GMT 53.319862 -6.552052 9,750 203 277 3072
2022-06-27 06:53:15 GMT 53.324066 -6.549186 9,625 203 277 2752
2022-06-27 06:53:13 GMT 53.326099 -6.547771 9,525 203 276 2688
2022-06-27 06:53:10 GMT 53.329544 -6.545347 9,425 203 275 2496
2022-06-27 06:53:07 GMT 53.333633 -6.542515 9,325 203 274 2496
2022-06-27 06:53:04 GMT 53.336655 -6.540397 9,125 203 273 2752
2022-06-27 06:53:02 GMT 53.338486 -6.539141 8,950 203 270 3072
2022-06-27 06:52:58 GMT 53.344299 -6.535060 8,825 203 270 3200
2022-06-27 06:52:56 GMT 53.345421 -6.534280 8,775 203 270 3392
2022-06-27 06:52:54 GMT 53.348785 -6.532000 8,625 203 270 3392
2022-06-27 06:52:51 GMT 53.352356 -6.529433 8,450 203 272 3328
2022-06-27 06:52:48 GMT 53.355148 -6.527527 8,325 203 272 3136
2022-06-27 06:52:45 GMT 53.358643 -6.525152 8,075 203 271 2880
2022-06-27 06:52:42 GMT 53.362244 -6.522661 7,925 203 270 2880
2022-06-27 06:52:39 GMT 53.365345 -6.520467 7,750 203 270 2944
2022-06-27 06:52:36 GMT 53.369156 -6.517875 7,725 203 269 3008
2022-06-27 06:52:34 GMT 53.371906 -6.516024 7,625 203 269 3008
2022-06-27 06:52:30 GMT 53.375957 -6.513196 7,425 203 268 3008
2022-06-27 06:52:28 GMT 53.378330 -6.511581 7,325 203 267 3008
2022-06-27 06:52:25 GMT 53.385361 -6.506814 7,125 202 266 3200
2022-06-27 06:52:22 GMT 53.385361 -6.506814 7,025 203 266 3136
2022-06-27 06:52:18 GMT 53.389938 -6.503749 6,825 202 266 3264
2022-06-27 06:52:15 GMT 53.392776 -6.501866 6,675 202 265 3200
2022-06-27 06:52:13 GMT 53.394928 -6.500375 6,575 202 264 3072
2022-06-27 06:52:10 GMT 53.398270 -6.498178 6,425 203 264 2944
2022-06-27 06:52:08 GMT 53.401291 -6.496137 6,300 203 263 3008
2022-06-27 06:52:06 GMT 53.403519 -6.494536 6,200 204 263 3008
2022-06-27 06:52:03 GMT 53.408249 -6.490958 6,025 205 261 3264
2022-06-27 06:52:01 GMT 53.408249 -6.490958 5,975 205 261 3264
2022-06-27 06:51:58 GMT 53.411385 -6.488396 5,650 208 260 3264
2022-06-27 06:51:55 GMT 53.415573 -6.484131 5,600 215 257 3200
2022-06-27 06:51:53 GMT 53.417358 -6.481934 5,500 229 252 3392
2022-06-27 06:51:51 GMT 53.418732 -6.479972 5,350 225 253 3328
2022-06-27 06:51:46 GMT 53.423161 -6.472159 5,100 235 252 3456
2022-06-27 06:51:43 GMT 53.425072 -6.467635 4,925 241 250 3392
2022-06-27 06:51:38 GMT 53.427956 -6.458184 4,625 251 249 3264
2022-06-27 06:51:35 GMT 53.428894 -6.453526 4,475 259 247 3008
2022-06-27 06:51:32 GMT 53.429764 -6.447013 4,325 263 246 2880
2022-06-27 06:51:28 GMT 53.430130 -6.439244 4,125 271 245 2816
2022-06-27 06:51:25 GMT 53.430099 -6.434030 3,975 275 243 2816
2022-06-27 06:51:21 GMT 53.429771 -6.427567 3,825 276 242 2624
2022-06-27 06:51:17 GMT 53.429352 -6.419939 3,650 276 239 2304
2022-06-27 06:51:14 GMT 53.429031 -6.414917 3,550 276 236 2112
2022-06-27 06:51:11 GMT 53.428757 -6.409581 3,500 276 234 1920
2022-06-27 06:51:07 GMT 53.428329 -6.402283 3,275 276 227 1664
2022-06-27 06:51:04 GMT 53.428070 -6.397496 3,275 276 222 1664
2022-06-27 06:51:01 GMT 53.427750 -6.391375 3,175 276 219 1600
2022-06-27 06:50:58 GMT 53.427490 -6.387338 3,025 276 212 1344
2022-06-27 06:50:55 GMT 53.426971 -6.378034 3,000 276 201 448
2022-06-27 06:50:50 GMT 53.426746 -6.374655 2,975 276 203 512
2022-06-27 06:50:44 GMT 53.426189 -6.365365 2,925 276 188 960
2022-06-27 06:50:41 GMT 53.425907 -6.360438 2,875 276 184 1088
2022-06-27 06:50:38 GMT 53.425644 -6.355826 2,775 276 177 1088
2022-06-27 06:50:34 GMT 53.425304 -6.350582 2,750 276 175 1088
2022-06-27 06:50:31 GMT 53.425072 -6.346059 2,675 276 169 1216
2022-06-27 06:50:26 GMT 53.424789 -6.340808 2,625 276 166 1280
2022-06-27 06:50:23 GMT 53.424557 -6.336365 2,525 275 161 1280
2022-06-27 06:50:20 GMT 53.424419 -6.333376 2,475 275 157 1280
2022-06-27 06:50:17 GMT 53.424179 -6.328596 2,375 275 152 1408
2022-06-27 06:50:13 GMT 53.423950 -6.324437 2,150 275 148 1856
2022-06-27 06:50:10 GMT 53.423584 -6.315491 2,025 275 141 2752
2022-06-27 06:50:04 GMT 53.423489 -6.313827 1,950 275 142 3136
2022-06-27 06:50:00 GMT 53.423355 -6.310468 1,775 274 144 3136
2022-06-27 06:49:57 GMT 53.423126 -6.305682 1,550 274 146 3200
2022-06-27 06:49:54 GMT 53.423035 -6.303092 1,375 275 147 3072
2022-06-27 06:49:50 GMT 53.422852 -6.298776 1,225 275 148 3264
2022-06-27 06:49:44 GMT 53.422508 -6.291369 875 275 152 3328
2022-06-27 06:49:40 GMT 53.422302 -6.287319 675 275 155 3200
2022-06-27 06:49:33 GMT 53.421810 -6.278202 325 276 160 2560
2022-06-27 06:49:22 GMT 53.421158 -6.266523 300 276 134 64
2022-06-27 06:49:17 GMT 53.420883 -6.261501 300 275 107 192
2022-06-27 06:49:09 GMT 53.420551 -6.255772 0 275 74
2022-06-27 06:48:59 GMT 53.420334 -6.251847 0 275 19
2022-06-27 06:48:49 GMT 53.420288 -6.250985 0 275 8
2022-06-27 06:48:39 GMT 53.420254 -6.250393 0 272 8
2022-06-27 06:48:29 GMT 53.420277 -6.249808 0 236 9
2022-06-27 06:48:18 GMT 53.420574 -6.249220 0 225 12
2022-06-27 06:48:09 GMT 53.420879 -6.248696 0 225 8
2022-06-27 06:47:58 GMT 53.421078 -6.248356 0 225 5
2022-06-27 06:47:35 GMT 53.421196 -6.248171 0 227 0
2022-06-27 06:46:30 GMT 53.421192 -6.248160 0 227 0
2022-06-27 06:46:20 GMT 53.421196 -6.248171 0 225 0
2022-06-27 06:46:05 GMT 53.421192 -6.248160 0 227 0
2022-06-27 06:45:22 GMT 53.421196 -6.248171 0 225 0
2022-06-27 06:45:15 GMT 53.421192 -6.248160 0 227 0
2022-06-27 06:45:05 GMT 53.421196 -6.248151 0 225 0
2022-06-27 06:44:54 GMT 53.421253 -6.248050 0 227 3
2022-06-27 06:44:35 GMT 53.421383 -6.247828 0 227 3
2022-06-27 06:44:34 GMT 53.421387 -6.247827 0 227 3
2022-06-27 06:44:25 GMT 53.421463 -6.247686 0 227 3
2022-06-27 06:39:35 GMT 53.421730 -6.247060 0 258 0
2022-06-27 06:37:53 GMT 53.421741 -6.247022 0 258 0
2022-06-27 06:37:47 GMT 53.421753 -6.246980 0 261 2
2022-06-27 06:37:35 GMT 53.421776 -6.246807 0 270 2
2022-06-27 06:37:28 GMT 53.421776 -6.246689 0 272 3
2022-06-27 06:37:17 GMT 53.421776 -6.246473 0 275 5
2022-06-27 06:37:07 GMT 53.421753 -6.246081 0 275 7
2022-06-27 06:36:56 GMT 53.421719 -6.245606 0 275 4
2022-06-27 06:36:39 GMT 53.421707 -6.245335 0 275 0
2022-06-27 06:36:34 GMT 53.421707 -6.245324 0 275 0
2022-06-27 06:36:24 GMT 53.421707 -6.245335 0 275 0
2022-06-27 06:36:14 GMT 53.421707 -6.245324 0 275 0
2022-06-27 06:35:46 GMT 53.421707 -6.245335 0 275 0
2022-06-27 06:35:36 GMT 53.421707 -6.245324 0 275 0
2022-06-27 06:35:25 GMT 53.421707 -6.245243 0 275 4
2022-06-27 06:35:15 GMT 53.421696 -6.244943 0 275 4
2022-06-27 06:35:01 GMT 53.421661 -6.244531 0 272 5
2022-06-27 06:34:55 GMT 53.421661 -6.244315 0 275 5
2022-06-27 06:34:45 GMT 53.421638 -6.243991 0 275 5
2022-06-27 06:34:34 GMT 53.421616 -6.243546 0 272 7
2022-06-27 06:34:24 GMT 53.421593 -6.243079 0 264 7
2022-06-27 06:34:13 GMT 53.421638 -6.242549 0 233 7
2022-06-27 06:34:05 GMT 53.421810 -6.242173 0 219 8
2022-06-27 06:33:54 GMT 53.422104 -6.241769 0 222 9
2022-06-27 06:33:44 GMT 53.422382 -6.241325 0 230 8
2022-06-27 06:33:34 GMT 53.422581 -6.240881 0 258 7
2022-06-27 06:33:23 GMT 53.422611 -6.240391 0 292 5
2022-06-27 06:33:13 GMT 53.422558 -6.240154 0 295 2
2022-06-27 06:33:03 GMT 53.422523 -6.240053 0 295 2
2022-06-27 06:29:56 GMT 53.422474 -6.239891 0 295 0
2022-06-27 06:29:41 GMT 53.422474 -6.239881 0 295 0
2022-06-27 06:29:31 GMT 53.422474 -6.239891 0 295 0
2022-06-27 06:29:20 GMT 53.422474 -6.239901 0 295 1
2022-06-27 06:29:17 GMT 53.422474 -6.239862 0 295 3
2022-06-27 06:29:09 GMT 53.422440 -6.239750 0 295 3
2022-06-27 06:28:58 GMT 53.422382 -6.239548 0 295 3
2022-06-27 06:28:48 GMT 53.422337 -6.239391 0 292 3
2022-06-27 06:28:38 GMT 53.422302 -6.239225 0 298 3
2022-06-27 06:28:29 GMT 53.422264 -6.239083 0 309 2
2022-06-27 06:28:18 GMT 53.422230 -6.239023 0 306 0
2022-06-27 06:28:08 GMT 53.422276 -6.239103 0 309 3
2022-06-27 06:27:58 GMT 53.422382 -6.239155 0 329 3
2022-06-27 06:27:48 GMT 53.422501 -6.239184 0 345 3
2022-06-27 06:27:38 GMT 53.422611 -6.239038 0 19 3
2022-06-27 06:27:28 GMT 53.422722 -6.238922 0 28 3
2022-06-27 06:27:15 GMT 53.422966 -6.238685 0 28 0

Making use of Plane Finder data

You are free to use the raw flight data, aircraft information and images provided in this report for your own purposes provided the data is correctly attributed to Plane Finder. We ask that you please credit Plane Finder and link to planefinder.net in close proximity to the content.

Optionally one of the following logos (no smaller then 150x24px) can be used and must link to planefinder.net

Embedding the Plane Finder map

You are welcome to embed the Plane Finder playback map on your website to offer visitors a more interactive experience. We suggest using the following HTML code:

<iframe src="//planefinder.net/data/report/EI432-EI-EDP-7700-squawk-2022-06-27/map" width="800" height="600" seamless="seamless"></iframe>

Where our data comes from

Plane Finder has a global network of data feeds and antenna radars that receive data broadcast directly from aircraft. The primary technologies used are ADS-B and MLAT. We also show feeds from the FAA and a FLARM glider feed.

Click here to find out more about the Plane Finder network.

How we collect our data